<?xml version="1.0" encoding="UTF-8"?>
<gpx xmlns="http://www.topografix.com/GPX/1/1" xmlns:xsi="http://www.w3.org/2001/XMLSchema-instance" version="1.1" xsi:schemaLocation="http://www.topografix.com/GPX/1/1 http://www.topografix.com/GPX/1/1/gpx.xsd">
  <metadata>
    <name>Silkeborg Triathlon</name>
  </metadata>
  <trk>
    <name>Silkeborg Triathlon</name>
    <trkseg>
      <trkpt lat="56.148775" lon="9.556101">
        <ele>33.73431</ele>
        <time>2024-08-25T10:38:00.000Z</time>
      </trkpt>
      <trkpt lat="56.14871" lon="9.556188">
        <ele>33.734308</ele>
        <time>2024-08-25T10:38:01.000Z</time>
      </trkpt>
      <trkpt lat="56.148351" lon="9.556625">
        <ele>33.734302</ele>
        <time>2024-08-25T10:38:06.000Z</time>
      </trkpt>
      <trkpt lat="56.147661" lon="9.55734">
        <ele>35.521012</ele>
        <time>2024-08-25T10:38:15.000Z</time>
      </trkpt>
      <trkpt lat="56.14696" lon="9.55784">
        <ele>38.685522</ele>
        <time>2024-08-25T10:38:23.000Z</time>
      </trkpt>
      <trkpt lat="56.146527" lon="9.558104">
        <ele>40.616411</ele>
        <time>2024-08-25T10:38:28.000Z</time>
      </trkpt>
      <trkpt lat="56.145707" lon="9.558471">
        <ele>43.061484</ele>
        <time>2024-08-25T10:38:37.000Z</time>
      </trkpt>
      <trkpt lat="56.143201" lon="9.559334">
        <ele>48.345876</ele>
        <time>2024-08-25T10:39:05.000Z</time>
      </trkpt>
      <trkpt lat="56.142811" lon="9.559423">
        <ele>48.943082</ele>
        <time>2024-08-25T10:39:09.000Z</time>
      </trkpt>
      <trkpt lat="56.142337" lon="9.5595">
        <ele>48.785988</ele>
        <time>2024-08-25T10:39:14.000Z</time>
      </trkpt>
      <trkpt lat="56.141912" lon="9.559561">
        <ele>48.64506</ele>
        <time>2024-08-25T10:39:19.000Z</time>
      </trkpt>
      <trkpt lat="56.141679" lon="9.559603">
        <ele>48.563878</ele>
        <time>2024-08-25T10:39:22.000Z</time>
      </trkpt>
      <trkpt lat="56.141493" lon="9.559634">
        <ele>48.505442</ele>
        <time>2024-08-25T10:39:24.000Z</time>
      </trkpt>
      <trkpt lat="56.141402" lon="9.559647">
        <ele>48.474008</ele>
        <time>2024-08-25T10:39:25.000Z</time>
      </trkpt>
      <trkpt lat="56.141351" lon="9.5596">
        <ele>48.452504</ele>
        <time>2024-08-25T10:39:26.000Z</time>
      </trkpt>
      <trkpt lat="56.140955" lon="9.559662">
        <ele>48.2564</ele>
        <time>2024-08-25T10:39:30.000Z</time>
      </trkpt>
      <trkpt lat="56.140493" lon="9.559729">
        <ele>47.784525</ele>
        <time>2024-08-25T10:39:35.000Z</time>
      </trkpt>
      <trkpt lat="56.140379" lon="9.559757">
        <ele>47.659334</ele>
        <time>2024-08-25T10:39:36.000Z</time>
      </trkpt>
      <trkpt lat="56.140247" lon="9.559768">
        <ele>47.516558</ele>
        <time>2024-08-25T10:39:37.000Z</time>
      </trkpt>
      <trkpt lat="56.139773" lon="9.559844">
        <ele>47.026262</ele>
        <time>2024-08-25T10:39:42.000Z</time>
      </trkpt>
      <trkpt lat="56.137961" lon="9.560166">
        <ele>46.116422</ele>
        <time>2024-08-25T10:40:02.000Z</time>
      </trkpt>
      <trkpt lat="56.137899" lon="9.560171">
        <ele>46.096555</ele>
        <time>2024-08-25T10:40:03.000Z</time>
      </trkpt>
      <trkpt lat="56.137896" lon="9.560172">
        <ele>46.095073</ele>
        <time>2024-08-25T10:40:03.000Z</time>
      </trkpt>
      <trkpt lat="56.13769" lon="9.560209">
        <ele>46.034307</ele>
        <time>2024-08-25T10:40:05.000Z</time>
      </trkpt>
      <trkpt lat="56.137442" lon="9.560245">
        <ele>45.953739</ele>
        <time>2024-08-25T10:40:08.000Z</time>
      </trkpt>
      <trkpt lat="56.136984" lon="9.560325">
        <ele>45.636886</ele>
        <time>2024-08-25T10:40:13.000Z</time>
      </trkpt>
      <trkpt lat="56.136917" lon="9.56033">
        <ele>45.577911</ele>
        <time>2024-08-25T10:40:14.000Z</time>
      </trkpt>
      <trkpt lat="56.136427" lon="9.560435">
        <ele>45.245579</ele>
        <time>2024-08-25T10:40:19.000Z</time>
      </trkpt>
      <trkpt lat="56.134997" lon="9.560683">
        <ele>43.189445</ele>
        <time>2024-08-25T10:40:35.000Z</time>
      </trkpt>
      <trkpt lat="56.134902" lon="9.560695">
        <ele>42.971388</ele>
        <time>2024-08-25T10:40:36.000Z</time>
      </trkpt>
      <trkpt lat="56.134702" lon="9.560734">
        <ele>42.505757</ele>
        <time>2024-08-25T10:40:38.000Z</time>
      </trkpt>
      <trkpt lat="56.134004" lon="9.560897">
        <ele>40.892441</ele>
        <time>2024-08-25T10:40:46.000Z</time>
      </trkpt>
      <trkpt lat="56.133525" lon="9.561129">
        <ele>39.725979</ele>
        <time>2024-08-25T10:40:52.000Z</time>
      </trkpt>
      <trkpt lat="56.133185" lon="9.561272">
        <ele>38.910353</ele>
        <time>2024-08-25T10:40:56.000Z</time>
      </trkpt>
      <trkpt lat="56.132077" lon="9.561948">
        <ele>36.068531</ele>
        <time>2024-08-25T10:41:09.000Z</time>
      </trkpt>
      <trkpt lat="56.131668" lon="9.562197">
        <ele>34.955521</ele>
        <time>2024-08-25T10:41:14.000Z</time>
      </trkpt>
      <trkpt lat="56.131632" lon="9.562004">
        <ele>34.642611</ele>
        <time>2024-08-25T10:41:15.000Z</time>
      </trkpt>
      <trkpt lat="56.131554" lon="9.561723">
        <ele>34.179746</ele>
        <time>2024-08-25T10:41:17.000Z</time>
      </trkpt>
      <trkpt lat="56.131484" lon="9.561605">
        <ele>33.946399</ele>
        <time>2024-08-25T10:41:18.000Z</time>
      </trkpt>
      <trkpt lat="56.131411" lon="9.561491">
        <ele>33.670986</ele>
        <time>2024-08-25T10:41:19.000Z</time>
      </trkpt>
      <trkpt lat="56.131258" lon="9.561383">
        <ele>33.254325</ele>
        <time>2024-08-25T10:41:21.000Z</time>
      </trkpt>
      <trkpt lat="56.13092" lon="9.561216">
        <ele>32.313631</ele>
        <time>2024-08-25T10:41:25.000Z</time>
      </trkpt>
      <trkpt lat="56.130832" lon="9.561161">
        <ele>32.055886</ele>
        <time>2024-08-25T10:41:26.000Z</time>
      </trkpt>
      <trkpt lat="56.130673" lon="9.5611">
        <ele>31.654269</ele>
        <time>2024-08-25T10:41:28.000Z</time>
      </trkpt>
      <trkpt lat="56.130292" lon="9.560925">
        <ele>31.099155</ele>
        <time>2024-08-25T10:41:32.000Z</time>
      </trkpt>
      <trkpt lat="56.129948" lon="9.560828">
        <ele>30.622285</ele>
        <time>2024-08-25T10:41:36.000Z</time>
      </trkpt>
      <trkpt lat="56.129598" lon="9.560766">
        <ele>30.128555</ele>
        <time>2024-08-25T10:41:40.000Z</time>
      </trkpt>
      <trkpt lat="56.129247" lon="9.560804">
        <ele>29.647499</ele>
        <time>2024-08-25T10:41:44.000Z</time>
      </trkpt>
      <trkpt lat="56.12915" lon="9.560798">
        <ele>29.517446</ele>
        <time>2024-08-25T10:41:45.000Z</time>
      </trkpt>
      <trkpt lat="56.128771" lon="9.560849">
        <ele>29.411814</ele>
        <time>2024-08-25T10:41:49.000Z</time>
      </trkpt>
      <trkpt lat="56.12844" lon="9.560878">
        <ele>30.241585</ele>
        <time>2024-08-25T10:41:53.000Z</time>
      </trkpt>
      <trkpt lat="56.128163" lon="9.560923">
        <ele>30.916902</ele>
        <time>2024-08-25T10:41:56.000Z</time>
      </trkpt>
      <trkpt lat="56.128021" lon="9.560938">
        <ele>31.260731</ele>
        <time>2024-08-25T10:41:58.000Z</time>
      </trkpt>
      <trkpt lat="56.127683" lon="9.560977">
        <ele>32.116319</ele>
        <time>2024-08-25T10:42:02.000Z</time>
      </trkpt>
      <trkpt lat="56.127485" lon="9.561012">
        <ele>32.622839</ele>
        <time>2024-08-25T10:42:04.000Z</time>
      </trkpt>
      <trkpt lat="56.127257" lon="9.561028">
        <ele>33.162711</ele>
        <time>2024-08-25T10:42:07.000Z</time>
      </trkpt>
      <trkpt lat="56.126651" lon="9.561134">
        <ele>35.466607</ele>
        <time>2024-08-25T10:42:14.000Z</time>
      </trkpt>
      <trkpt lat="56.126225" lon="9.561176">
        <ele>37.250762</ele>
        <time>2024-08-25T10:42:19.000Z</time>
      </trkpt>
      <trkpt lat="56.125719" lon="9.561242">
        <ele>39.406286</ele>
        <time>2024-08-25T10:42:25.000Z</time>
      </trkpt>
      <trkpt lat="56.125476" lon="9.561349">
        <ele>40.425482</ele>
        <time>2024-08-25T10:42:28.000Z</time>
      </trkpt>
      <trkpt lat="56.125242" lon="9.561523">
        <ele>41.551242</ele>
        <time>2024-08-25T10:42:31.000Z</time>
      </trkpt>
      <trkpt lat="56.124967" lon="9.561887">
        <ele>43.174158</ele>
        <time>2024-08-25T10:42:35.000Z</time>
      </trkpt>
      <trkpt lat="56.124946" lon="9.561897">
        <ele>43.198393</ele>
        <time>2024-08-25T10:42:35.000Z</time>
      </trkpt>
      <trkpt lat="56.124902" lon="9.561983">
        <ele>43.533844</ele>
        <time>2024-08-25T10:42:36.000Z</time>
      </trkpt>
      <trkpt lat="56.123667" lon="9.564496">
        <ele>52.179422</ele>
        <time>2024-08-25T10:42:57.000Z</time>
      </trkpt>
      <trkpt lat="56.123272" lon="9.565299">
        <ele>54.931197</ele>
        <time>2024-08-25T10:43:04.000Z</time>
      </trkpt>
      <trkpt lat="56.122944" lon="9.565958">
        <ele>57.185354</ele>
        <time>2024-08-25T10:43:09.000Z</time>
      </trkpt>
      <trkpt lat="56.122823" lon="9.566236">
        <ele>58.094267</ele>
        <time>2024-08-25T10:43:11.000Z</time>
      </trkpt>
      <trkpt lat="56.122765" lon="9.566743">
        <ele>59.333709</ele>
        <time>2024-08-25T10:43:14.000Z</time>
      </trkpt>
      <trkpt lat="56.122772" lon="9.567099">
        <ele>60.239212</ele>
        <time>2024-08-25T10:43:16.000Z</time>
      </trkpt>
      <trkpt lat="56.122281" lon="9.567165">
        <ele>62.392314</ele>
        <time>2024-08-25T10:43:21.000Z</time>
      </trkpt>
      <trkpt lat="56.121711" lon="9.567213">
        <ele>64.906333</ele>
        <time>2024-08-25T10:43:27.000Z</time>
      </trkpt>
      <trkpt lat="56.121196" lon="9.567191">
        <ele>66.967723</ele>
        <time>2024-08-25T10:43:33.000Z</time>
      </trkpt>
      <trkpt lat="56.121086" lon="9.567169">
        <ele>67.421581</ele>
        <time>2024-08-25T10:43:34.000Z</time>
      </trkpt>
      <trkpt lat="56.120497" lon="9.567079">
        <ele>69.637069</ele>
        <time>2024-08-25T10:43:41.000Z</time>
      </trkpt>
      <trkpt lat="56.120442" lon="9.567084">
        <ele>69.846848</ele>
        <time>2024-08-25T10:43:42.000Z</time>
      </trkpt>
      <trkpt lat="56.119741" lon="9.566886">
        <ele>72.570993</ele>
        <time>2024-08-25T10:43:50.000Z</time>
      </trkpt>
      <trkpt lat="56.119798" lon="9.566648">
        <ele>73.07735</ele>
        <time>2024-08-25T10:43:52.000Z</time>
      </trkpt>
      <trkpt lat="56.119843" lon="9.566429">
        <ele>73.553604</ele>
        <time>2024-08-25T10:43:53.000Z</time>
      </trkpt>
      <trkpt lat="56.120454" lon="9.565129">
        <ele>76.781443</ele>
        <time>2024-08-25T10:44:04.000Z</time>
      </trkpt>
      <trkpt lat="56.120482" lon="9.564979">
        <ele>77.112569</ele>
        <time>2024-08-25T10:44:05.000Z</time>
      </trkpt>
      <trkpt lat="56.12055" lon="9.564788">
        <ele>77.529337</ele>
        <time>2024-08-25T10:44:06.000Z</time>
      </trkpt>
      <trkpt lat="56.120653" lon="9.563853">
        <ele>79.470205</ele>
        <time>2024-08-25T10:44:12.000Z</time>
      </trkpt>
      <trkpt lat="56.120645" lon="9.563645">
        <ele>79.925494</ele>
        <time>2024-08-25T10:44:13.000Z</time>
      </trkpt>
      <trkpt lat="56.120582" lon="9.563397">
        <ele>80.547216</ele>
        <time>2024-08-25T10:44:15.000Z</time>
      </trkpt>
      <trkpt lat="56.120456" lon="9.563085">
        <ele>81.405389</ele>
        <time>2024-08-25T10:44:17.000Z</time>
      </trkpt>
      <trkpt lat="56.118858" lon="9.55991">
        <ele>92.127418</ele>
        <time>2024-08-25T10:44:44.000Z</time>
      </trkpt>
      <trkpt lat="56.118401" lon="9.559005">
        <ele>95.53366</ele>
        <time>2024-08-25T10:44:52.000Z</time>
      </trkpt>
      <trkpt lat="56.118202" lon="9.558612">
        <ele>96.969867</ele>
        <time>2024-08-25T10:44:55.000Z</time>
      </trkpt>
      <trkpt lat="56.117446" lon="9.557119">
        <ele>102.713958</ele>
        <time>2024-08-25T10:45:08.000Z</time>
      </trkpt>
      <trkpt lat="56.117177" lon="9.556692">
        <ele>104.231717</ele>
        <time>2024-08-25T10:45:12.000Z</time>
      </trkpt>
      <trkpt lat="56.117084" lon="9.556497">
        <ele>104.459708</ele>
        <time>2024-08-25T10:45:14.000Z</time>
      </trkpt>
      <trkpt lat="56.116841" lon="9.555935">
        <ele>105.079301</ele>
        <time>2024-08-25T10:45:18.000Z</time>
      </trkpt>
      <trkpt lat="56.116666" lon="9.555584">
        <ele>105.484246</ele>
        <time>2024-08-25T10:45:21.000Z</time>
      </trkpt>
      <trkpt lat="56.116221" lon="9.554826">
        <ele>106.463629</ele>
        <time>2024-08-25T10:45:28.000Z</time>
      </trkpt>
      <trkpt lat="56.115916" lon="9.55433">
        <ele>107.231329</ele>
        <time>2024-08-25T10:45:33.000Z</time>
      </trkpt>
      <trkpt lat="56.115802" lon="9.554081">
        <ele>107.724292</ele>
        <time>2024-08-25T10:45:35.000Z</time>
      </trkpt>
      <trkpt lat="56.115727" lon="9.553811">
        <ele>108.175305</ele>
        <time>2024-08-25T10:45:37.000Z</time>
      </trkpt>
      <trkpt lat="56.115457" lon="9.552118">
        <ele>110.882426</ele>
        <time>2024-08-25T10:45:48.000Z</time>
      </trkpt>
      <trkpt lat="56.115426" lon="9.551846">
        <ele>111.311766</ele>
        <time>2024-08-25T10:45:50.000Z</time>
      </trkpt>
      <trkpt lat="56.115446" lon="9.551559">
        <ele>111.743923</ele>
        <time>2024-08-25T10:45:52.000Z</time>
      </trkpt>
      <trkpt lat="56.115476" lon="9.55112">
        <ele>112.782194</ele>
        <time>2024-08-25T10:45:55.000Z</time>
      </trkpt>
      <trkpt lat="56.115756" lon="9.549044">
        <ele>118.075383</ele>
        <time>2024-08-25T10:46:08.000Z</time>
      </trkpt>
      <trkpt lat="56.116226" lon="9.545885">
        <ele>123.411141</ele>
        <time>2024-08-25T10:46:28.000Z</time>
      </trkpt>
      <trkpt lat="56.116272" lon="9.54514">
        <ele>124.350659</ele>
        <time>2024-08-25T10:46:33.000Z</time>
      </trkpt>
      <trkpt lat="56.11596" lon="9.542272">
        <ele>123.696923</ele>
        <time>2024-08-25T10:46:51.000Z</time>
      </trkpt>
      <trkpt lat="56.115441" lon="9.539805">
        <ele>120.047168</ele>
        <time>2024-08-25T10:47:07.000Z</time>
      </trkpt>
      <trkpt lat="56.115317" lon="9.539307">
        <ele>119.230018</ele>
        <time>2024-08-25T10:47:10.000Z</time>
      </trkpt>
      <trkpt lat="56.115192" lon="9.538856">
        <ele>118.373215</ele>
        <time>2024-08-25T10:47:13.000Z</time>
      </trkpt>
      <trkpt lat="56.114683" lon="9.537402">
        <ele>115.30564</ele>
        <time>2024-08-25T10:47:24.000Z</time>
      </trkpt>
      <trkpt lat="56.113989" lon="9.53535">
        <ele>111.273085</ele>
        <time>2024-08-25T10:47:39.000Z</time>
      </trkpt>
      <trkpt lat="56.113935" lon="9.535175">
        <ele>110.96718</ele>
        <time>2024-08-25T10:47:40.000Z</time>
      </trkpt>
      <trkpt lat="56.113747" lon="9.534776">
        <ele>110.131032</ele>
        <time>2024-08-25T10:47:43.000Z</time>
      </trkpt>
      <trkpt lat="56.112279" lon="9.531436">
        <ele>103.702565</ele>
        <time>2024-08-25T10:48:09.000Z</time>
      </trkpt>
      <trkpt lat="56.11203" lon="9.531048">
        <ele>102.904373</ele>
        <time>2024-08-25T10:48:13.000Z</time>
      </trkpt>
      <trkpt lat="56.111997" lon="9.530997">
        <ele>102.781024</ele>
        <time>2024-08-25T10:48:13.000Z</time>
      </trkpt>
      <trkpt lat="56.111426" lon="9.530153">
        <ele>101.140844</ele>
        <time>2024-08-25T10:48:21.000Z</time>
      </trkpt>
      <trkpt lat="56.111214" lon="9.529743">
        <ele>100.445758</ele>
        <time>2024-08-25T10:48:24.000Z</time>
      </trkpt>
      <trkpt lat="56.110536" lon="9.528264">
        <ele>98.775915</ele>
        <time>2024-08-25T10:48:36.000Z</time>
      </trkpt>
      <trkpt lat="56.112775" lon="9.524614">
        <ele>97.594682</ele>
        <time>2024-08-25T10:49:10.000Z</time>
      </trkpt>
      <trkpt lat="56.113671" lon="9.523177">
        <ele>98.608995</ele>
        <time>2024-08-25T10:49:23.000Z</time>
      </trkpt>
      <trkpt lat="56.113829" lon="9.522792">
        <ele>98.84677</ele>
        <time>2024-08-25T10:49:26.000Z</time>
      </trkpt>
      <trkpt lat="56.11395" lon="9.522379">
        <ele>99.081342</ele>
        <time>2024-08-25T10:49:29.000Z</time>
      </trkpt>
      <trkpt lat="56.113998" lon="9.522043">
        <ele>99.197271</ele>
        <time>2024-08-25T10:49:31.000Z</time>
      </trkpt>
      <trkpt lat="56.113985" lon="9.521547">
        <ele>99.130472</ele>
        <time>2024-08-25T10:49:34.000Z</time>
      </trkpt>
      <trkpt lat="56.113735" lon="9.518291">
        <ele>98.39295</ele>
        <time>2024-08-25T10:49:54.000Z</time>
      </trkpt>
      <trkpt lat="56.11375" lon="9.517649">
        <ele>98.012158</ele>
        <time>2024-08-25T10:49:58.000Z</time>
      </trkpt>
      <trkpt lat="56.113937" lon="9.515479">
        <ele>96.734684</ele>
        <time>2024-08-25T10:50:12.000Z</time>
      </trkpt>
      <trkpt lat="56.113912" lon="9.515114">
        <ele>96.523319</ele>
        <time>2024-08-25T10:50:14.000Z</time>
      </trkpt>
      <trkpt lat="56.11372" lon="9.513504">
        <ele>95.614196</ele>
        <time>2024-08-25T10:50:24.000Z</time>
      </trkpt>
      <trkpt lat="56.113204" lon="9.511476">
        <ele>95.679305</ele>
        <time>2024-08-25T10:50:38.000Z</time>
      </trkpt>
      <trkpt lat="56.113006" lon="9.510463">
        <ele>96.172843</ele>
        <time>2024-08-25T10:50:45.000Z</time>
      </trkpt>
      <trkpt lat="56.112875" lon="9.5092">
        <ele>97.256378</ele>
        <time>2024-08-25T10:50:53.000Z</time>
      </trkpt>
      <trkpt lat="56.112859" lon="9.508883">
        <ele>97.768868</ele>
        <time>2024-08-25T10:50:55.000Z</time>
      </trkpt>
      <trkpt lat="56.11294" lon="9.508326">
        <ele>98.697767</ele>
        <time>2024-08-25T10:50:59.000Z</time>
      </trkpt>
      <trkpt lat="56.113055" lon="9.507954">
        <ele>99.380088</ele>
        <time>2024-08-25T10:51:02.000Z</time>
      </trkpt>
      <trkpt lat="56.113118" lon="9.507791">
        <ele>99.703481</ele>
        <time>2024-08-25T10:51:03.000Z</time>
      </trkpt>
      <trkpt lat="56.113198" lon="9.507567">
        <ele>100.120447</ele>
        <time>2024-08-25T10:51:05.000Z</time>
      </trkpt>
      <trkpt lat="56.113268" lon="9.507217">
        <ele>100.722455</ele>
        <time>2024-08-25T10:51:07.000Z</time>
      </trkpt>
      <trkpt lat="56.113281" lon="9.506503">
        <ele>101.906327</ele>
        <time>2024-08-25T10:51:11.000Z</time>
      </trkpt>
      <trkpt lat="56.113249" lon="9.50527">
        <ele>104.003821</ele>
        <time>2024-08-25T10:51:19.000Z</time>
      </trkpt>
      <trkpt lat="56.113157" lon="9.504347">
        <ele>105.595429</ele>
        <time>2024-08-25T10:51:25.000Z</time>
      </trkpt>
      <trkpt lat="56.11288" lon="9.501948">
        <ele>109.417542</ele>
        <time>2024-08-25T10:51:40.000Z</time>
      </trkpt>
      <trkpt lat="56.11284" lon="9.501644">
        <ele>109.880794</ele>
        <time>2024-08-25T10:51:42.000Z</time>
      </trkpt>
      <trkpt lat="56.112775" lon="9.501347">
        <ele>110.375547</ele>
        <time>2024-08-25T10:51:44.000Z</time>
      </trkpt>
      <trkpt lat="56.112638" lon="9.500936">
        <ele>111.071522</ele>
        <time>2024-08-25T10:51:47.000Z</time>
      </trkpt>
      <trkpt lat="56.111782" lon="9.502385">
        <ele>113.611636</ele>
        <time>2024-08-25T10:52:00.000Z</time>
      </trkpt>
      <trkpt lat="56.111289" lon="9.503198">
        <ele>114.870441</ele>
        <time>2024-08-25T10:52:07.000Z</time>
      </trkpt>
      <trkpt lat="56.110965" lon="9.503954">
        <ele>115.501952</ele>
        <time>2024-08-25T10:52:13.000Z</time>
      </trkpt>
      <trkpt lat="56.110708" lon="9.504886">
        <ele>115.556836</ele>
        <time>2024-08-25T10:52:19.000Z</time>
      </trkpt>
      <trkpt lat="56.110539" lon="9.505466">
        <ele>115.590803</ele>
        <time>2024-08-25T10:52:23.000Z</time>
      </trkpt>
      <trkpt lat="56.11041" lon="9.505937">
        <ele>115.618821</ele>
        <time>2024-08-25T10:52:26.000Z</time>
      </trkpt>
      <trkpt lat="56.110208" lon="9.506534">
        <ele>115.621757</ele>
        <time>2024-08-25T10:52:30.000Z</time>
      </trkpt>
      <trkpt lat="56.109569" lon="9.508087">
        <ele>114.643634</ele>
        <time>2024-08-25T10:52:42.000Z</time>
      </trkpt>
      <trkpt lat="56.108304" lon="9.511136">
        <ele>112.152949</ele>
        <time>2024-08-25T10:53:06.000Z</time>
      </trkpt>
      <trkpt lat="56.107976" lon="9.512005">
        <ele>111.0181</ele>
        <time>2024-08-25T10:53:13.000Z</time>
      </trkpt>
      <trkpt lat="56.107888" lon="9.512213">
        <ele>110.586584</ele>
        <time>2024-08-25T10:53:15.000Z</time>
      </trkpt>
      <trkpt lat="56.107416" lon="9.51333">
        <ele>108.313293</ele>
        <time>2024-08-25T10:53:24.000Z</time>
      </trkpt>
      <trkpt lat="56.107145" lon="9.513989">
        <ele>106.983025</ele>
        <time>2024-08-25T10:53:29.000Z</time>
      </trkpt>
      <trkpt lat="56.107138" lon="9.513985">
        <ele>106.983035</ele>
        <time>2024-08-25T10:53:29.000Z</time>
      </trkpt>
      <trkpt lat="56.107147" lon="9.513987">
        <ele>106.983025</ele>
        <time>2024-08-25T10:53:29.000Z</time>
      </trkpt>
      <trkpt lat="56.106047" lon="9.516234">
        <ele>102.195115</ele>
        <time>2024-08-25T10:53:48.000Z</time>
      </trkpt>
      <trkpt lat="56.10592" lon="9.516496">
        <ele>101.641152</ele>
        <time>2024-08-25T10:53:50.000Z</time>
      </trkpt>
      <trkpt lat="56.105371" lon="9.517626">
        <ele>102.404507</ele>
        <time>2024-08-25T10:53:59.000Z</time>
      </trkpt>
      <trkpt lat="56.104888" lon="9.518621">
        <ele>103.570014</ele>
        <time>2024-08-25T10:54:07.000Z</time>
      </trkpt>
      <trkpt lat="56.104213" lon="9.519976">
        <ele>106.01437</ele>
        <time>2024-08-25T10:54:18.000Z</time>
      </trkpt>
      <trkpt lat="56.103766" lon="9.520866">
        <ele>107.928367</ele>
        <time>2024-08-25T10:54:25.000Z</time>
      </trkpt>
      <trkpt lat="56.10347" lon="9.52153">
        <ele>109.284041</ele>
        <time>2024-08-25T10:54:30.000Z</time>
      </trkpt>
      <trkpt lat="56.102757" lon="9.523164">
        <ele>110.577168</ele>
        <time>2024-08-25T10:54:43.000Z</time>
      </trkpt>
      <trkpt lat="56.101976" lon="9.524913">
        <ele>111.373683</ele>
        <time>2024-08-25T10:54:57.000Z</time>
      </trkpt>
      <trkpt lat="56.101591" lon="9.525761">
        <ele>111.460685</ele>
        <time>2024-08-25T10:55:04.000Z</time>
      </trkpt>
      <trkpt lat="56.100822" lon="9.527525">
        <ele>111.42355</ele>
        <time>2024-08-25T10:55:18.000Z</time>
      </trkpt>
      <trkpt lat="56.1006" lon="9.528044">
        <ele>111.358762</ele>
        <time>2024-08-25T10:55:22.000Z</time>
      </trkpt>
      <trkpt lat="56.100517" lon="9.528212">
        <ele>111.336507</ele>
        <time>2024-08-25T10:55:23.000Z</time>
      </trkpt>
      <trkpt lat="56.100327" lon="9.528627">
        <ele>111.281772</ele>
        <time>2024-08-25T10:55:26.000Z</time>
      </trkpt>
      <trkpt lat="56.100007" lon="9.529386">
        <ele>111.222116</ele>
        <time>2024-08-25T10:55:32.000Z</time>
      </trkpt>
      <trkpt lat="56.098957" lon="9.531751">
        <ele>111.174238</ele>
        <time>2024-08-25T10:55:51.000Z</time>
      </trkpt>
      <trkpt lat="56.098587" lon="9.532588">
        <ele>110.641413</ele>
        <time>2024-08-25T10:55:58.000Z</time>
      </trkpt>
      <trkpt lat="56.098084" lon="9.533526">
        <ele>109.977211</ele>
        <time>2024-08-25T10:56:06.000Z</time>
      </trkpt>
      <trkpt lat="56.097459" lon="9.534276">
        <ele>109.16074</ele>
        <time>2024-08-25T10:56:14.000Z</time>
      </trkpt>
      <trkpt lat="56.097392" lon="9.534364">
        <ele>109.055766</ele>
        <time>2024-08-25T10:56:15.000Z</time>
      </trkpt>
      <trkpt lat="56.096249" lon="9.535751">
        <ele>107.23422</ele>
        <time>2024-08-25T10:56:30.000Z</time>
      </trkpt>
      <trkpt lat="56.096227" lon="9.535689">
        <ele>107.222506</ele>
        <time>2024-08-25T10:56:30.000Z</time>
      </trkpt>
      <trkpt lat="56.095904" lon="9.534922">
        <ele>107.061213</ele>
        <time>2024-08-25T10:56:36.000Z</time>
      </trkpt>
      <trkpt lat="56.094009" lon="9.530178">
        <ele>106.877466</ele>
        <time>2024-08-25T10:57:12.000Z</time>
      </trkpt>
      <trkpt lat="56.092554" lon="9.526546">
        <ele>108.390015</ele>
        <time>2024-08-25T10:57:40.000Z</time>
      </trkpt>
      <trkpt lat="56.092504" lon="9.526437">
        <ele>108.457652</ele>
        <time>2024-08-25T10:57:41.000Z</time>
      </trkpt>
      <trkpt lat="56.092251" lon="9.525841">
        <ele>108.812899</ele>
        <time>2024-08-25T10:57:46.000Z</time>
      </trkpt>
      <trkpt lat="56.092051" lon="9.525383">
        <ele>109.099701</ele>
        <time>2024-08-25T10:57:50.000Z</time>
      </trkpt>
      <trkpt lat="56.091811" lon="9.525024">
        <ele>109.555207</ele>
        <time>2024-08-25T10:57:53.000Z</time>
      </trkpt>
      <trkpt lat="56.091343" lon="9.524479">
        <ele>110.433677</ele>
        <time>2024-08-25T10:57:59.000Z</time>
      </trkpt>
      <trkpt lat="56.090534" lon="9.523856">
        <ele>111.789162</ele>
        <time>2024-08-25T10:58:09.000Z</time>
      </trkpt>
      <trkpt lat="56.090458" lon="9.523793">
        <ele>111.914371</ele>
        <time>2024-08-25T10:58:10.000Z</time>
      </trkpt>
      <trkpt lat="56.090177" lon="9.523532">
        <ele>112.203315</ele>
        <time>2024-08-25T10:58:14.000Z</time>
      </trkpt>
      <trkpt lat="56.090121" lon="9.523464">
        <ele>112.260738</ele>
        <time>2024-08-25T10:58:15.000Z</time>
      </trkpt>
      <trkpt lat="56.089973" lon="9.523286">
        <ele>112.42119</ele>
        <time>2024-08-25T10:58:17.000Z</time>
      </trkpt>
      <trkpt lat="56.089723" lon="9.522904">
        <ele>112.726952</ele>
        <time>2024-08-25T10:58:21.000Z</time>
      </trkpt>
      <trkpt lat="56.089517" lon="9.522526">
        <ele>112.990013</ele>
        <time>2024-08-25T10:58:24.000Z</time>
      </trkpt>
      <trkpt lat="56.089368" lon="9.522158">
        <ele>113.219567</ele>
        <time>2024-08-25T10:58:27.000Z</time>
      </trkpt>
      <trkpt lat="56.089212" lon="9.52168">
        <ele>113.507165</ele>
        <time>2024-08-25T10:58:30.000Z</time>
      </trkpt>
      <trkpt lat="56.08897" lon="9.520575">
        <ele>114.277374</ele>
        <time>2024-08-25T10:58:37.000Z</time>
      </trkpt>
      <trkpt lat="56.088914" lon="9.519956">
        <ele>114.68972</ele>
        <time>2024-08-25T10:58:41.000Z</time>
      </trkpt>
      <trkpt lat="56.088908" lon="9.51891">
        <ele>115.379817</ele>
        <time>2024-08-25T10:58:47.000Z</time>
      </trkpt>
      <trkpt lat="56.088971" lon="9.518338">
        <ele>115.906368</ele>
        <time>2024-08-25T10:58:51.000Z</time>
      </trkpt>
      <trkpt lat="56.089053" lon="9.517785">
        <ele>116.858585</ele>
        <time>2024-08-25T10:58:55.000Z</time>
      </trkpt>
      <trkpt lat="56.089155" lon="9.517425">
        <ele>117.531453</ele>
        <time>2024-08-25T10:58:58.000Z</time>
      </trkpt>
      <trkpt lat="56.089287" lon="9.516989">
        <ele>118.36016</ele>
        <time>2024-08-25T10:59:01.000Z</time>
      </trkpt>
      <trkpt lat="56.090306" lon="9.514157">
        <ele>123.829257</ele>
        <time>2024-08-25T10:59:22.000Z</time>
      </trkpt>
      <trkpt lat="56.090883" lon="9.512585">
        <ele>126.53114</ele>
        <time>2024-08-25T10:59:34.000Z</time>
      </trkpt>
      <trkpt lat="56.091392" lon="9.511166">
        <ele>128.156197</ele>
        <time>2024-08-25T10:59:44.000Z</time>
      </trkpt>
      <trkpt lat="56.091933" lon="9.509715">
        <ele>129.788876</ele>
        <time>2024-08-25T10:59:55.000Z</time>
      </trkpt>
      <trkpt lat="56.09209" lon="9.509197">
        <ele>130.335168</ele>
        <time>2024-08-25T10:59:59.000Z</time>
      </trkpt>
      <trkpt lat="56.092183" lon="9.508796">
        <ele>130.742911</ele>
        <time>2024-08-25T11:00:02.000Z</time>
      </trkpt>
      <trkpt lat="56.092232" lon="9.508529">
        <ele>131.002784</ele>
        <time>2024-08-25T11:00:04.000Z</time>
      </trkpt>
      <trkpt lat="56.092334" lon="9.507418">
        <ele>132.049237</ele>
        <time>2024-08-25T11:00:11.000Z</time>
      </trkpt>
      <trkpt lat="56.092307" lon="9.505571">
        <ele>133.115626</ele>
        <time>2024-08-25T11:00:22.000Z</time>
      </trkpt>
      <trkpt lat="56.092318" lon="9.505059">
        <ele>133.389765</ele>
        <time>2024-08-25T11:00:25.000Z</time>
      </trkpt>
      <trkpt lat="56.092503" lon="9.503132">
        <ele>134.373598</ele>
        <time>2024-08-25T11:00:37.000Z</time>
      </trkpt>
      <trkpt lat="56.092536" lon="9.502764">
        <ele>134.538713</ele>
        <time>2024-08-25T11:00:39.000Z</time>
      </trkpt>
      <trkpt lat="56.092549" lon="9.50245">
        <ele>134.682121</ele>
        <time>2024-08-25T11:00:41.000Z</time>
      </trkpt>
      <trkpt lat="56.092489" lon="9.500495">
        <ele>135.465044</ele>
        <time>2024-08-25T11:00:53.000Z</time>
      </trkpt>
      <trkpt lat="56.092467" lon="9.500091">
        <ele>135.526368</ele>
        <time>2024-08-25T11:00:56.000Z</time>
      </trkpt>
      <trkpt lat="56.092411" lon="9.49953">
        <ele>135.616199</ele>
        <time>2024-08-25T11:01:00.000Z</time>
      </trkpt>
      <trkpt lat="56.09209" lon="9.497132">
        <ele>135.322044</ele>
        <time>2024-08-25T11:01:15.000Z</time>
      </trkpt>
      <trkpt lat="56.091922" lon="9.495838">
        <ele>133.883757</ele>
        <time>2024-08-25T11:01:23.000Z</time>
      </trkpt>
      <trkpt lat="56.091488" lon="9.492646">
        <ele>130.695583</ele>
        <time>2024-08-25T11:01:43.000Z</time>
      </trkpt>
      <trkpt lat="56.091393" lon="9.491628">
        <ele>129.772328</ele>
        <time>2024-08-25T11:01:49.000Z</time>
      </trkpt>
      <trkpt lat="56.091323" lon="9.48931">
        <ele>128.231528</ele>
        <time>2024-08-25T11:02:03.000Z</time>
      </trkpt>
      <trkpt lat="56.091276" lon="9.488933">
        <ele>127.981271</ele>
        <time>2024-08-25T11:02:05.000Z</time>
      </trkpt>
      <trkpt lat="56.090867" lon="9.486354">
        <ele>125.207088</ele>
        <time>2024-08-25T11:02:22.000Z</time>
      </trkpt>
      <trkpt lat="56.090617" lon="9.48458">
        <ele>123.169911</ele>
        <time>2024-08-25T11:02:33.000Z</time>
      </trkpt>
      <trkpt lat="56.090535" lon="9.483892">
        <ele>122.529839</ele>
        <time>2024-08-25T11:02:37.000Z</time>
      </trkpt>
      <trkpt lat="56.090441" lon="9.483152">
        <ele>121.817004</ele>
        <time>2024-08-25T11:02:42.000Z</time>
      </trkpt>
      <trkpt lat="56.090421" lon="9.482756">
        <ele>121.442246</ele>
        <time>2024-08-25T11:02:44.000Z</time>
      </trkpt>
      <trkpt lat="56.090402" lon="9.482335">
        <ele>121.055215</ele>
        <time>2024-08-25T11:02:47.000Z</time>
      </trkpt>
      <trkpt lat="56.090419" lon="9.481709">
        <ele>120.613774</ele>
        <time>2024-08-25T11:02:51.000Z</time>
      </trkpt>
      <trkpt lat="56.090463" lon="9.481281">
        <ele>120.487713</ele>
        <time>2024-08-25T11:02:54.000Z</time>
      </trkpt>
      <trkpt lat="56.090524" lon="9.4809">
        <ele>120.377355</ele>
        <time>2024-08-25T11:02:56.000Z</time>
      </trkpt>
      <trkpt lat="56.09067" lon="9.479966">
        <ele>120.10887</ele>
        <time>2024-08-25T11:03:02.000Z</time>
      </trkpt>
      <trkpt lat="56.090876" lon="9.478648">
        <ele>119.674477</ele>
        <time>2024-08-25T11:03:10.000Z</time>
      </trkpt>
      <trkpt lat="56.090956" lon="9.477317">
        <ele>118.939357</ele>
        <time>2024-08-25T11:03:18.000Z</time>
      </trkpt>
      <trkpt lat="56.090956" lon="9.475777">
        <ele>118.077611</ele>
        <time>2024-08-25T11:03:28.000Z</time>
      </trkpt>
      <trkpt lat="56.090993" lon="9.474782">
        <ele>117.539765</ele>
        <time>2024-08-25T11:03:34.000Z</time>
      </trkpt>
      <trkpt lat="56.091036" lon="9.474372">
        <ele>117.308189</ele>
        <time>2024-08-25T11:03:37.000Z</time>
      </trkpt>
      <trkpt lat="56.09105" lon="9.474143">
        <ele>117.185874</ele>
        <time>2024-08-25T11:03:38.000Z</time>
      </trkpt>
      <trkpt lat="56.091082" lon="9.473562">
        <ele>116.872495</ele>
        <time>2024-08-25T11:03:42.000Z</time>
      </trkpt>
      <trkpt lat="56.091156" lon="9.472584">
        <ele>116.334446</ele>
        <time>2024-08-25T11:03:48.000Z</time>
      </trkpt>
      <trkpt lat="56.091158" lon="9.472462">
        <ele>116.262344</ele>
        <time>2024-08-25T11:03:49.000Z</time>
      </trkpt>
      <trkpt lat="56.091216" lon="9.472025">
        <ele>116.029791</ele>
        <time>2024-08-25T11:03:52.000Z</time>
      </trkpt>
      <trkpt lat="56.091524" lon="9.470862">
        <ele>115.346484</ele>
        <time>2024-08-25T11:04:00.000Z</time>
      </trkpt>
      <trkpt lat="56.091612" lon="9.47051">
        <ele>115.1356</ele>
        <time>2024-08-25T11:04:02.000Z</time>
      </trkpt>
      <trkpt lat="56.090789" lon="9.470695">
        <ele>114.407536</ele>
        <time>2024-08-25T11:04:11.000Z</time>
      </trkpt>
      <trkpt lat="56.090464" lon="9.470772">
        <ele>114.211418</ele>
        <time>2024-08-25T11:04:15.000Z</time>
      </trkpt>
      <trkpt lat="56.090259" lon="9.470866">
        <ele>114.088859</ele>
        <time>2024-08-25T11:04:17.000Z</time>
      </trkpt>
      <trkpt lat="56.090243" lon="9.470885">
        <ele>114.072783</ele>
        <time>2024-08-25T11:04:17.000Z</time>
      </trkpt>
      <trkpt lat="56.08849" lon="9.472454">
        <ele>113.58214</ele>
        <time>2024-08-25T11:04:39.000Z</time>
      </trkpt>
      <trkpt lat="56.088218" lon="9.4726">
        <ele>113.631549</ele>
        <time>2024-08-25T11:04:42.000Z</time>
      </trkpt>
      <trkpt lat="56.087917" lon="9.472563">
        <ele>113.68354</ele>
        <time>2024-08-25T11:04:45.000Z</time>
      </trkpt>
      <trkpt lat="56.086946" lon="9.472119">
        <ele>113.677115</ele>
        <time>2024-08-25T11:04:56.000Z</time>
      </trkpt>
      <trkpt lat="56.086623" lon="9.471958">
        <ele>113.644555</ele>
        <time>2024-08-25T11:05:00.000Z</time>
      </trkpt>
      <trkpt lat="56.08618" lon="9.471751">
        <ele>113.602214</ele>
        <time>2024-08-25T11:05:05.000Z</time>
      </trkpt>
      <trkpt lat="56.085728" lon="9.471526">
        <ele>113.420055</ele>
        <time>2024-08-25T11:05:10.000Z</time>
      </trkpt>
      <trkpt lat="56.08463" lon="9.471023">
        <ele>112.23584</ele>
        <time>2024-08-25T11:05:23.000Z</time>
      </trkpt>
      <trkpt lat="56.084399" lon="9.470975">
        <ele>111.982099</ele>
        <time>2024-08-25T11:05:26.000Z</time>
      </trkpt>
      <trkpt lat="56.083174" lon="9.471084">
        <ele>111.887136</ele>
        <time>2024-08-25T11:05:40.000Z</time>
      </trkpt>
      <trkpt lat="56.082643" lon="9.471131">
        <ele>112.006553</ele>
        <time>2024-08-25T11:05:46.000Z</time>
      </trkpt>
      <trkpt lat="56.080434" lon="9.471332">
        <ele>114.565721</ele>
        <time>2024-08-25T11:06:11.000Z</time>
      </trkpt>
      <trkpt lat="56.080162" lon="9.47132">
        <ele>114.684518</ele>
        <time>2024-08-25T11:06:14.000Z</time>
      </trkpt>
      <trkpt lat="56.077447" lon="9.471019">
        <ele>114.870462</ele>
        <time>2024-08-25T11:06:44.000Z</time>
      </trkpt>
      <trkpt lat="56.074851" lon="9.470793">
        <ele>113.031222</ele>
        <time>2024-08-25T11:07:13.000Z</time>
      </trkpt>
      <trkpt lat="56.073113" lon="9.47068">
        <ele>115.926488</ele>
        <time>2024-08-25T11:07:32.000Z</time>
      </trkpt>
      <trkpt lat="56.072446" lon="9.470548">
        <ele>117.290344</ele>
        <time>2024-08-25T11:07:39.000Z</time>
      </trkpt>
      <trkpt lat="56.071739" lon="9.470365">
        <ele>118.775404</ele>
        <time>2024-08-25T11:07:47.000Z</time>
      </trkpt>
      <trkpt lat="56.069918" lon="9.469836">
        <ele>119.635668</ele>
        <time>2024-08-25T11:08:08.000Z</time>
      </trkpt>
      <trkpt lat="56.068907" lon="9.469533">
        <ele>119.295576</ele>
        <time>2024-08-25T11:08:19.000Z</time>
      </trkpt>
      <trkpt lat="56.06756" lon="9.469391">
        <ele>117.771011</ele>
        <time>2024-08-25T11:08:34.000Z</time>
      </trkpt>
      <trkpt lat="56.066243" lon="9.469313">
        <ele>114.368396</ele>
        <time>2024-08-25T11:08:49.000Z</time>
      </trkpt>
      <trkpt lat="56.065396" lon="9.469251">
        <ele>109.320362</ele>
        <time>2024-08-25T11:08:58.000Z</time>
      </trkpt>
      <trkpt lat="56.065259" lon="9.469197">
        <ele>108.353852</ele>
        <time>2024-08-25T11:09:00.000Z</time>
      </trkpt>
      <trkpt lat="56.064969" lon="9.468916">
        <ele>106.335115</ele>
        <time>2024-08-25T11:09:04.000Z</time>
      </trkpt>
      <trkpt lat="56.064445" lon="9.468851">
        <ele>103.046541</ele>
        <time>2024-08-25T11:09:10.000Z</time>
      </trkpt>
      <trkpt lat="56.064332" lon="9.46875">
        <ele>102.235311</ele>
        <time>2024-08-25T11:09:11.000Z</time>
      </trkpt>
      <trkpt lat="56.064022" lon="9.468347">
        <ele>99.990913</ele>
        <time>2024-08-25T11:09:15.000Z</time>
      </trkpt>
      <trkpt lat="56.063824" lon="9.46819">
        <ele>98.63312</ele>
        <time>2024-08-25T11:09:17.000Z</time>
      </trkpt>
      <trkpt lat="56.06363" lon="9.468089">
        <ele>97.505151</ele>
        <time>2024-08-25T11:09:19.000Z</time>
      </trkpt>
      <trkpt lat="56.062909" lon="9.467758">
        <ele>92.945011</ele>
        <time>2024-08-25T11:09:27.000Z</time>
      </trkpt>
      <trkpt lat="56.062435" lon="9.467549">
        <ele>90.086815</ele>
        <time>2024-08-25T11:09:32.000Z</time>
      </trkpt>
      <trkpt lat="56.06195" lon="9.467297">
        <ele>87.169243</ele>
        <time>2024-08-25T11:09:38.000Z</time>
      </trkpt>
      <trkpt lat="56.060769" lon="9.466767">
        <ele>79.808886</ele>
        <time>2024-08-25T11:09:52.000Z</time>
      </trkpt>
      <trkpt lat="56.059398" lon="9.465791">
        <ele>69.218204</ele>
        <time>2024-08-25T11:10:08.000Z</time>
      </trkpt>
      <trkpt lat="56.058894" lon="9.465389">
        <ele>65.785776</ele>
        <time>2024-08-25T11:10:14.000Z</time>
      </trkpt>
      <trkpt lat="56.058465" lon="9.464974">
        <ele>62.876932</ele>
        <time>2024-08-25T11:10:19.000Z</time>
      </trkpt>
      <trkpt lat="56.058177" lon="9.464565">
        <ele>60.652368</ele>
        <time>2024-08-25T11:10:23.000Z</time>
      </trkpt>
      <trkpt lat="56.058044" lon="9.464151">
        <ele>59.046356</ele>
        <time>2024-08-25T11:10:26.000Z</time>
      </trkpt>
      <trkpt lat="56.057965" lon="9.463701">
        <ele>57.73823</ele>
        <time>2024-08-25T11:10:29.000Z</time>
      </trkpt>
      <trkpt lat="56.057954" lon="9.461459">
        <ele>54.125359</ele>
        <time>2024-08-25T11:10:43.000Z</time>
      </trkpt>
      <trkpt lat="56.057858" lon="9.460939">
        <ele>53.249307</ele>
        <time>2024-08-25T11:10:46.000Z</time>
      </trkpt>
      <trkpt lat="56.057763" lon="9.460673">
        <ele>52.804777</ele>
        <time>2024-08-25T11:10:48.000Z</time>
      </trkpt>
      <trkpt lat="56.05752" lon="9.460284">
        <ele>52.770704</ele>
        <time>2024-08-25T11:10:52.000Z</time>
      </trkpt>
      <trkpt lat="56.0564" lon="9.458771">
        <ele>52.617945</ele>
        <time>2024-08-25T11:11:08.000Z</time>
      </trkpt>
      <trkpt lat="56.056012" lon="9.458242">
        <ele>53.244103</ele>
        <time>2024-08-25T11:11:13.000Z</time>
      </trkpt>
      <trkpt lat="56.055342" lon="9.457336">
        <ele>54.421633</ele>
        <time>2024-08-25T11:11:22.000Z</time>
      </trkpt>
      <trkpt lat="56.055169" lon="9.457216">
        <ele>54.678587</ele>
        <time>2024-08-25T11:11:24.000Z</time>
      </trkpt>
      <trkpt lat="56.054988" lon="9.457181">
        <ele>54.935487</ele>
        <time>2024-08-25T11:11:26.000Z</time>
      </trkpt>
      <trkpt lat="56.054028" lon="9.457418">
        <ele>57.806166</ele>
        <time>2024-08-25T11:11:37.000Z</time>
      </trkpt>
      <trkpt lat="56.05382" lon="9.457387">
        <ele>58.47536</ele>
        <time>2024-08-25T11:11:39.000Z</time>
      </trkpt>
      <trkpt lat="56.053644" lon="9.457344">
        <ele>58.995098</ele>
        <time>2024-08-25T11:11:41.000Z</time>
      </trkpt>
      <trkpt lat="56.053236" lon="9.457137">
        <ele>60.383261</ele>
        <time>2024-08-25T11:11:46.000Z</time>
      </trkpt>
      <trkpt lat="56.052162" lon="9.456594">
        <ele>65.260728</ele>
        <time>2024-08-25T11:11:58.000Z</time>
      </trkpt>
      <trkpt lat="56.051746" lon="9.456375">
        <ele>67.198889</ele>
        <time>2024-08-25T11:12:03.000Z</time>
      </trkpt>
      <trkpt lat="56.050317" lon="9.455145">
        <ele>75.072648</ele>
        <time>2024-08-25T11:12:21.000Z</time>
      </trkpt>
      <trkpt lat="56.049865" lon="9.454845">
        <ele>77.535304</ele>
        <time>2024-08-25T11:12:26.000Z</time>
      </trkpt>
      <trkpt lat="56.049661" lon="9.454779">
        <ele>78.582552</ele>
        <time>2024-08-25T11:12:28.000Z</time>
      </trkpt>
      <trkpt lat="56.049117" lon="9.454751">
        <ele>81.045281</ele>
        <time>2024-08-25T11:12:34.000Z</time>
      </trkpt>
      <trkpt lat="56.048352" lon="9.454778">
        <ele>84.45892</ele>
        <time>2024-08-25T11:12:43.000Z</time>
      </trkpt>
      <trkpt lat="56.04812" lon="9.454826">
        <ele>85.516289</ele>
        <time>2024-08-25T11:12:46.000Z</time>
      </trkpt>
      <trkpt lat="56.04811" lon="9.454829">
        <ele>85.518822</ele>
        <time>2024-08-25T11:12:46.000Z</time>
      </trkpt>
      <trkpt lat="56.047984" lon="9.454971">
        <ele>86.223497</ele>
        <time>2024-08-25T11:12:48.000Z</time>
      </trkpt>
      <trkpt lat="56.047539" lon="9.455538">
        <ele>87.129778</ele>
        <time>2024-08-25T11:12:54.000Z</time>
      </trkpt>
      <trkpt lat="56.04677" lon="9.456212">
        <ele>88.412172</ele>
        <time>2024-08-25T11:13:04.000Z</time>
      </trkpt>
      <trkpt lat="56.046339" lon="9.456398">
        <ele>89.066079</ele>
        <time>2024-08-25T11:13:09.000Z</time>
      </trkpt>
      <trkpt lat="56.045423" lon="9.456584">
        <ele>90.646328</ele>
        <time>2024-08-25T11:13:19.000Z</time>
      </trkpt>
      <trkpt lat="56.044709" lon="9.456608">
        <ele>91.878484</ele>
        <time>2024-08-25T11:13:27.000Z</time>
      </trkpt>
      <trkpt lat="56.044475" lon="9.4566">
        <ele>92.51253</ele>
        <time>2024-08-25T11:13:30.000Z</time>
      </trkpt>
      <trkpt lat="56.043573" lon="9.45664">
        <ele>96.617014</ele>
        <time>2024-08-25T11:13:40.000Z</time>
      </trkpt>
      <trkpt lat="56.043388" lon="9.456501">
        <ele>97.607422</ele>
        <time>2024-08-25T11:13:42.000Z</time>
      </trkpt>
      <trkpt lat="56.043253" lon="9.456235">
        <ele>98.482498</ele>
        <time>2024-08-25T11:13:44.000Z</time>
      </trkpt>
      <trkpt lat="56.043198" lon="9.45524">
        <ele>101.042982</ele>
        <time>2024-08-25T11:13:50.000Z</time>
      </trkpt>
      <trkpt lat="56.043036" lon="9.454539">
        <ele>102.961004</ele>
        <time>2024-08-25T11:13:55.000Z</time>
      </trkpt>
      <trkpt lat="56.042688" lon="9.453878">
        <ele>105.259189</ele>
        <time>2024-08-25T11:14:01.000Z</time>
      </trkpt>
      <trkpt lat="56.042361" lon="9.452973">
        <ele>108.033327</ele>
        <time>2024-08-25T11:14:08.000Z</time>
      </trkpt>
      <trkpt lat="56.042135" lon="9.452575">
        <ele>109.030016</ele>
        <time>2024-08-25T11:14:12.000Z</time>
      </trkpt>
      <trkpt lat="56.04199" lon="9.452448">
        <ele>109.420208</ele>
        <time>2024-08-25T11:14:14.000Z</time>
      </trkpt>
      <trkpt lat="56.04166" lon="9.452318">
        <ele>110.236984</ele>
        <time>2024-08-25T11:14:18.000Z</time>
      </trkpt>
      <trkpt lat="56.041512" lon="9.452273">
        <ele>110.566629</ele>
        <time>2024-08-25T11:14:20.000Z</time>
      </trkpt>
      <trkpt lat="56.041481" lon="9.452251">
        <ele>110.665201</ele>
        <time>2024-08-25T11:14:20.000Z</time>
      </trkpt>
      <trkpt lat="56.041062" lon="9.451791">
        <ele>111.80823</ele>
        <time>2024-08-25T11:14:25.000Z</time>
      </trkpt>
      <trkpt lat="56.040804" lon="9.451429">
        <ele>112.607105</ele>
        <time>2024-08-25T11:14:29.000Z</time>
      </trkpt>
      <trkpt lat="56.040824" lon="9.451313">
        <ele>112.778613</ele>
        <time>2024-08-25T11:14:30.000Z</time>
      </trkpt>
      <trkpt lat="56.040871" lon="9.451094">
        <ele>112.691165</ele>
        <time>2024-08-25T11:14:31.000Z</time>
      </trkpt>
      <trkpt lat="56.040946" lon="9.450712">
        <ele>112.316571</ele>
        <time>2024-08-25T11:14:34.000Z</time>
      </trkpt>
      <trkpt lat="56.041046" lon="9.450354">
        <ele>111.939442</ele>
        <time>2024-08-25T11:14:36.000Z</time>
      </trkpt>
      <trkpt lat="56.041072" lon="9.450278">
        <ele>111.866732</ele>
        <time>2024-08-25T11:14:37.000Z</time>
      </trkpt>
      <trkpt lat="56.041168" lon="9.449988">
        <ele>111.56638</ele>
        <time>2024-08-25T11:14:39.000Z</time>
      </trkpt>
      <trkpt lat="56.04122" lon="9.449773">
        <ele>111.343685</ele>
        <time>2024-08-25T11:14:40.000Z</time>
      </trkpt>
      <trkpt lat="56.041236" lon="9.44968">
        <ele>111.25454</ele>
        <time>2024-08-25T11:14:41.000Z</time>
      </trkpt>
      <trkpt lat="56.041324" lon="9.448971">
        <ele>110.580134</ele>
        <time>2024-08-25T11:14:46.000Z</time>
      </trkpt>
      <trkpt lat="56.041335" lon="9.448395">
        <ele>110.049596</ele>
        <time>2024-08-25T11:14:50.000Z</time>
      </trkpt>
      <trkpt lat="56.041319" lon="9.447918">
        <ele>109.149823</ele>
        <time>2024-08-25T11:14:53.000Z</time>
      </trkpt>
      <trkpt lat="56.041258" lon="9.447095">
        <ele>107.122249</ele>
        <time>2024-08-25T11:14:58.000Z</time>
      </trkpt>
      <trkpt lat="56.041238" lon="9.446853">
        <ele>106.500689</ele>
        <time>2024-08-25T11:15:00.000Z</time>
      </trkpt>
      <trkpt lat="56.041654" lon="9.446651">
        <ele>104.592501</ele>
        <time>2024-08-25T11:15:05.000Z</time>
      </trkpt>
      <trkpt lat="56.042851" lon="9.445924">
        <ele>98.707223</ele>
        <time>2024-08-25T11:15:19.000Z</time>
      </trkpt>
      <trkpt lat="56.04356" lon="9.445291">
        <ele>94.835662</ele>
        <time>2024-08-25T11:15:28.000Z</time>
      </trkpt>
      <trkpt lat="56.043719" lon="9.445146">
        <ele>94.023832</ele>
        <time>2024-08-25T11:15:30.000Z</time>
      </trkpt>
      <trkpt lat="56.043938" lon="9.444654">
        <ele>92.867381</ele>
        <time>2024-08-25T11:15:34.000Z</time>
      </trkpt>
      <trkpt lat="56.044218" lon="9.443084">
        <ele>91.209941</ele>
        <time>2024-08-25T11:15:44.000Z</time>
      </trkpt>
      <trkpt lat="56.044309" lon="9.442712">
        <ele>90.794935</ele>
        <time>2024-08-25T11:15:47.000Z</time>
      </trkpt>
      <trkpt lat="56.044564" lon="9.441708">
        <ele>90.169941</ele>
        <time>2024-08-25T11:15:54.000Z</time>
      </trkpt>
      <trkpt lat="56.044668" lon="9.441334">
        <ele>90.460683</ele>
        <time>2024-08-25T11:15:57.000Z</time>
      </trkpt>
      <trkpt lat="56.045043" lon="9.440593">
        <ele>91.143668</ele>
        <time>2024-08-25T11:16:03.000Z</time>
      </trkpt>
      <trkpt lat="56.045201" lon="9.440173">
        <ele>91.496163</ele>
        <time>2024-08-25T11:16:06.000Z</time>
      </trkpt>
      <trkpt lat="56.045343" lon="9.439134">
        <ele>92.250244</ele>
        <time>2024-08-25T11:16:13.000Z</time>
      </trkpt>
      <trkpt lat="56.045473" lon="9.438661">
        <ele>92.711996</ele>
        <time>2024-08-25T11:16:16.000Z</time>
      </trkpt>
      <trkpt lat="56.045809" lon="9.438118">
        <ele>93.443668</ele>
        <time>2024-08-25T11:16:21.000Z</time>
      </trkpt>
      <trkpt lat="56.045993" lon="9.437637">
        <ele>93.942701</ele>
        <time>2024-08-25T11:16:25.000Z</time>
      </trkpt>
      <trkpt lat="56.046349" lon="9.435847">
        <ele>95.298815</ele>
        <time>2024-08-25T11:16:37.000Z</time>
      </trkpt>
      <trkpt lat="56.046455" lon="9.43539">
        <ele>95.482035</ele>
        <time>2024-08-25T11:16:40.000Z</time>
      </trkpt>
      <trkpt lat="56.046611" lon="9.435086">
        <ele>95.624746</ele>
        <time>2024-08-25T11:16:43.000Z</time>
      </trkpt>
      <trkpt lat="56.046793" lon="9.434841">
        <ele>95.779366</ele>
        <time>2024-08-25T11:16:46.000Z</time>
      </trkpt>
      <trkpt lat="56.047558" lon="9.434359">
        <ele>96.264347</ele>
        <time>2024-08-25T11:16:55.000Z</time>
      </trkpt>
      <trkpt lat="56.048091" lon="9.433888">
        <ele>96.483134</ele>
        <time>2024-08-25T11:17:02.000Z</time>
      </trkpt>
      <trkpt lat="56.050019" lon="9.432732">
        <ele>97.214231</ele>
        <time>2024-08-25T11:17:25.000Z</time>
      </trkpt>
      <trkpt lat="56.051612" lon="9.430604">
        <ele>97.171391</ele>
        <time>2024-08-25T11:17:47.000Z</time>
      </trkpt>
      <trkpt lat="56.05227" lon="9.430095">
        <ele>96.885378</ele>
        <time>2024-08-25T11:17:55.000Z</time>
      </trkpt>
      <trkpt lat="56.05255" lon="9.429728">
        <ele>96.221635</ele>
        <time>2024-08-25T11:17:59.000Z</time>
      </trkpt>
      <trkpt lat="56.052603" lon="9.429654">
        <ele>96.110379</ele>
        <time>2024-08-25T11:18:00.000Z</time>
      </trkpt>
      <trkpt lat="56.052765" lon="9.429407">
        <ele>95.703777</ele>
        <time>2024-08-25T11:18:02.000Z</time>
      </trkpt>
      <trkpt lat="56.055105" lon="9.425543">
        <ele>89.943677</ele>
        <time>2024-08-25T11:18:37.000Z</time>
      </trkpt>
      <trkpt lat="56.057899" lon="9.420846">
        <ele>89.868513</ele>
        <time>2024-08-25T11:19:20.000Z</time>
      </trkpt>
      <trkpt lat="56.060145" lon="9.417047">
        <ele>89.707253</ele>
        <time>2024-08-25T11:19:54.000Z</time>
      </trkpt>
      <trkpt lat="56.062332" lon="9.413385">
        <ele>90.949238</ele>
        <time>2024-08-25T11:20:27.000Z</time>
      </trkpt>
      <trkpt lat="56.063572" lon="9.411289">
        <ele>92.71886</ele>
        <time>2024-08-25T11:20:46.000Z</time>
      </trkpt>
      <trkpt lat="56.065418" lon="9.408161">
        <ele>95.754055</ele>
        <time>2024-08-25T11:21:14.000Z</time>
      </trkpt>
      <trkpt lat="56.066127" lon="9.406908">
        <ele>95.023533</ele>
        <time>2024-08-25T11:21:25.000Z</time>
      </trkpt>
      <trkpt lat="56.06631" lon="9.406449">
        <ele>94.797425</ele>
        <time>2024-08-25T11:21:29.000Z</time>
      </trkpt>
      <trkpt lat="56.067273" lon="9.403183">
        <ele>92.291797</ele>
        <time>2024-08-25T11:21:52.000Z</time>
      </trkpt>
      <trkpt lat="56.068109" lon="9.400314">
        <ele>92.699213</ele>
        <time>2024-08-25T11:22:12.000Z</time>
      </trkpt>
      <trkpt lat="56.070202" lon="9.393147">
        <ele>95.563606</ele>
        <time>2024-08-25T11:23:02.000Z</time>
      </trkpt>
      <trkpt lat="56.071443" lon="9.388889">
        <ele>94.919651</ele>
        <time>2024-08-25T11:23:32.000Z</time>
      </trkpt>
      <trkpt lat="56.071562" lon="9.388473">
        <ele>94.800691</ele>
        <time>2024-08-25T11:23:35.000Z</time>
      </trkpt>
      <trkpt lat="56.071649" lon="9.387911">
        <ele>94.645718</ele>
        <time>2024-08-25T11:23:39.000Z</time>
      </trkpt>
      <trkpt lat="56.071863" lon="9.382724">
        <ele>93.657848</ele>
        <time>2024-08-25T11:24:11.000Z</time>
      </trkpt>
      <trkpt lat="56.071893" lon="9.382637">
        <ele>93.647262</ele>
        <time>2024-08-25T11:24:12.000Z</time>
      </trkpt>
      <trkpt lat="56.072015" lon="9.383282">
        <ele>93.764202</ele>
        <time>2024-08-25T11:24:16.000Z</time>
      </trkpt>
      <trkpt lat="56.072493" lon="9.386318">
        <ele>95.886571</ele>
        <time>2024-08-25T11:24:36.000Z</time>
      </trkpt>
      <trkpt lat="56.072829" lon="9.38828">
        <ele>96.522543</ele>
        <time>2024-08-25T11:24:49.000Z</time>
      </trkpt>
      <trkpt lat="56.073193" lon="9.390445">
        <ele>96.625924</ele>
        <time>2024-08-25T11:25:03.000Z</time>
      </trkpt>
      <trkpt lat="56.073204" lon="9.390449">
        <ele>96.62594</ele>
        <time>2024-08-25T11:25:03.000Z</time>
      </trkpt>
      <trkpt lat="56.073255" lon="9.390762">
        <ele>96.574101</ele>
        <time>2024-08-25T11:25:05.000Z</time>
      </trkpt>
      <trkpt lat="56.07329" lon="9.391037">
        <ele>96.528129</ele>
        <time>2024-08-25T11:25:07.000Z</time>
      </trkpt>
      <trkpt lat="56.073431" lon="9.391738">
        <ele>96.405148</ele>
        <time>2024-08-25T11:25:12.000Z</time>
      </trkpt>
      <trkpt lat="56.073711" lon="9.393156">
        <ele>96.038152</ele>
        <time>2024-08-25T11:25:21.000Z</time>
      </trkpt>
      <trkpt lat="56.073821" lon="9.393699">
        <ele>95.862776</ele>
        <time>2024-08-25T11:25:25.000Z</time>
      </trkpt>
      <trkpt lat="56.074101" lon="9.395088">
        <ele>95.422207</ele>
        <time>2024-08-25T11:25:34.000Z</time>
      </trkpt>
      <trkpt lat="56.074369" lon="9.396486">
        <ele>95.809793</ele>
        <time>2024-08-25T11:25:43.000Z</time>
      </trkpt>
      <trkpt lat="56.074415" lon="9.396811">
        <ele>95.935467</ele>
        <time>2024-08-25T11:25:45.000Z</time>
      </trkpt>
      <trkpt lat="56.075192" lon="9.400892">
        <ele>98.999283</ele>
        <time>2024-08-25T11:26:12.000Z</time>
      </trkpt>
      <trkpt lat="56.07523" lon="9.401077">
        <ele>99.180862</ele>
        <time>2024-08-25T11:26:13.000Z</time>
      </trkpt>
      <trkpt lat="56.075414" lon="9.402089">
        <ele>100.2288</ele>
        <time>2024-08-25T11:26:20.000Z</time>
      </trkpt>
      <trkpt lat="56.075921" lon="9.404769">
        <ele>102.922646</ele>
        <time>2024-08-25T11:26:38.000Z</time>
      </trkpt>
      <trkpt lat="56.075971" lon="9.405397">
        <ele>103.022984</ele>
        <time>2024-08-25T11:26:42.000Z</time>
      </trkpt>
      <trkpt lat="56.076018" lon="9.406076">
        <ele>103.130668</ele>
        <time>2024-08-25T11:26:46.000Z</time>
      </trkpt>
      <trkpt lat="56.076017" lon="9.406241">
        <ele>103.156069</ele>
        <time>2024-08-25T11:26:47.000Z</time>
      </trkpt>
      <trkpt lat="56.0761" lon="9.407704">
        <ele>103.355251</ele>
        <time>2024-08-25T11:26:56.000Z</time>
      </trkpt>
      <trkpt lat="56.07647" lon="9.412">
        <ele>96.815335</ele>
        <time>2024-08-25T11:27:23.000Z</time>
      </trkpt>
      <trkpt lat="56.076531" lon="9.412578">
        <ele>96.149978</ele>
        <time>2024-08-25T11:27:27.000Z</time>
      </trkpt>
      <trkpt lat="56.076628" lon="9.413937">
        <ele>94.585702</ele>
        <time>2024-08-25T11:27:36.000Z</time>
      </trkpt>
      <trkpt lat="56.076743" lon="9.414493">
        <ele>94.705958</ele>
        <time>2024-08-25T11:27:40.000Z</time>
      </trkpt>
      <trkpt lat="56.076954" lon="9.414901">
        <ele>95.010859</ele>
        <time>2024-08-25T11:27:43.000Z</time>
      </trkpt>
      <trkpt lat="56.078328" lon="9.416261">
        <ele>96.338538</ele>
        <time>2024-08-25T11:28:00.000Z</time>
      </trkpt>
      <trkpt lat="56.078445" lon="9.416369">
        <ele>96.376108</ele>
        <time>2024-08-25T11:28:01.000Z</time>
      </trkpt>
      <trkpt lat="56.078495" lon="9.416433">
        <ele>96.396708</ele>
        <time>2024-08-25T11:28:02.000Z</time>
      </trkpt>
      <trkpt lat="56.079216" lon="9.417179">
        <ele>96.632145</ele>
        <time>2024-08-25T11:28:11.000Z</time>
      </trkpt>
      <trkpt lat="56.079419" lon="9.41741">
        <ele>96.699496</ele>
        <time>2024-08-25T11:28:14.000Z</time>
      </trkpt>
      <trkpt lat="56.079612" lon="9.417722">
        <ele>96.542381</ele>
        <time>2024-08-25T11:28:17.000Z</time>
      </trkpt>
      <trkpt lat="56.080407" lon="9.419078">
        <ele>93.06756</ele>
        <time>2024-08-25T11:28:29.000Z</time>
      </trkpt>
      <trkpt lat="56.080616" lon="9.419357">
        <ele>92.258447</ele>
        <time>2024-08-25T11:28:32.000Z</time>
      </trkpt>
      <trkpt lat="56.08163" lon="9.420927">
        <ele>87.790415</ele>
        <time>2024-08-25T11:28:47.000Z</time>
      </trkpt>
      <trkpt lat="56.082124" lon="9.421615">
        <ele>85.692094</ele>
        <time>2024-08-25T11:28:54.000Z</time>
      </trkpt>
      <trkpt lat="56.083305" lon="9.423936">
        <ele>83.651965</ele>
        <time>2024-08-25T11:29:13.000Z</time>
      </trkpt>
      <trkpt lat="56.08421" lon="9.425701">
        <ele>85.820332</ele>
        <time>2024-08-25T11:29:28.000Z</time>
      </trkpt>
      <trkpt lat="56.085414" lon="9.428125">
        <ele>91.238365</ele>
        <time>2024-08-25T11:29:48.000Z</time>
      </trkpt>
      <trkpt lat="56.085698" lon="9.428517">
        <ele>92.513848</ele>
        <time>2024-08-25T11:29:52.000Z</time>
      </trkpt>
      <trkpt lat="56.085916" lon="9.428644">
        <ele>93.291233</ele>
        <time>2024-08-25T11:29:55.000Z</time>
      </trkpt>
      <trkpt lat="56.08652" lon="9.428801">
        <ele>94.312047</ele>
        <time>2024-08-25T11:30:02.000Z</time>
      </trkpt>
      <trkpt lat="56.087112" lon="9.428904">
        <ele>95.007085</ele>
        <time>2024-08-25T11:30:09.000Z</time>
      </trkpt>
      <trkpt lat="56.087374" lon="9.429017">
        <ele>95.334685</ele>
        <time>2024-08-25T11:30:12.000Z</time>
      </trkpt>
      <trkpt lat="56.087678" lon="9.42933">
        <ele>95.744943</ele>
        <time>2024-08-25T11:30:16.000Z</time>
      </trkpt>
      <trkpt lat="56.088899" lon="9.431034">
        <ele>95.285226</ele>
        <time>2024-08-25T11:30:33.000Z</time>
      </trkpt>
      <trkpt lat="56.089101" lon="9.431321">
        <ele>95.187293</ele>
        <time>2024-08-25T11:30:36.000Z</time>
      </trkpt>
      <trkpt lat="56.08947" lon="9.431812">
        <ele>95.771845</ele>
        <time>2024-08-25T11:30:41.000Z</time>
      </trkpt>
      <trkpt lat="56.092007" lon="9.435379">
        <ele>101.996847</ele>
        <time>2024-08-25T11:31:17.000Z</time>
      </trkpt>
      <trkpt lat="56.092229" lon="9.435912">
        <ele>102.904626</ele>
        <time>2024-08-25T11:31:21.000Z</time>
      </trkpt>
      <trkpt lat="56.092274" lon="9.436168">
        <ele>103.277423</ele>
        <time>2024-08-25T11:31:23.000Z</time>
      </trkpt>
      <trkpt lat="56.092301" lon="9.436504">
        <ele>103.751336</ele>
        <time>2024-08-25T11:31:25.000Z</time>
      </trkpt>
      <trkpt lat="56.092285" lon="9.43989">
        <ele>108.627913</ele>
        <time>2024-08-25T11:31:46.000Z</time>
      </trkpt>
      <trkpt lat="56.092315" lon="9.440744">
        <ele>109.900252</ele>
        <time>2024-08-25T11:31:51.000Z</time>
      </trkpt>
      <trkpt lat="56.092376" lon="9.441699">
        <ele>111.29466</ele>
        <time>2024-08-25T11:31:57.000Z</time>
      </trkpt>
      <trkpt lat="56.092403" lon="9.442058">
        <ele>111.596689</ele>
        <time>2024-08-25T11:31:59.000Z</time>
      </trkpt>
      <trkpt lat="56.092422" lon="9.442198">
        <ele>111.729304</ele>
        <time>2024-08-25T11:32:00.000Z</time>
      </trkpt>
      <trkpt lat="56.092493" lon="9.442778">
        <ele>112.227746</ele>
        <time>2024-08-25T11:32:04.000Z</time>
      </trkpt>
      <trkpt lat="56.092517" lon="9.442957">
        <ele>112.381579</ele>
        <time>2024-08-25T11:32:05.000Z</time>
      </trkpt>
      <trkpt lat="56.092468" lon="9.443201">
        <ele>112.588272</ele>
        <time>2024-08-25T11:32:07.000Z</time>
      </trkpt>
      <trkpt lat="56.092351" lon="9.443926">
        <ele>113.234689</ele>
        <time>2024-08-25T11:32:12.000Z</time>
      </trkpt>
      <trkpt lat="56.092101" lon="9.445397">
        <ele>113.569095</ele>
        <time>2024-08-25T11:32:22.000Z</time>
      </trkpt>
      <trkpt lat="56.091949" lon="9.4463">
        <ele>112.96852</ele>
        <time>2024-08-25T11:32:28.000Z</time>
      </trkpt>
      <trkpt lat="56.091918" lon="9.446489">
        <ele>112.837391</ele>
        <time>2024-08-25T11:32:29.000Z</time>
      </trkpt>
      <trkpt lat="56.091881" lon="9.446738">
        <ele>112.674518</ele>
        <time>2024-08-25T11:32:31.000Z</time>
      </trkpt>
      <trkpt lat="56.091813" lon="9.447081">
        <ele>112.44951</ele>
        <time>2024-08-25T11:32:33.000Z</time>
      </trkpt>
      <trkpt lat="56.091807" lon="9.447169">
        <ele>112.395708</ele>
        <time>2024-08-25T11:32:34.000Z</time>
      </trkpt>
      <trkpt lat="56.091764" lon="9.447645">
        <ele>112.09002</ele>
        <time>2024-08-25T11:32:37.000Z</time>
      </trkpt>
      <trkpt lat="56.091731" lon="9.448112">
        <ele>111.761262</ele>
        <time>2024-08-25T11:32:40.000Z</time>
      </trkpt>
      <trkpt lat="56.091733" lon="9.448148">
        <ele>111.726674</ele>
        <time>2024-08-25T11:32:40.000Z</time>
      </trkpt>
      <trkpt lat="56.091686" lon="9.448712">
        <ele>111.290225</ele>
        <time>2024-08-25T11:32:44.000Z</time>
      </trkpt>
      <trkpt lat="56.091418" lon="9.452411">
        <ele>109.171335</ele>
        <time>2024-08-25T11:33:07.000Z</time>
      </trkpt>
      <trkpt lat="56.091339" lon="9.454522">
        <ele>108.845062</ele>
        <time>2024-08-25T11:33:20.000Z</time>
      </trkpt>
      <trkpt lat="56.091375" lon="9.458106">
        <ele>110.466434</ele>
        <time>2024-08-25T11:33:42.000Z</time>
      </trkpt>
      <trkpt lat="56.091491" lon="9.460978">
        <ele>112.066315</ele>
        <time>2024-08-25T11:34:00.000Z</time>
      </trkpt>
      <trkpt lat="56.091502" lon="9.462088">
        <ele>112.40262</ele>
        <time>2024-08-25T11:34:07.000Z</time>
      </trkpt>
      <trkpt lat="56.091561" lon="9.465584">
        <ele>113.324323</ele>
        <time>2024-08-25T11:34:29.000Z</time>
      </trkpt>
      <trkpt lat="56.091592" lon="9.468339">
        <ele>114.196802</ele>
        <time>2024-08-25T11:34:46.000Z</time>
      </trkpt>
      <trkpt lat="56.091614" lon="9.468968">
        <ele>114.486086</ele>
        <time>2024-08-25T11:34:50.000Z</time>
      </trkpt>
      <trkpt lat="56.091631" lon="9.470156">
        <ele>115.017219</ele>
        <time>2024-08-25T11:34:57.000Z</time>
      </trkpt>
      <trkpt lat="56.091616" lon="9.470333">
        <ele>115.102256</ele>
        <time>2024-08-25T11:34:58.000Z</time>
      </trkpt>
      <trkpt lat="56.091596" lon="9.470492">
        <ele>115.184753</ele>
        <time>2024-08-25T11:34:59.000Z</time>
      </trkpt>
      <trkpt lat="56.091662" lon="9.47049">
        <ele>115.238315</ele>
        <time>2024-08-25T11:35:00.000Z</time>
      </trkpt>
      <trkpt lat="56.091866" lon="9.470395">
        <ele>115.432407</ele>
        <time>2024-08-25T11:35:02.000Z</time>
      </trkpt>
      <trkpt lat="56.092402" lon="9.470054">
        <ele>115.954411</ele>
        <time>2024-08-25T11:35:08.000Z</time>
      </trkpt>
      <trkpt lat="56.092556" lon="9.469969">
        <ele>116.111863</ele>
        <time>2024-08-25T11:35:10.000Z</time>
      </trkpt>
      <trkpt lat="56.093551" lon="9.469372">
        <ele>117.007933</ele>
        <time>2024-08-25T11:35:22.000Z</time>
      </trkpt>
      <trkpt lat="56.094072" lon="9.469016">
        <ele>117.423029</ele>
        <time>2024-08-25T11:35:28.000Z</time>
      </trkpt>
      <trkpt lat="56.094095" lon="9.469004">
        <ele>117.436265</ele>
        <time>2024-08-25T11:35:28.000Z</time>
      </trkpt>
      <trkpt lat="56.095291" lon="9.467994">
        <ele>118.123639</ele>
        <time>2024-08-25T11:35:43.000Z</time>
      </trkpt>
      <trkpt lat="56.096352" lon="9.466879">
        <ele>118.171098</ele>
        <time>2024-08-25T11:35:57.000Z</time>
      </trkpt>
      <trkpt lat="56.096767" lon="9.466429">
        <ele>118.078148</ele>
        <time>2024-08-25T11:36:02.000Z</time>
      </trkpt>
      <trkpt lat="56.097125" lon="9.466145">
        <ele>117.964837</ele>
        <time>2024-08-25T11:36:06.000Z</time>
      </trkpt>
      <trkpt lat="56.097899" lon="9.465955">
        <ele>117.734216</ele>
        <time>2024-08-25T11:36:15.000Z</time>
      </trkpt>
      <trkpt lat="56.098137" lon="9.46587">
        <ele>117.660197</ele>
        <time>2024-08-25T11:36:18.000Z</time>
      </trkpt>
      <trkpt lat="56.098709" lon="9.465692">
        <ele>116.946131</ele>
        <time>2024-08-25T11:36:24.000Z</time>
      </trkpt>
      <trkpt lat="56.098831" lon="9.465635">
        <ele>116.784381</ele>
        <time>2024-08-25T11:36:25.000Z</time>
      </trkpt>
      <trkpt lat="56.099065" lon="9.466307">
        <ele>116.199748</ele>
        <time>2024-08-25T11:36:30.000Z</time>
      </trkpt>
      <trkpt lat="56.100075" lon="9.469118">
        <ele>110.895901</ele>
        <time>2024-08-25T11:36:51.000Z</time>
      </trkpt>
      <trkpt lat="56.100261" lon="9.4695">
        <ele>109.825943</ele>
        <time>2024-08-25T11:36:54.000Z</time>
      </trkpt>
      <trkpt lat="56.100499" lon="9.469783">
        <ele>108.754061</ele>
        <time>2024-08-25T11:36:57.000Z</time>
      </trkpt>
      <trkpt lat="56.100569" lon="9.469858">
        <ele>108.408749</ele>
        <time>2024-08-25T11:36:58.000Z</time>
      </trkpt>
      <trkpt lat="56.10067" lon="9.469918">
        <ele>107.92367</ele>
        <time>2024-08-25T11:36:59.000Z</time>
      </trkpt>
      <trkpt lat="56.101071" lon="9.469992">
        <ele>105.825409</ele>
        <time>2024-08-25T11:37:03.000Z</time>
      </trkpt>
      <trkpt lat="56.102404" lon="9.469547">
        <ele>98.907955</ele>
        <time>2024-08-25T11:37:18.000Z</time>
      </trkpt>
      <trkpt lat="56.102856" lon="9.469597">
        <ele>97.079878</ele>
        <time>2024-08-25T11:37:23.000Z</time>
      </trkpt>
      <trkpt lat="56.102944" lon="9.469628">
        <ele>96.777398</ele>
        <time>2024-08-25T11:37:24.000Z</time>
      </trkpt>
      <trkpt lat="56.103083" lon="9.4697">
        <ele>96.205462</ele>
        <time>2024-08-25T11:37:26.000Z</time>
      </trkpt>
      <trkpt lat="56.103394" lon="9.469957">
        <ele>94.830784</ele>
        <time>2024-08-25T11:37:30.000Z</time>
      </trkpt>
      <trkpt lat="56.10355" lon="9.470159">
        <ele>94.105559</ele>
        <time>2024-08-25T11:37:32.000Z</time>
      </trkpt>
      <trkpt lat="56.103741" lon="9.470442">
        <ele>93.159325</ele>
        <time>2024-08-25T11:37:35.000Z</time>
      </trkpt>
      <trkpt lat="56.104485" lon="9.471749">
        <ele>91.281814</ele>
        <time>2024-08-25T11:37:47.000Z</time>
      </trkpt>
      <trkpt lat="56.105215" lon="9.473052">
        <ele>90.254793</ele>
        <time>2024-08-25T11:37:58.000Z</time>
      </trkpt>
      <trkpt lat="56.105424" lon="9.473434">
        <ele>91.54144</ele>
        <time>2024-08-25T11:38:01.000Z</time>
      </trkpt>
      <trkpt lat="56.105527" lon="9.47358">
        <ele>92.106967</ele>
        <time>2024-08-25T11:38:02.000Z</time>
      </trkpt>
      <trkpt lat="56.105745" lon="9.473858">
        <ele>93.255204</ele>
        <time>2024-08-25T11:38:05.000Z</time>
      </trkpt>
      <trkpt lat="56.106282" lon="9.474319">
        <ele>95.814287</ele>
        <time>2024-08-25T11:38:12.000Z</time>
      </trkpt>
      <trkpt lat="56.107488" lon="9.475015">
        <ele>100.086288</ele>
        <time>2024-08-25T11:38:26.000Z</time>
      </trkpt>
      <trkpt lat="56.108326" lon="9.475521">
        <ele>102.541381</ele>
        <time>2024-08-25T11:38:36.000Z</time>
      </trkpt>
      <trkpt lat="56.10886" lon="9.476005">
        <ele>102.78865</ele>
        <time>2024-08-25T11:38:43.000Z</time>
      </trkpt>
      <trkpt lat="56.109413" lon="9.476864">
        <ele>102.525422</ele>
        <time>2024-08-25T11:38:51.000Z</time>
      </trkpt>
      <trkpt lat="56.109475" lon="9.476961">
        <ele>102.497933</ele>
        <time>2024-08-25T11:38:52.000Z</time>
      </trkpt>
      <trkpt lat="56.109735" lon="9.477564">
        <ele>102.344065</ele>
        <time>2024-08-25T11:38:57.000Z</time>
      </trkpt>
      <trkpt lat="56.110331" lon="9.478874">
        <ele>103.043006</ele>
        <time>2024-08-25T11:39:07.000Z</time>
      </trkpt>
      <trkpt lat="56.110331" lon="9.47888">
        <ele>103.043</ele>
        <time>2024-08-25T11:39:07.000Z</time>
      </trkpt>
      <trkpt lat="56.110337" lon="9.47887">
        <ele>103.042995</ele>
        <time>2024-08-25T11:39:07.000Z</time>
      </trkpt>
      <trkpt lat="56.112259" lon="9.48317">
        <ele>106.399132</ele>
        <time>2024-08-25T11:39:41.000Z</time>
      </trkpt>
      <trkpt lat="56.112619" lon="9.483993">
        <ele>106.706351</ele>
        <time>2024-08-25T11:39:47.000Z</time>
      </trkpt>
      <trkpt lat="56.112867" lon="9.484587">
        <ele>106.923957</ele>
        <time>2024-08-25T11:39:52.000Z</time>
      </trkpt>
      <trkpt lat="56.113056" lon="9.484988">
        <ele>107.074547</ele>
        <time>2024-08-25T11:39:55.000Z</time>
      </trkpt>
      <trkpt lat="56.113992" lon="9.487103">
        <ele>106.273804</ele>
        <time>2024-08-25T11:40:12.000Z</time>
      </trkpt>
      <trkpt lat="56.114083" lon="9.487321">
        <ele>106.172762</ele>
        <time>2024-08-25T11:40:14.000Z</time>
      </trkpt>
      <trkpt lat="56.114565" lon="9.488398">
        <ele>105.572063</ele>
        <time>2024-08-25T11:40:23.000Z</time>
      </trkpt>
      <trkpt lat="56.114667" lon="9.488572">
        <ele>105.448489</ele>
        <time>2024-08-25T11:40:25.000Z</time>
      </trkpt>
      <trkpt lat="56.114773" lon="9.488761">
        <ele>105.321043</ele>
        <time>2024-08-25T11:40:27.000Z</time>
      </trkpt>
      <trkpt lat="56.114894" lon="9.488922">
        <ele>105.198032</ele>
        <time>2024-08-25T11:40:29.000Z</time>
      </trkpt>
      <trkpt lat="56.115065" lon="9.489143">
        <ele>105.020997</ele>
        <time>2024-08-25T11:40:31.000Z</time>
      </trkpt>
      <trkpt lat="56.1154" lon="9.489512">
        <ele>104.685654</ele>
        <time>2024-08-25T11:40:35.000Z</time>
      </trkpt>
      <trkpt lat="56.115746" lon="9.489784">
        <ele>104.380677</ele>
        <time>2024-08-25T11:40:39.000Z</time>
      </trkpt>
      <trkpt lat="56.116061" lon="9.490033">
        <ele>104.212111</ele>
        <time>2024-08-25T11:40:43.000Z</time>
      </trkpt>
      <trkpt lat="56.116108" lon="9.490056">
        <ele>104.18024</ele>
        <time>2024-08-25T11:40:44.000Z</time>
      </trkpt>
      <trkpt lat="56.116192" lon="9.490121">
        <ele>104.136545</ele>
        <time>2024-08-25T11:40:45.000Z</time>
      </trkpt>
      <trkpt lat="56.116352" lon="9.490247">
        <ele>104.049502</ele>
        <time>2024-08-25T11:40:47.000Z</time>
      </trkpt>
      <trkpt lat="56.116509" lon="9.490375">
        <ele>103.958526</ele>
        <time>2024-08-25T11:40:49.000Z</time>
      </trkpt>
      <trkpt lat="56.11668" lon="9.490503">
        <ele>103.866408</ele>
        <time>2024-08-25T11:40:51.000Z</time>
      </trkpt>
      <trkpt lat="56.117322" lon="9.490988">
        <ele>103.514434</ele>
        <time>2024-08-25T11:40:59.000Z</time>
      </trkpt>
      <trkpt lat="56.118585" lon="9.491988">
        <ele>102.876629</ele>
        <time>2024-08-25T11:41:14.000Z</time>
      </trkpt>
      <trkpt lat="56.119788" lon="9.492869">
        <ele>101.823323</ele>
        <time>2024-08-25T11:41:28.000Z</time>
      </trkpt>
      <trkpt lat="56.120412" lon="9.493118">
        <ele>101.178995</ele>
        <time>2024-08-25T11:41:35.000Z</time>
      </trkpt>
      <trkpt lat="56.121039" lon="9.493084">
        <ele>99.417722</ele>
        <time>2024-08-25T11:41:42.000Z</time>
      </trkpt>
      <trkpt lat="56.121601" lon="9.49279">
        <ele>96.877171</ele>
        <time>2024-08-25T11:41:49.000Z</time>
      </trkpt>
      <trkpt lat="56.121858" lon="9.492571">
        <ele>95.588026</ele>
        <time>2024-08-25T11:41:52.000Z</time>
      </trkpt>
      <trkpt lat="56.122801" lon="9.491558">
        <ele>88.822952</ele>
        <time>2024-08-25T11:42:04.000Z</time>
      </trkpt>
      <trkpt lat="56.12341" lon="9.491276">
        <ele>83.583501</ele>
        <time>2024-08-25T11:42:11.000Z</time>
      </trkpt>
      <trkpt lat="56.124054" lon="9.49132">
        <ele>78.077539</ele>
        <time>2024-08-25T11:42:18.000Z</time>
      </trkpt>
      <trkpt lat="56.124436" lon="9.491461">
        <ele>73.87385</ele>
        <time>2024-08-25T11:42:22.000Z</time>
      </trkpt>
      <trkpt lat="56.124963" lon="9.491891">
        <ele>67.323719</ele>
        <time>2024-08-25T11:42:28.000Z</time>
      </trkpt>
      <trkpt lat="56.125267" lon="9.492299">
        <ele>63.002718</ele>
        <time>2024-08-25T11:42:32.000Z</time>
      </trkpt>
      <trkpt lat="56.125819" lon="9.492984">
        <ele>56.365877</ele>
        <time>2024-08-25T11:42:39.000Z</time>
      </trkpt>
      <trkpt lat="56.126225" lon="9.49345">
        <ele>53.223301</ele>
        <time>2024-08-25T11:42:44.000Z</time>
      </trkpt>
      <trkpt lat="56.126425" lon="9.493647">
        <ele>51.706879</ele>
        <time>2024-08-25T11:42:47.000Z</time>
      </trkpt>
      <trkpt lat="56.126652" lon="9.49384">
        <ele>50.184599</ele>
        <time>2024-08-25T11:42:50.000Z</time>
      </trkpt>
      <trkpt lat="56.127052" lon="9.494112">
        <ele>47.289296</ele>
        <time>2024-08-25T11:42:55.000Z</time>
      </trkpt>
      <trkpt lat="56.127461" lon="9.494303">
        <ele>46.019492</ele>
        <time>2024-08-25T11:43:00.000Z</time>
      </trkpt>
      <trkpt lat="56.129217" lon="9.495011">
        <ele>47.152304</ele>
        <time>2024-08-25T11:43:20.000Z</time>
      </trkpt>
      <trkpt lat="56.130901" lon="9.495709">
        <ele>50.346356</ele>
        <time>2024-08-25T11:43:39.000Z</time>
      </trkpt>
      <trkpt lat="56.133149" lon="9.496616">
        <ele>56.808171</ele>
        <time>2024-08-25T11:44:05.000Z</time>
      </trkpt>
      <trkpt lat="56.133902" lon="9.496957">
        <ele>58.188458</ele>
        <time>2024-08-25T11:44:14.000Z</time>
      </trkpt>
      <trkpt lat="56.135016" lon="9.49765">
        <ele>57.507202</ele>
        <time>2024-08-25T11:44:27.000Z</time>
      </trkpt>
      <trkpt lat="56.135284" lon="9.497882">
        <ele>57.007139</ele>
        <time>2024-08-25T11:44:30.000Z</time>
      </trkpt>
      <trkpt lat="56.135749" lon="9.498358">
        <ele>56.085564</ele>
        <time>2024-08-25T11:44:36.000Z</time>
      </trkpt>
      <trkpt lat="56.13689" lon="9.499811">
        <ele>53.914709</ele>
        <time>2024-08-25T11:44:52.000Z</time>
      </trkpt>
      <trkpt lat="56.137386" lon="9.500557">
        <ele>53.11519</ele>
        <time>2024-08-25T11:44:59.000Z</time>
      </trkpt>
      <trkpt lat="56.137838" lon="9.50132">
        <ele>53.599322</ele>
        <time>2024-08-25T11:45:06.000Z</time>
      </trkpt>
      <trkpt lat="56.139132" lon="9.504021">
        <ele>55.488447</ele>
        <time>2024-08-25T11:45:28.000Z</time>
      </trkpt>
      <trkpt lat="56.139363" lon="9.50456">
        <ele>55.921113</ele>
        <time>2024-08-25T11:45:32.000Z</time>
      </trkpt>
      <trkpt lat="56.139561" lon="9.505099">
        <ele>56.320268</ele>
        <time>2024-08-25T11:45:36.000Z</time>
      </trkpt>
      <trkpt lat="56.139945" lon="9.506343">
        <ele>57.053671</ele>
        <time>2024-08-25T11:45:45.000Z</time>
      </trkpt>
      <trkpt lat="56.140145" lon="9.50703">
        <ele>57.426531</ele>
        <time>2024-08-25T11:45:50.000Z</time>
      </trkpt>
      <trkpt lat="56.141006" lon="9.509821">
        <ele>58.796521</ele>
        <time>2024-08-25T11:46:10.000Z</time>
      </trkpt>
      <trkpt lat="56.141237" lon="9.510568">
        <ele>59.129908</ele>
        <time>2024-08-25T11:46:15.000Z</time>
      </trkpt>
      <trkpt lat="56.142171" lon="9.513636">
        <ele>59.726438</ele>
        <time>2024-08-25T11:46:37.000Z</time>
      </trkpt>
      <trkpt lat="56.143223" lon="9.517077">
        <ele>59.628784</ele>
        <time>2024-08-25T11:47:01.000Z</time>
      </trkpt>
      <trkpt lat="56.143422" lon="9.517745">
        <ele>59.345187</ele>
        <time>2024-08-25T11:47:06.000Z</time>
      </trkpt>
      <trkpt lat="56.143677" lon="9.518462">
        <ele>59.033767</ele>
        <time>2024-08-25T11:47:11.000Z</time>
      </trkpt>
      <trkpt lat="56.143975" lon="9.519127">
        <ele>58.723536</ele>
        <time>2024-08-25T11:47:16.000Z</time>
      </trkpt>
      <trkpt lat="56.144192" lon="9.519553">
        <ele>58.358472</ele>
        <time>2024-08-25T11:47:20.000Z</time>
      </trkpt>
      <trkpt lat="56.14443" lon="9.519944">
        <ele>57.785784</ele>
        <time>2024-08-25T11:47:24.000Z</time>
      </trkpt>
      <trkpt lat="56.144719" lon="9.520359">
        <ele>57.153267</ele>
        <time>2024-08-25T11:47:28.000Z</time>
      </trkpt>
      <trkpt lat="56.145357" lon="9.521091">
        <ele>55.803278</ele>
        <time>2024-08-25T11:47:36.000Z</time>
      </trkpt>
      <trkpt lat="56.146364" lon="9.521984">
        <ele>53.900515</ele>
        <time>2024-08-25T11:47:48.000Z</time>
      </trkpt>
      <trkpt lat="56.14766" lon="9.523156">
        <ele>51.669545</ele>
        <time>2024-08-25T11:48:04.000Z</time>
      </trkpt>
      <trkpt lat="56.148084" lon="9.523525">
        <ele>51.083833</ele>
        <time>2024-08-25T11:48:09.000Z</time>
      </trkpt>
      <trkpt lat="56.148555" lon="9.523936">
        <ele>50.409258</ele>
        <time>2024-08-25T11:48:15.000Z</time>
      </trkpt>
      <trkpt lat="56.151546" lon="9.526599">
        <ele>45.464582</ele>
        <time>2024-08-25T11:48:52.000Z</time>
      </trkpt>
      <trkpt lat="56.151763" lon="9.526779">
        <ele>45.081391</ele>
        <time>2024-08-25T11:48:55.000Z</time>
      </trkpt>
      <trkpt lat="56.151918" lon="9.526858">
        <ele>44.826064</ele>
        <time>2024-08-25T11:48:57.000Z</time>
      </trkpt>
      <trkpt lat="56.152154" lon="9.526956">
        <ele>44.503942</ele>
        <time>2024-08-25T11:49:00.000Z</time>
      </trkpt>
      <trkpt lat="56.152367" lon="9.527074">
        <ele>44.197268</ele>
        <time>2024-08-25T11:49:02.000Z</time>
      </trkpt>
      <trkpt lat="56.152594" lon="9.527149">
        <ele>43.892753</ele>
        <time>2024-08-25T11:49:05.000Z</time>
      </trkpt>
      <trkpt lat="56.152837" lon="9.527227">
        <ele>43.584937</ele>
        <time>2024-08-25T11:49:08.000Z</time>
      </trkpt>
      <trkpt lat="56.153065" lon="9.527279">
        <ele>43.287719</ele>
        <time>2024-08-25T11:49:11.000Z</time>
      </trkpt>
      <trkpt lat="56.153244" lon="9.527303">
        <ele>43.059481</ele>
        <time>2024-08-25T11:49:13.000Z</time>
      </trkpt>
      <trkpt lat="56.153778" lon="9.527416">
        <ele>42.344002</ele>
        <time>2024-08-25T11:49:19.000Z</time>
      </trkpt>
      <trkpt lat="56.154088" lon="9.527519">
        <ele>41.153962</ele>
        <time>2024-08-25T11:49:23.000Z</time>
      </trkpt>
      <trkpt lat="56.154209" lon="9.527556">
        <ele>40.602803</ele>
        <time>2024-08-25T11:49:24.000Z</time>
      </trkpt>
      <trkpt lat="56.154357" lon="9.527614">
        <ele>40.072608</ele>
        <time>2024-08-25T11:49:26.000Z</time>
      </trkpt>
      <trkpt lat="56.154601" lon="9.527763">
        <ele>39.044853</ele>
        <time>2024-08-25T11:49:29.000Z</time>
      </trkpt>
      <trkpt lat="56.154952" lon="9.527972">
        <ele>37.596126</ele>
        <time>2024-08-25T11:49:33.000Z</time>
      </trkpt>
      <trkpt lat="56.155232" lon="9.52814">
        <ele>36.393411</ele>
        <time>2024-08-25T11:49:36.000Z</time>
      </trkpt>
      <trkpt lat="56.155449" lon="9.528237">
        <ele>35.561844</ele>
        <time>2024-08-25T11:49:38.000Z</time>
      </trkpt>
      <trkpt lat="56.155696" lon="9.52828">
        <ele>34.487926</ele>
        <time>2024-08-25T11:49:41.000Z</time>
      </trkpt>
      <trkpt lat="56.155802" lon="9.528274">
        <ele>33.927958</ele>
        <time>2024-08-25T11:49:42.000Z</time>
      </trkpt>
      <trkpt lat="56.156512" lon="9.528081">
        <ele>30.635013</ele>
        <time>2024-08-25T11:49:50.000Z</time>
      </trkpt>
      <trkpt lat="56.157069" lon="9.527781">
        <ele>27.976827</ele>
        <time>2024-08-25T11:49:56.000Z</time>
      </trkpt>
      <trkpt lat="56.157275" lon="9.527751">
        <ele>27.051309</ele>
        <time>2024-08-25T11:49:58.000Z</time>
      </trkpt>
      <trkpt lat="56.157416" lon="9.527748">
        <ele>26.972344</ele>
        <time>2024-08-25T11:50:00.000Z</time>
      </trkpt>
      <trkpt lat="56.157683" lon="9.527803">
        <ele>26.878425</ele>
        <time>2024-08-25T11:50:03.000Z</time>
      </trkpt>
      <trkpt lat="56.157989" lon="9.527831">
        <ele>26.772294</ele>
        <time>2024-08-25T11:50:06.000Z</time>
      </trkpt>
      <trkpt lat="56.158117" lon="9.527908">
        <ele>26.731642</ele>
        <time>2024-08-25T11:50:08.000Z</time>
      </trkpt>
      <trkpt lat="56.158369" lon="9.528309">
        <ele>26.615479</ele>
        <time>2024-08-25T11:50:12.000Z</time>
      </trkpt>
      <trkpt lat="56.158381" lon="9.528343">
        <ele>26.606958</ele>
        <time>2024-08-25T11:50:12.000Z</time>
      </trkpt>
      <trkpt lat="56.15842" lon="9.52844">
        <ele>26.582517</ele>
        <time>2024-08-25T11:50:13.000Z</time>
      </trkpt>
      <trkpt lat="56.158427" lon="9.528463">
        <ele>26.577519</ele>
        <time>2024-08-25T11:50:13.000Z</time>
      </trkpt>
      <trkpt lat="56.158596" lon="9.5288">
        <ele>26.489778</ele>
        <time>2024-08-25T11:50:16.000Z</time>
      </trkpt>
      <trkpt lat="56.158643" lon="9.528934">
        <ele>26.461954</ele>
        <time>2024-08-25T11:50:17.000Z</time>
      </trkpt>
      <trkpt lat="56.158687" lon="9.529067">
        <ele>26.434183</ele>
        <time>2024-08-25T11:50:18.000Z</time>
      </trkpt>
      <trkpt lat="56.158765" lon="9.52939">
        <ele>26.513454</ele>
        <time>2024-08-25T11:50:20.000Z</time>
      </trkpt>
      <trkpt lat="56.159066" lon="9.530754">
        <ele>27.318927</ele>
        <time>2024-08-25T11:50:29.000Z</time>
      </trkpt>
      <trkpt lat="56.159112" lon="9.530946">
        <ele>27.433827</ele>
        <time>2024-08-25T11:50:30.000Z</time>
      </trkpt>
      <trkpt lat="56.158975" lon="9.531034">
        <ele>27.578399</ele>
        <time>2024-08-25T11:50:32.000Z</time>
      </trkpt>
      <trkpt lat="56.15897" lon="9.53103">
        <ele>27.578388</ele>
        <time>2024-08-25T11:50:32.000Z</time>
      </trkpt>
      <trkpt lat="56.158553" lon="9.531227">
        <ele>28.006377</ele>
        <time>2024-08-25T11:50:37.000Z</time>
      </trkpt>
      <trkpt lat="56.158439" lon="9.531288">
        <ele>28.124413</ele>
        <time>2024-08-25T11:50:38.000Z</time>
      </trkpt>
      <trkpt lat="56.158132" lon="9.531467">
        <ele>28.267105</ele>
        <time>2024-08-25T11:50:42.000Z</time>
      </trkpt>
      <trkpt lat="56.157838" lon="9.531635">
        <ele>28.378273</ele>
        <time>2024-08-25T11:50:45.000Z</time>
      </trkpt>
      <trkpt lat="56.157518" lon="9.531803">
        <ele>28.487643</ele>
        <time>2024-08-25T11:50:49.000Z</time>
      </trkpt>
      <trkpt lat="56.157211" lon="9.531994">
        <ele>28.601595</ele>
        <time>2024-08-25T11:50:53.000Z</time>
      </trkpt>
      <trkpt lat="56.156535" lon="9.532383">
        <ele>28.686473</ele>
        <time>2024-08-25T11:51:01.000Z</time>
      </trkpt>
      <trkpt lat="56.156255" lon="9.532601">
        <ele>28.476614</ele>
        <time>2024-08-25T11:51:04.000Z</time>
      </trkpt>
      <trkpt lat="56.156164" lon="9.532682">
        <ele>28.411732</ele>
        <time>2024-08-25T11:51:05.000Z</time>
      </trkpt>
      <trkpt lat="56.156033" lon="9.532856">
        <ele>28.290152</ele>
        <time>2024-08-25T11:51:07.000Z</time>
      </trkpt>
      <trkpt lat="56.155611" lon="9.533515">
        <ele>27.903319</ele>
        <time>2024-08-25T11:51:13.000Z</time>
      </trkpt>
      <trkpt lat="56.155467" lon="9.533969">
        <ele>27.697552</ele>
        <time>2024-08-25T11:51:16.000Z</time>
      </trkpt>
      <trkpt lat="56.155304" lon="9.534765">
        <ele>27.641066</ele>
        <time>2024-08-25T11:51:21.000Z</time>
      </trkpt>
      <trkpt lat="56.155271" lon="9.535652">
        <ele>27.865174</ele>
        <time>2024-08-25T11:51:27.000Z</time>
      </trkpt>
      <trkpt lat="56.155428" lon="9.538346">
        <ele>29.447495</ele>
        <time>2024-08-25T11:51:44.000Z</time>
      </trkpt>
      <trkpt lat="56.155463" lon="9.538981">
        <ele>30.338691</ele>
        <time>2024-08-25T11:51:48.000Z</time>
      </trkpt>
      <trkpt lat="56.155508" lon="9.539584">
        <ele>31.17976</ele>
        <time>2024-08-25T11:51:52.000Z</time>
      </trkpt>
      <trkpt lat="56.155567" lon="9.540457">
        <ele>32.375328</ele>
        <time>2024-08-25T11:51:57.000Z</time>
      </trkpt>
      <trkpt lat="56.155735" lon="9.54331">
        <ele>37.24807</ele>
        <time>2024-08-25T11:52:15.000Z</time>
      </trkpt>
      <trkpt lat="56.155761" lon="9.543858">
        <ele>38.206313</ele>
        <time>2024-08-25T11:52:18.000Z</time>
      </trkpt>
      <trkpt lat="56.155767" lon="9.543946">
        <ele>38.357649</ele>
        <time>2024-08-25T11:52:19.000Z</time>
      </trkpt>
      <trkpt lat="56.155765" lon="9.544479">
        <ele>38.547384</ele>
        <time>2024-08-25T11:52:22.000Z</time>
      </trkpt>
      <trkpt lat="56.155626" lon="9.545697">
        <ele>38.881293</ele>
        <time>2024-08-25T11:52:30.000Z</time>
      </trkpt>
      <trkpt lat="56.155398" lon="9.546617">
        <ele>39.154288</ele>
        <time>2024-08-25T11:52:36.000Z</time>
      </trkpt>
      <trkpt lat="56.15523" lon="9.547072">
        <ele>39.282036</ele>
        <time>2024-08-25T11:52:39.000Z</time>
      </trkpt>
      <trkpt lat="56.154912" lon="9.547784">
        <ele>39.246663</ele>
        <time>2024-08-25T11:52:45.000Z</time>
      </trkpt>
      <trkpt lat="56.154697" lon="9.548233">
        <ele>39.223569</ele>
        <time>2024-08-25T11:52:49.000Z</time>
      </trkpt>
      <trkpt lat="56.154646" lon="9.548184">
        <ele>39.219772</ele>
        <time>2024-08-25T11:52:50.000Z</time>
      </trkpt>
      <trkpt lat="56.154338" lon="9.548437">
        <ele>39.196619</ele>
        <time>2024-08-25T11:52:54.000Z</time>
      </trkpt>
      <trkpt lat="56.154281" lon="9.548587">
        <ele>39.189253</ele>
        <time>2024-08-25T11:52:55.000Z</time>
      </trkpt>
      <trkpt lat="56.154214" lon="9.549178">
        <ele>39.165671</ele>
        <time>2024-08-25T11:52:59.000Z</time>
      </trkpt>
      <trkpt lat="56.153816" lon="9.549852">
        <ele>38.655929</ele>
        <time>2024-08-25T11:53:05.000Z</time>
      </trkpt>
      <trkpt lat="56.153606" lon="9.550237">
        <ele>38.32946</ele>
        <time>2024-08-25T11:53:08.000Z</time>
      </trkpt>
      <trkpt lat="56.153292" lon="9.550498">
        <ele>37.950741</ele>
        <time>2024-08-25T11:53:12.000Z</time>
      </trkpt>
      <trkpt lat="56.150614" lon="9.552613">
        <ele>31.865194</ele>
        <time>2024-08-25T11:53:45.000Z</time>
      </trkpt>
      <trkpt lat="56.150486" lon="9.552781">
        <ele>31.512926</ele>
        <time>2024-08-25T11:53:47.000Z</time>
      </trkpt>
      <trkpt lat="56.150313" lon="9.553045">
        <ele>30.996507</ele>
        <time>2024-08-25T11:53:50.000Z</time>
      </trkpt>
      <trkpt lat="56.149958" lon="9.553747">
        <ele>29.864307</ele>
        <time>2024-08-25T11:53:56.000Z</time>
      </trkpt>
      <trkpt lat="56.149764" lon="9.554223">
        <ele>29.164811</ele>
        <time>2024-08-25T11:54:00.000Z</time>
      </trkpt>
      <trkpt lat="56.14953" lon="9.554837">
        <ele>29.334015</ele>
        <time>2024-08-25T11:54:05.000Z</time>
      </trkpt>
      <trkpt lat="56.149411" lon="9.555101">
        <ele>29.645179</ele>
        <time>2024-08-25T11:54:07.000Z</time>
      </trkpt>
      <trkpt lat="56.149282" lon="9.555376">
        <ele>29.951726</ele>
        <time>2024-08-25T11:54:09.000Z</time>
      </trkpt>
      <trkpt lat="56.149146" lon="9.555618">
        <ele>30.267632</ele>
        <time>2024-08-25T11:54:11.000Z</time>
      </trkpt>
      <trkpt lat="56.148975" lon="9.555839">
        <ele>30.589777</ele>
        <time>2024-08-25T11:54:13.000Z</time>
      </trkpt>
      <trkpt lat="56.148789" lon="9.55608">
        <ele>30.95858</ele>
        <time>2024-08-25T11:54:16.000Z</time>
      </trkpt>
      <trkpt lat="56.148782" lon="9.556099">
        <ele>30.975909</ele>
        <time>2024-08-25T11:54:16.000Z</time>
      </trkpt>
      <trkpt lat="56.148787" lon="9.5561">
        <ele>30.977738</ele>
        <time>2024-08-25T11:54:16.000Z</time>
      </trkpt>
      <trkpt lat="56.148717" lon="9.556181">
        <ele>31.11377</ele>
        <time>2024-08-25T11:54:17.000Z</time>
      </trkpt>
      <trkpt lat="56.14835" lon="9.556622">
        <ele>31.910618</ele>
        <time>2024-08-25T11:54:22.000Z</time>
      </trkpt>
      <trkpt lat="56.147653" lon="9.557328">
        <ele>35.462076</ele>
        <time>2024-08-25T11:54:31.000Z</time>
      </trkpt>
      <trkpt lat="56.146948" lon="9.557852">
        <ele>38.785843</ele>
        <time>2024-08-25T11:54:39.000Z</time>
      </trkpt>
      <trkpt lat="56.146509" lon="9.558102">
        <ele>40.453241</ele>
        <time>2024-08-25T11:54:44.000Z</time>
      </trkpt>
      <trkpt lat="56.145696" lon="9.55848">
        <ele>43.000016</ele>
        <time>2024-08-25T11:54:53.000Z</time>
      </trkpt>
      <trkpt lat="56.143209" lon="9.559335">
        <ele>48.514602</ele>
        <time>2024-08-25T11:55:21.000Z</time>
      </trkpt>
      <trkpt lat="56.142816" lon="9.559437">
        <ele>48.578751</ele>
        <time>2024-08-25T11:55:25.000Z</time>
      </trkpt>
      <trkpt lat="56.142339" lon="9.559502">
        <ele>48.655618</ele>
        <time>2024-08-25T11:55:30.000Z</time>
      </trkpt>
      <trkpt lat="56.141926" lon="9.559576">
        <ele>48.724571</ele>
        <time>2024-08-25T11:55:35.000Z</time>
      </trkpt>
      <trkpt lat="56.141681" lon="9.559606">
        <ele>48.764301</ele>
        <time>2024-08-25T11:55:38.000Z</time>
      </trkpt>
      <trkpt lat="56.141498" lon="9.559635">
        <ele>48.792895</ele>
        <time>2024-08-25T11:55:40.000Z</time>
      </trkpt>
      <trkpt lat="56.14141" lon="9.55964">
        <ele>48.735215</ele>
        <time>2024-08-25T11:55:41.000Z</time>
      </trkpt>
      <trkpt lat="56.141356" lon="9.5596">
        <ele>48.662799</ele>
        <time>2024-08-25T11:55:42.000Z</time>
      </trkpt>
      <trkpt lat="56.140956" lon="9.559663">
        <ele>48.223978</ele>
        <time>2024-08-25T11:55:46.000Z</time>
      </trkpt>
      <trkpt lat="56.140506" lon="9.559738">
        <ele>47.710914</ele>
        <time>2024-08-25T11:55:51.000Z</time>
      </trkpt>
      <trkpt lat="56.140384" lon="9.559756">
        <ele>47.574794</ele>
        <time>2024-08-25T11:55:52.000Z</time>
      </trkpt>
      <trkpt lat="56.140251" lon="9.559772">
        <ele>47.419568</ele>
        <time>2024-08-25T11:55:53.000Z</time>
      </trkpt>
      <trkpt lat="56.139771" lon="9.559851">
        <ele>46.886449</ele>
        <time>2024-08-25T11:55:58.000Z</time>
      </trkpt>
      <trkpt lat="56.137963" lon="9.560168">
        <ele>46.049511</ele>
        <time>2024-08-25T11:56:18.000Z</time>
      </trkpt>
      <trkpt lat="56.137904" lon="9.560175">
        <ele>46.020748</ele>
        <time>2024-08-25T11:56:19.000Z</time>
      </trkpt>
      <trkpt lat="56.137898" lon="9.560182">
        <ele>46.018607</ele>
        <time>2024-08-25T11:56:19.000Z</time>
      </trkpt>
      <trkpt lat="56.137686" lon="9.560209">
        <ele>45.932782</ele>
        <time>2024-08-25T11:56:21.000Z</time>
      </trkpt>
      <trkpt lat="56.137439" lon="9.56025">
        <ele>45.831095</ele>
        <time>2024-08-25T11:56:24.000Z</time>
      </trkpt>
      <trkpt lat="56.136993" lon="9.56033">
        <ele>45.640867</ele>
        <time>2024-08-25T11:56:29.000Z</time>
      </trkpt>
      <trkpt lat="56.136917" lon="9.560329">
        <ele>45.605469</ele>
        <time>2024-08-25T11:56:30.000Z</time>
      </trkpt>
      <trkpt lat="56.136425" lon="9.560421">
        <ele>45.405939</ele>
        <time>2024-08-25T11:56:36.000Z</time>
      </trkpt>
      <trkpt lat="56.134996" lon="9.560672">
        <ele>43.139006</ele>
        <time>2024-08-25T11:56:52.000Z</time>
      </trkpt>
      <trkpt lat="56.134917" lon="9.560702">
        <ele>42.951892</ele>
        <time>2024-08-25T11:56:53.000Z</time>
      </trkpt>
      <trkpt lat="56.134695" lon="9.560723">
        <ele>42.55238</ele>
        <time>2024-08-25T11:56:55.000Z</time>
      </trkpt>
      <trkpt lat="56.13399" lon="9.560911">
        <ele>40.990453</ele>
        <time>2024-08-25T11:57:03.000Z</time>
      </trkpt>
      <trkpt lat="56.133527" lon="9.561126">
        <ele>39.755684</ele>
        <time>2024-08-25T11:57:08.000Z</time>
      </trkpt>
      <trkpt lat="56.133185" lon="9.561265">
        <ele>38.902675</ele>
        <time>2024-08-25T11:57:12.000Z</time>
      </trkpt>
      <trkpt lat="56.132068" lon="9.561956">
        <ele>35.966627</ele>
        <time>2024-08-25T11:57:25.000Z</time>
      </trkpt>
      <trkpt lat="56.131669" lon="9.562195">
        <ele>34.914047</ele>
        <time>2024-08-25T11:57:30.000Z</time>
      </trkpt>
      <trkpt lat="56.131626" lon="9.562002">
        <ele>34.618125</ele>
        <time>2024-08-25T11:57:31.000Z</time>
      </trkpt>
      <trkpt lat="56.13155" lon="9.561719">
        <ele>34.180393</ele>
        <time>2024-08-25T11:57:33.000Z</time>
      </trkpt>
      <trkpt lat="56.1315" lon="9.561601">
        <ele>33.959704</ele>
        <time>2024-08-25T11:57:34.000Z</time>
      </trkpt>
      <trkpt lat="56.131413" lon="9.561482">
        <ele>33.699268</ele>
        <time>2024-08-25T11:57:35.000Z</time>
      </trkpt>
      <trkpt lat="56.131253" lon="9.561386">
        <ele>33.305197</ele>
        <time>2024-08-25T11:57:37.000Z</time>
      </trkpt>
      <trkpt lat="56.130908" lon="9.561206">
        <ele>32.485699</ele>
        <time>2024-08-25T11:57:41.000Z</time>
      </trkpt>
      <trkpt lat="56.130818" lon="9.561153">
        <ele>32.286617</ele>
        <time>2024-08-25T11:57:42.000Z</time>
      </trkpt>
      <trkpt lat="56.130668" lon="9.561091">
        <ele>31.976429</ele>
        <time>2024-08-25T11:57:44.000Z</time>
      </trkpt>
      <trkpt lat="56.130294" lon="9.560926">
        <ele>31.186266</ele>
        <time>2024-08-25T11:57:48.000Z</time>
      </trkpt>
      <trkpt lat="56.129962" lon="9.560831">
        <ele>30.485244</ele>
        <time>2024-08-25T11:57:52.000Z</time>
      </trkpt>
      <trkpt lat="56.129591" lon="9.560764">
        <ele>29.759438</ele>
        <time>2024-08-25T11:57:56.000Z</time>
      </trkpt>
      <trkpt lat="56.129256" lon="9.560799">
        <ele>29.220914</ele>
        <time>2024-08-25T11:58:00.000Z</time>
      </trkpt>
      <trkpt lat="56.129161" lon="9.560808">
        <ele>29.373407</ele>
        <time>2024-08-25T11:58:01.000Z</time>
      </trkpt>
      <trkpt lat="56.128773" lon="9.560843">
        <ele>30.006072</ele>
        <time>2024-08-25T11:58:05.000Z</time>
      </trkpt>
      <trkpt lat="56.128439" lon="9.560885">
        <ele>30.546598</ele>
        <time>2024-08-25T11:58:09.000Z</time>
      </trkpt>
      <trkpt lat="56.128169" lon="9.560919">
        <ele>30.986517</ele>
        <time>2024-08-25T11:58:12.000Z</time>
      </trkpt>
      <trkpt lat="56.128027" lon="9.56094">
        <ele>31.210487</ele>
        <time>2024-08-25T11:58:14.000Z</time>
      </trkpt>
      <trkpt lat="56.127687" lon="9.560993">
        <ele>31.767819</ele>
        <time>2024-08-25T11:58:18.000Z</time>
      </trkpt>
      <trkpt lat="56.12748" lon="9.561011">
        <ele>32.155801</ele>
        <time>2024-08-25T11:58:20.000Z</time>
      </trkpt>
      <trkpt lat="56.127271" lon="9.561022">
        <ele>33.034978</ele>
        <time>2024-08-25T11:58:22.000Z</time>
      </trkpt>
      <trkpt lat="56.126645" lon="9.561121">
        <ele>35.542934</ele>
        <time>2024-08-25T11:58:29.000Z</time>
      </trkpt>
      <trkpt lat="56.126215" lon="9.561192">
        <ele>37.256406</ele>
        <time>2024-08-25T11:58:34.000Z</time>
      </trkpt>
      <trkpt lat="56.125719" lon="9.56125">
        <ele>39.326553</ele>
        <time>2024-08-25T11:58:40.000Z</time>
      </trkpt>
      <trkpt lat="56.125484" lon="9.561339">
        <ele>40.431166</ele>
        <time>2024-08-25T11:58:43.000Z</time>
      </trkpt>
      <trkpt lat="56.125248" lon="9.561531">
        <ele>41.616663</ele>
        <time>2024-08-25T11:58:46.000Z</time>
      </trkpt>
      <trkpt lat="56.124956" lon="9.5619">
        <ele>43.214561</ele>
        <time>2024-08-25T11:58:50.000Z</time>
      </trkpt>
      <trkpt lat="56.124946" lon="9.561898">
        <ele>43.238423</ele>
        <time>2024-08-25T11:58:50.000Z</time>
      </trkpt>
      <trkpt lat="56.124905" lon="9.561988">
        <ele>43.568696</ele>
        <time>2024-08-25T11:58:51.000Z</time>
      </trkpt>
      <trkpt lat="56.123663" lon="9.564496">
        <ele>52.140274</ele>
        <time>2024-08-25T11:59:12.000Z</time>
      </trkpt>
      <trkpt lat="56.123262" lon="9.565294">
        <ele>54.898016</ele>
        <time>2024-08-25T11:59:19.000Z</time>
      </trkpt>
      <trkpt lat="56.122952" lon="9.565966">
        <ele>57.125304</ele>
        <time>2024-08-25T11:59:24.000Z</time>
      </trkpt>
      <trkpt lat="56.122827" lon="9.566252">
        <ele>58.025069</ele>
        <time>2024-08-25T11:59:26.000Z</time>
      </trkpt>
      <trkpt lat="56.122759" lon="9.566741">
        <ele>59.287693</ele>
        <time>2024-08-25T11:59:29.000Z</time>
      </trkpt>
      <trkpt lat="56.122766" lon="9.567105">
        <ele>60.21015</ele>
        <time>2024-08-25T11:59:31.000Z</time>
      </trkpt>
      <trkpt lat="56.12229" lon="9.567158">
        <ele>62.403533</ele>
        <time>2024-08-25T11:59:36.000Z</time>
      </trkpt>
      <trkpt lat="56.121723" lon="9.567215">
        <ele>64.831368</ele>
        <time>2024-08-25T11:59:42.000Z</time>
      </trkpt>
      <trkpt lat="56.121205" lon="9.567192">
        <ele>66.827515</ele>
        <time>2024-08-25T11:59:48.000Z</time>
      </trkpt>
      <trkpt lat="56.120513" lon="9.567093">
        <ele>69.569407</ele>
        <time>2024-08-25T11:59:56.000Z</time>
      </trkpt>
      <trkpt lat="56.120447" lon="9.567071">
        <ele>69.784884</ele>
        <time>2024-08-25T11:59:57.000Z</time>
      </trkpt>
      <trkpt lat="56.119732" lon="9.566889">
        <ele>72.411527</ele>
        <time>2024-08-25T12:00:05.000Z</time>
      </trkpt>
      <trkpt lat="56.119799" lon="9.566639">
        <ele>72.921966</ele>
        <time>2024-08-25T12:00:07.000Z</time>
      </trkpt>
      <trkpt lat="56.119857" lon="9.566424">
        <ele>73.404386</ele>
        <time>2024-08-25T12:00:08.000Z</time>
      </trkpt>
      <trkpt lat="56.120457" lon="9.565135">
        <ele>76.673993</ele>
        <time>2024-08-25T12:00:18.000Z</time>
      </trkpt>
      <trkpt lat="56.120488" lon="9.564983">
        <ele>77.009417</ele>
        <time>2024-08-25T12:00:19.000Z</time>
      </trkpt>
      <trkpt lat="56.120536" lon="9.564783">
        <ele>77.456718</ele>
        <time>2024-08-25T12:00:20.000Z</time>
      </trkpt>
      <trkpt lat="56.120656" lon="9.563845">
        <ele>79.567397</ele>
        <time>2024-08-25T12:00:26.000Z</time>
      </trkpt>
      <trkpt lat="56.120637" lon="9.563656">
        <ele>80.007353</ele>
        <time>2024-08-25T12:00:27.000Z</time>
      </trkpt>
      <trkpt lat="56.120574" lon="9.563405">
        <ele>80.608124</ele>
        <time>2024-08-25T12:00:29.000Z</time>
      </trkpt>
      <trkpt lat="56.120474" lon="9.563078">
        <ele>81.437372</ele>
        <time>2024-08-25T12:00:31.000Z</time>
      </trkpt>
      <trkpt lat="56.118862" lon="9.559914">
        <ele>91.913861</ele>
        <time>2024-08-25T12:00:58.000Z</time>
      </trkpt>
      <trkpt lat="56.118409" lon="9.558991">
        <ele>95.551237</ele>
        <time>2024-08-25T12:01:06.000Z</time>
      </trkpt>
      <trkpt lat="56.11821" lon="9.558613">
        <ele>97.093478</ele>
        <time>2024-08-25T12:01:09.000Z</time>
      </trkpt>
      <trkpt lat="56.117456" lon="9.557123">
        <ele>102.784073</ele>
        <time>2024-08-25T12:01:21.000Z</time>
      </trkpt>
      <trkpt lat="56.117178" lon="9.556684">
        <ele>103.606088</ele>
        <time>2024-08-25T12:01:25.000Z</time>
      </trkpt>
      <trkpt lat="56.117071" lon="9.556494">
        <ele>103.931449</ele>
        <time>2024-08-25T12:01:27.000Z</time>
      </trkpt>
      <trkpt lat="56.116827" lon="9.555936">
        <ele>104.815678</ele>
        <time>2024-08-25T12:01:31.000Z</time>
      </trkpt>
      <trkpt lat="56.116672" lon="9.555596">
        <ele>105.393561</ele>
        <time>2024-08-25T12:01:34.000Z</time>
      </trkpt>
      <trkpt lat="56.116213" lon="9.55481">
        <ele>106.763798</ele>
        <time>2024-08-25T12:01:41.000Z</time>
      </trkpt>
      <trkpt lat="56.115928" lon="9.554314">
        <ele>107.582254</ele>
        <time>2024-08-25T12:01:45.000Z</time>
      </trkpt>
      <trkpt lat="56.115802" lon="9.554069">
        <ele>107.948731</ele>
        <time>2024-08-25T12:01:47.000Z</time>
      </trkpt>
      <trkpt lat="56.115735" lon="9.553807">
        <ele>108.284041</ele>
        <time>2024-08-25T12:01:49.000Z</time>
      </trkpt>
      <trkpt lat="56.115445" lon="9.552121">
        <ele>110.457823</ele>
        <time>2024-08-25T12:02:00.000Z</time>
      </trkpt>
      <trkpt lat="56.115428" lon="9.55184">
        <ele>111.159309</ele>
        <time>2024-08-25T12:02:02.000Z</time>
      </trkpt>
      <trkpt lat="56.115448" lon="9.551555">
        <ele>111.865399</ele>
        <time>2024-08-25T12:02:04.000Z</time>
      </trkpt>
      <trkpt lat="56.115483" lon="9.551121">
        <ele>112.97933</ele>
        <time>2024-08-25T12:02:07.000Z</time>
      </trkpt>
      <trkpt lat="56.115763" lon="9.549051">
        <ele>118.288915</ele>
        <time>2024-08-25T12:02:20.000Z</time>
      </trkpt>
      <trkpt lat="56.116225" lon="9.545897">
        <ele>123.773346</ele>
        <time>2024-08-25T12:02:40.000Z</time>
      </trkpt>
      <trkpt lat="56.116274" lon="9.545126">
        <ele>123.885413</ele>
        <time>2024-08-25T12:02:45.000Z</time>
      </trkpt>
      <trkpt lat="56.115955" lon="9.542288">
        <ele>123.582418</ele>
        <time>2024-08-25T12:03:03.000Z</time>
      </trkpt>
      <trkpt lat="56.115441" lon="9.539821">
        <ele>120.224121</ele>
        <time>2024-08-25T12:03:19.000Z</time>
      </trkpt>
      <trkpt lat="56.115326" lon="9.539311">
        <ele>119.284157</ele>
        <time>2024-08-25T12:03:22.000Z</time>
      </trkpt>
      <trkpt lat="56.115177" lon="9.538849">
        <ele>118.337033</ele>
        <time>2024-08-25T12:03:25.000Z</time>
      </trkpt>
      <trkpt lat="56.114681" lon="9.537398">
        <ele>115.243424</ele>
        <time>2024-08-25T12:03:36.000Z</time>
      </trkpt>
      <trkpt lat="56.113988" lon="9.535349">
        <ele>111.286441</ele>
        <time>2024-08-25T12:03:51.000Z</time>
      </trkpt>
      <trkpt lat="56.113926" lon="9.53518">
        <ele>110.972356</ele>
        <time>2024-08-25T12:03:52.000Z</time>
      </trkpt>
      <trkpt lat="56.113745" lon="9.534769">
        <ele>110.113779</ele>
        <time>2024-08-25T12:03:55.000Z</time>
      </trkpt>
      <trkpt lat="56.112267" lon="9.531429">
        <ele>103.745707</ele>
        <time>2024-08-25T12:04:21.000Z</time>
      </trkpt>
      <trkpt lat="56.112039" lon="9.531062">
        <ele>102.96681</ele>
        <time>2024-08-25T12:04:24.000Z</time>
      </trkpt>
      <trkpt lat="56.111991" lon="9.530987">
        <ele>102.832735</ele>
        <time>2024-08-25T12:04:25.000Z</time>
      </trkpt>
      <trkpt lat="56.111429" lon="9.530143">
        <ele>101.049949</ele>
        <time>2024-08-25T12:04:33.000Z</time>
      </trkpt>
      <trkpt lat="56.111213" lon="9.529742">
        <ele>100.294415</ele>
        <time>2024-08-25T12:04:36.000Z</time>
      </trkpt>
      <trkpt lat="56.110526" lon="9.528247">
        <ele>98.891969</ele>
        <time>2024-08-25T12:04:48.000Z</time>
      </trkpt>
      <trkpt lat="56.112781" lon="9.524615">
        <ele>97.735993</ele>
        <time>2024-08-25T12:05:22.000Z</time>
      </trkpt>
      <trkpt lat="56.113667" lon="9.523177">
        <ele>98.715861</ele>
        <time>2024-08-25T12:05:35.000Z</time>
      </trkpt>
      <trkpt lat="56.11383" lon="9.522801">
        <ele>98.918993</ele>
        <time>2024-08-25T12:05:38.000Z</time>
      </trkpt>
      <trkpt lat="56.113938" lon="9.522368">
        <ele>98.933822</ele>
        <time>2024-08-25T12:05:41.000Z</time>
      </trkpt>
      <trkpt lat="56.113981" lon="9.522038">
        <ele>98.944782</ele>
        <time>2024-08-25T12:05:43.000Z</time>
      </trkpt>
      <trkpt lat="56.113994" lon="9.521551">
        <ele>98.960187</ele>
        <time>2024-08-25T12:05:46.000Z</time>
      </trkpt>
      <trkpt lat="56.113736" lon="9.518309">
        <ele>98.332946</ele>
        <time>2024-08-25T12:06:06.000Z</time>
      </trkpt>
      <trkpt lat="56.113759" lon="9.517651">
        <ele>98.010845</ele>
        <time>2024-08-25T12:06:10.000Z</time>
      </trkpt>
      <trkpt lat="56.113932" lon="9.51548">
        <ele>96.772489</ele>
        <time>2024-08-25T12:06:24.000Z</time>
      </trkpt>
      <trkpt lat="56.113917" lon="9.515106">
        <ele>96.526436</ele>
        <time>2024-08-25T12:06:26.000Z</time>
      </trkpt>
      <trkpt lat="56.113709" lon="9.513501">
        <ele>95.468083</ele>
        <time>2024-08-25T12:06:36.000Z</time>
      </trkpt>
      <trkpt lat="56.113192" lon="9.511469">
        <ele>95.644219</ele>
        <time>2024-08-25T12:06:50.000Z</time>
      </trkpt>
      <trkpt lat="56.113011" lon="9.510476">
        <ele>95.806183</ele>
        <time>2024-08-25T12:06:56.000Z</time>
      </trkpt>
      <trkpt lat="56.112882" lon="9.509182">
        <ele>97.493696</ele>
        <time>2024-08-25T12:07:04.000Z</time>
      </trkpt>
      <trkpt lat="56.112863" lon="9.508867">
        <ele>97.946921</ele>
        <time>2024-08-25T12:07:06.000Z</time>
      </trkpt>
      <trkpt lat="56.112932" lon="9.508318">
        <ele>98.768415</ele>
        <time>2024-08-25T12:07:09.000Z</time>
      </trkpt>
      <trkpt lat="56.11307" lon="9.507966">
        <ele>99.371838</ele>
        <time>2024-08-25T12:07:12.000Z</time>
      </trkpt>
      <trkpt lat="56.113125" lon="9.507793">
        <ele>99.65782</ele>
        <time>2024-08-25T12:07:13.000Z</time>
      </trkpt>
      <trkpt lat="56.113207" lon="9.507583">
        <ele>100.026591</ele>
        <time>2024-08-25T12:07:15.000Z</time>
      </trkpt>
      <trkpt lat="56.113258" lon="9.50722">
        <ele>100.58143</ele>
        <time>2024-08-25T12:07:17.000Z</time>
      </trkpt>
      <trkpt lat="56.113293" lon="9.506494">
        <ele>101.849794</ele>
        <time>2024-08-25T12:07:22.000Z</time>
      </trkpt>
      <trkpt lat="56.113246" lon="9.505269">
        <ele>104.001104</ele>
        <time>2024-08-25T12:07:30.000Z</time>
      </trkpt>
      <trkpt lat="56.113159" lon="9.504332">
        <ele>105.6336</ele>
        <time>2024-08-25T12:07:36.000Z</time>
      </trkpt>
      <trkpt lat="56.112876" lon="9.50196">
        <ele>109.435039</ele>
        <time>2024-08-25T12:07:51.000Z</time>
      </trkpt>
      <trkpt lat="56.112838" lon="9.501659">
        <ele>109.917575</ele>
        <time>2024-08-25T12:07:53.000Z</time>
      </trkpt>
      <trkpt lat="56.112769" lon="9.501335">
        <ele>110.432974</ele>
        <time>2024-08-25T12:07:55.000Z</time>
      </trkpt>
      <trkpt lat="56.112652" lon="9.500938">
        <ele>111.133672</ele>
        <time>2024-08-25T12:07:58.000Z</time>
      </trkpt>
      <trkpt lat="56.111777" lon="9.502395">
        <ele>113.705801</ele>
        <time>2024-08-25T12:08:11.000Z</time>
      </trkpt>
      <trkpt lat="56.111286" lon="9.503197">
        <ele>114.984431</ele>
        <time>2024-08-25T12:08:18.000Z</time>
      </trkpt>
      <trkpt lat="56.110965" lon="9.503963">
        <ele>115.260627</ele>
        <time>2024-08-25T12:08:24.000Z</time>
      </trkpt>
      <trkpt lat="56.110703" lon="9.504888">
        <ele>115.560343</ele>
        <time>2024-08-25T12:08:30.000Z</time>
      </trkpt>
      <trkpt lat="56.110545" lon="9.505465">
        <ele>115.745835</ele>
        <time>2024-08-25T12:08:34.000Z</time>
      </trkpt>
      <trkpt lat="56.110421" lon="9.505938">
        <ele>115.81138</ele>
        <time>2024-08-25T12:08:37.000Z</time>
      </trkpt>
      <trkpt lat="56.110216" lon="9.50653">
        <ele>115.511019</ele>
        <time>2024-08-25T12:08:41.000Z</time>
      </trkpt>
      <trkpt lat="56.109576" lon="9.50808">
        <ele>114.672309</ele>
        <time>2024-08-25T12:08:53.000Z</time>
      </trkpt>
      <trkpt lat="56.108313" lon="9.511124">
        <ele>112.242989</ele>
        <time>2024-08-25T12:09:17.000Z</time>
      </trkpt>
      <trkpt lat="56.10796" lon="9.512007">
        <ele>110.770688</ele>
        <time>2024-08-25T12:09:24.000Z</time>
      </trkpt>
      <trkpt lat="56.107879" lon="9.51221">
        <ele>110.404295</ele>
        <time>2024-08-25T12:09:26.000Z</time>
      </trkpt>
      <trkpt lat="56.107415" lon="9.513342">
        <ele>108.474024</ele>
        <time>2024-08-25T12:09:35.000Z</time>
      </trkpt>
      <trkpt lat="56.107151" lon="9.513982">
        <ele>107.158727</ele>
        <time>2024-08-25T12:09:40.000Z</time>
      </trkpt>
      <trkpt lat="56.106047" lon="9.516239">
        <ele>101.987079</ele>
        <time>2024-08-25T12:09:59.000Z</time>
      </trkpt>
      <trkpt lat="56.105909" lon="9.516489">
        <ele>102.08575</ele>
        <time>2024-08-25T12:10:01.000Z</time>
      </trkpt>
      <trkpt lat="56.105361" lon="9.517627">
        <ele>102.51129</ele>
        <time>2024-08-25T12:10:10.000Z</time>
      </trkpt>
      <trkpt lat="56.104895" lon="9.518613">
        <ele>103.018057</ele>
        <time>2024-08-25T12:10:18.000Z</time>
      </trkpt>
      <trkpt lat="56.104216" lon="9.519979">
        <ele>106.149783</ele>
        <time>2024-08-25T12:10:29.000Z</time>
      </trkpt>
      <trkpt lat="56.103767" lon="9.520865">
        <ele>108.213563</ele>
        <time>2024-08-25T12:10:36.000Z</time>
      </trkpt>
      <trkpt lat="56.103469" lon="9.521528">
        <ele>109.00778</ele>
        <time>2024-08-25T12:10:41.000Z</time>
      </trkpt>
      <trkpt lat="56.102742" lon="9.52316">
        <ele>110.708578</ele>
        <time>2024-08-25T12:10:54.000Z</time>
      </trkpt>
      <trkpt lat="56.101971" lon="9.524909">
        <ele>111.344355</ele>
        <time>2024-08-25T12:11:08.000Z</time>
      </trkpt>
      <trkpt lat="56.101597" lon="9.525761">
        <ele>111.526329</ele>
        <time>2024-08-25T12:11:15.000Z</time>
      </trkpt>
      <trkpt lat="56.100828" lon="9.527526">
        <ele>111.383568</ele>
        <time>2024-08-25T12:11:29.000Z</time>
      </trkpt>
      <trkpt lat="56.100598" lon="9.528034">
        <ele>111.320056</ele>
        <time>2024-08-25T12:11:33.000Z</time>
      </trkpt>
      <trkpt lat="56.100522" lon="9.52821">
        <ele>111.298244</ele>
        <time>2024-08-25T12:11:34.000Z</time>
      </trkpt>
      <trkpt lat="56.100322" lon="9.528632">
        <ele>111.258227</ele>
        <time>2024-08-25T12:11:37.000Z</time>
      </trkpt>
      <trkpt lat="56.100007" lon="9.529394">
        <ele>111.258818</ele>
        <time>2024-08-25T12:11:43.000Z</time>
      </trkpt>
      <trkpt lat="56.098959" lon="9.53176">
        <ele>110.9779</ele>
        <time>2024-08-25T12:12:02.000Z</time>
      </trkpt>
      <trkpt lat="56.098601" lon="9.532596">
        <ele>110.63661</ele>
        <time>2024-08-25T12:12:09.000Z</time>
      </trkpt>
      <trkpt lat="56.09807" lon="9.533538">
        <ele>110.193784</ele>
        <time>2024-08-25T12:12:17.000Z</time>
      </trkpt>
      <trkpt lat="56.097466" lon="9.534283">
        <ele>109.13497</ele>
        <time>2024-08-25T12:12:25.000Z</time>
      </trkpt>
      <trkpt lat="56.097404" lon="9.534359">
        <ele>109.022105</ele>
        <time>2024-08-25T12:12:26.000Z</time>
      </trkpt>
      <trkpt lat="56.096243" lon="9.535752">
        <ele>107.431634</ele>
        <time>2024-08-25T12:12:42.000Z</time>
      </trkpt>
      <trkpt lat="56.096228" lon="9.535688">
        <ele>107.410713</ele>
        <time>2024-08-25T12:12:42.000Z</time>
      </trkpt>
      <trkpt lat="56.095903" lon="9.534926">
        <ele>107.122984</ele>
        <time>2024-08-25T12:12:48.000Z</time>
      </trkpt>
      <trkpt lat="56.094008" lon="9.530177">
        <ele>106.94089</ele>
        <time>2024-08-25T12:13:24.000Z</time>
      </trkpt>
      <trkpt lat="56.092543" lon="9.526545">
        <ele>108.312231</ele>
        <time>2024-08-25T12:13:52.000Z</time>
      </trkpt>
      <trkpt lat="56.092506" lon="9.526438">
        <ele>108.368108</ele>
        <time>2024-08-25T12:13:53.000Z</time>
      </trkpt>
      <trkpt lat="56.092264" lon="9.525837">
        <ele>108.704514</ele>
        <time>2024-08-25T12:13:58.000Z</time>
      </trkpt>
      <trkpt lat="56.092054" lon="9.525384">
        <ele>109.192646</ele>
        <time>2024-08-25T12:14:02.000Z</time>
      </trkpt>
      <trkpt lat="56.091819" lon="9.525033">
        <ele>109.647433</ele>
        <time>2024-08-25T12:14:05.000Z</time>
      </trkpt>
      <trkpt lat="56.091332" lon="9.52448">
        <ele>110.485246</ele>
        <time>2024-08-25T12:14:11.000Z</time>
      </trkpt>
      <trkpt lat="56.090524" lon="9.523852">
        <ele>111.665796</ele>
        <time>2024-08-25T12:14:21.000Z</time>
      </trkpt>
      <trkpt lat="56.090449" lon="9.523808">
        <ele>111.761553</ele>
        <time>2024-08-25T12:14:22.000Z</time>
      </trkpt>
      <trkpt lat="56.090178" lon="9.523527">
        <ele>112.125458</ele>
        <time>2024-08-25T12:14:25.000Z</time>
      </trkpt>
      <trkpt lat="56.090131" lon="9.523477">
        <ele>112.197776</ele>
        <time>2024-08-25T12:14:26.000Z</time>
      </trkpt>
      <trkpt lat="56.089976" lon="9.523288">
        <ele>112.399849</ele>
        <time>2024-08-25T12:14:28.000Z</time>
      </trkpt>
      <trkpt lat="56.089728" lon="9.52289">
        <ele>112.784933</ele>
        <time>2024-08-25T12:14:32.000Z</time>
      </trkpt>
      <trkpt lat="56.089534" lon="9.522525">
        <ele>113.116254</ele>
        <time>2024-08-25T12:14:35.000Z</time>
      </trkpt>
      <trkpt lat="56.089366" lon="9.52216">
        <ele>113.385975</ele>
        <time>2024-08-25T12:14:38.000Z</time>
      </trkpt>
      <trkpt lat="56.089203" lon="9.521671">
        <ele>113.646547</ele>
        <time>2024-08-25T12:14:42.000Z</time>
      </trkpt>
      <trkpt lat="56.088981" lon="9.520573">
        <ele>114.189378</ele>
        <time>2024-08-25T12:14:49.000Z</time>
      </trkpt>
      <trkpt lat="56.088921" lon="9.519964">
        <ele>114.475582</ele>
        <time>2024-08-25T12:14:53.000Z</time>
      </trkpt>
      <trkpt lat="56.088911" lon="9.518909">
        <ele>115.265166</ele>
        <time>2024-08-25T12:15:00.000Z</time>
      </trkpt>
      <trkpt lat="56.088969" lon="9.518339">
        <ele>116.16294</ele>
        <time>2024-08-25T12:15:04.000Z</time>
      </trkpt>
      <trkpt lat="56.089051" lon="9.517796">
        <ele>117.024963</ele>
        <time>2024-08-25T12:15:07.000Z</time>
      </trkpt>
      <trkpt lat="56.089151" lon="9.517421">
        <ele>117.634086</ele>
        <time>2024-08-25T12:15:10.000Z</time>
      </trkpt>
      <trkpt lat="56.08928" lon="9.516991">
        <ele>118.384306</ele>
        <time>2024-08-25T12:15:13.000Z</time>
      </trkpt>
      <trkpt lat="56.090315" lon="9.514156">
        <ele>123.953244</ele>
        <time>2024-08-25T12:15:34.000Z</time>
      </trkpt>
      <trkpt lat="56.090886" lon="9.512583">
        <ele>126.394071</ele>
        <time>2024-08-25T12:15:46.000Z</time>
      </trkpt>
      <trkpt lat="56.091391" lon="9.511154">
        <ele>128.17912</ele>
        <time>2024-08-25T12:15:56.000Z</time>
      </trkpt>
      <trkpt lat="56.091916" lon="9.509715">
        <ele>129.808189</ele>
        <time>2024-08-25T12:16:07.000Z</time>
      </trkpt>
      <trkpt lat="56.092097" lon="9.509203">
        <ele>130.346499</ele>
        <time>2024-08-25T12:16:11.000Z</time>
      </trkpt>
      <trkpt lat="56.09219" lon="9.508785">
        <ele>130.748291</ele>
        <time>2024-08-25T12:16:14.000Z</time>
      </trkpt>
      <trkpt lat="56.092237" lon="9.508536">
        <ele>131.004375</ele>
        <time>2024-08-25T12:16:16.000Z</time>
      </trkpt>
      <trkpt lat="56.092331" lon="9.507403">
        <ele>131.912493</ele>
        <time>2024-08-25T12:16:23.000Z</time>
      </trkpt>
      <trkpt lat="56.092292" lon="9.505572">
        <ele>133.205736</ele>
        <time>2024-08-25T12:16:34.000Z</time>
      </trkpt>
      <trkpt lat="56.092311" lon="9.505052">
        <ele>133.559446</ele>
        <time>2024-08-25T12:16:37.000Z</time>
      </trkpt>
      <trkpt lat="56.092509" lon="9.503133">
        <ele>134.335959</ele>
        <time>2024-08-25T12:16:49.000Z</time>
      </trkpt>
      <trkpt lat="56.092535" lon="9.502769">
        <ele>134.460835</ele>
        <time>2024-08-25T12:16:51.000Z</time>
      </trkpt>
      <trkpt lat="56.092543" lon="9.502453">
        <ele>134.5693</ele>
        <time>2024-08-25T12:16:53.000Z</time>
      </trkpt>
      <trkpt lat="56.092488" lon="9.500481">
        <ele>135.335233</ele>
        <time>2024-08-25T12:17:05.000Z</time>
      </trkpt>
      <trkpt lat="56.092471" lon="9.500103">
        <ele>135.505082</ele>
        <time>2024-08-25T12:17:07.000Z</time>
      </trkpt>
      <trkpt lat="56.092407" lon="9.49953">
        <ele>135.753951</ele>
        <time>2024-08-25T12:17:11.000Z</time>
      </trkpt>
      <trkpt lat="56.092098" lon="9.497137">
        <ele>135.113542</ele>
        <time>2024-08-25T12:17:26.000Z</time>
      </trkpt>
      <trkpt lat="56.091924" lon="9.49584">
        <ele>133.939749</ele>
        <time>2024-08-25T12:17:34.000Z</time>
      </trkpt>
      <trkpt lat="56.091495" lon="9.492651">
        <ele>130.523576</ele>
        <time>2024-08-25T12:17:54.000Z</time>
      </trkpt>
      <trkpt lat="56.091381" lon="9.491645">
        <ele>129.680695</ele>
        <time>2024-08-25T12:18:00.000Z</time>
      </trkpt>
      <trkpt lat="56.091313" lon="9.489314">
        <ele>128.396018</ele>
        <time>2024-08-25T12:18:14.000Z</time>
      </trkpt>
      <trkpt lat="56.091287" lon="9.488936">
        <ele>128.177658</ele>
        <time>2024-08-25T12:18:16.000Z</time>
      </trkpt>
      <trkpt lat="56.090858" lon="9.486352">
        <ele>125.215326</ele>
        <time>2024-08-25T12:18:33.000Z</time>
      </trkpt>
      <trkpt lat="56.090615" lon="9.484577">
        <ele>123.225054</ele>
        <time>2024-08-25T12:18:44.000Z</time>
      </trkpt>
      <trkpt lat="56.090537" lon="9.483892">
        <ele>122.477875</ele>
        <time>2024-08-25T12:18:48.000Z</time>
      </trkpt>
      <trkpt lat="56.090436" lon="9.483148">
        <ele>121.645764</ele>
        <time>2024-08-25T12:18:53.000Z</time>
      </trkpt>
      <trkpt lat="56.090416" lon="9.482741">
        <ele>121.208308</ele>
        <time>2024-08-25T12:18:56.000Z</time>
      </trkpt>
      <trkpt lat="56.090403" lon="9.48234">
        <ele>120.998503</ele>
        <time>2024-08-25T12:18:58.000Z</time>
      </trkpt>
      <trkpt lat="56.090413" lon="9.481721">
        <ele>120.777352</ele>
        <time>2024-08-25T12:19:02.000Z</time>
      </trkpt>
      <trkpt lat="56.09047" lon="9.481281">
        <ele>120.615514</ele>
        <time>2024-08-25T12:19:05.000Z</time>
      </trkpt>
      <trkpt lat="56.090516" lon="9.48089">
        <ele>120.473842</ele>
        <time>2024-08-25T12:19:07.000Z</time>
      </trkpt>
      <trkpt lat="56.090669" lon="9.479967">
        <ele>120.129173</ele>
        <time>2024-08-25T12:19:13.000Z</time>
      </trkpt>
      <trkpt lat="56.090886" lon="9.47864">
        <ele>119.542038</ele>
        <time>2024-08-25T12:19:22.000Z</time>
      </trkpt>
      <trkpt lat="56.090963" lon="9.477326">
        <ele>118.939162</ele>
        <time>2024-08-25T12:19:30.000Z</time>
      </trkpt>
      <trkpt lat="56.090945" lon="9.475768">
        <ele>118.150703</ele>
        <time>2024-08-25T12:19:40.000Z</time>
      </trkpt>
      <trkpt lat="56.090997" lon="9.474787">
        <ele>117.559022</ele>
        <time>2024-08-25T12:19:46.000Z</time>
      </trkpt>
      <trkpt lat="56.091035" lon="9.474372">
        <ele>117.303164</ele>
        <time>2024-08-25T12:19:49.000Z</time>
      </trkpt>
      <trkpt lat="56.091049" lon="9.474144">
        <ele>117.168029</ele>
        <time>2024-08-25T12:19:50.000Z</time>
      </trkpt>
      <trkpt lat="56.091085" lon="9.473576">
        <ele>116.821778</ele>
        <time>2024-08-25T12:19:54.000Z</time>
      </trkpt>
      <trkpt lat="56.091148" lon="9.472586">
        <ele>116.288623</ele>
        <time>2024-08-25T12:20:00.000Z</time>
      </trkpt>
      <trkpt lat="56.091156" lon="9.472456">
        <ele>116.223841</ele>
        <time>2024-08-25T12:20:01.000Z</time>
      </trkpt>
      <trkpt lat="56.091223" lon="9.472037">
        <ele>116.011097</ele>
        <time>2024-08-25T12:20:04.000Z</time>
      </trkpt>
      <trkpt lat="56.091526" lon="9.470865">
        <ele>115.383822</ele>
        <time>2024-08-25T12:20:12.000Z</time>
      </trkpt>
      <trkpt lat="56.091605" lon="9.4705">
        <ele>115.190216</ele>
        <time>2024-08-25T12:20:14.000Z</time>
      </trkpt>
      <trkpt lat="56.09079" lon="9.470694">
        <ele>114.530865</ele>
        <time>2024-08-25T12:20:23.000Z</time>
      </trkpt>
      <trkpt lat="56.090471" lon="9.470756">
        <ele>114.281294</ele>
        <time>2024-08-25T12:20:27.000Z</time>
      </trkpt>
      <trkpt lat="56.090269" lon="9.470869">
        <ele>114.125362</ele>
        <time>2024-08-25T12:20:29.000Z</time>
      </trkpt>
      <trkpt lat="56.088487" lon="9.472463">
        <ele>113.576361</ele>
        <time>2024-08-25T12:20:51.000Z</time>
      </trkpt>
      <trkpt lat="56.088208" lon="9.472589">
        <ele>113.570379</ele>
        <time>2024-08-25T12:20:54.000Z</time>
      </trkpt>
      <trkpt lat="56.087918" lon="9.472575">
        <ele>113.581384</ele>
        <time>2024-08-25T12:20:57.000Z</time>
      </trkpt>
      <trkpt lat="56.086958" lon="9.472121">
        <ele>113.745821</ele>
        <time>2024-08-25T12:21:08.000Z</time>
      </trkpt>
      <trkpt lat="56.086611" lon="9.471963">
        <ele>113.802753</ele>
        <time>2024-08-25T12:21:12.000Z</time>
      </trkpt>
      <trkpt lat="56.086185" lon="9.471757">
        <ele>113.783365</ele>
        <time>2024-08-25T12:21:17.000Z</time>
      </trkpt>
      <trkpt lat="56.085718" lon="9.471527">
        <ele>113.311551</ele>
        <time>2024-08-25T12:21:22.000Z</time>
      </trkpt>
      <trkpt lat="56.084642" lon="9.471027">
        <ele>112.207363</ele>
        <time>2024-08-25T12:21:34.000Z</time>
      </trkpt>
      <trkpt lat="56.084399" lon="9.470976">
        <ele>112.107703</ele>
        <time>2024-08-25T12:21:37.000Z</time>
      </trkpt>
      <trkpt lat="56.083173" lon="9.471087">
        <ele>112.229244</ele>
        <time>2024-08-25T12:21:51.000Z</time>
      </trkpt>
      <trkpt lat="56.082646" lon="9.471131">
        <ele>112.37857</ele>
        <time>2024-08-25T12:21:57.000Z</time>
      </trkpt>
      <trkpt lat="56.082635" lon="9.471135">
        <ele>112.378577</ele>
        <time>2024-08-25T12:21:57.000Z</time>
      </trkpt>
      <trkpt lat="56.080436" lon="9.471315">
        <ele>114.773156</ele>
        <time>2024-08-25T12:22:21.000Z</time>
      </trkpt>
      <trkpt lat="56.080175" lon="9.471324">
        <ele>114.912611</ele>
        <time>2024-08-25T12:22:24.000Z</time>
      </trkpt>
      <trkpt lat="56.077447" lon="9.471022">
        <ele>115.110151</ele>
        <time>2024-08-25T12:22:54.000Z</time>
      </trkpt>
      <trkpt lat="56.074848" lon="9.47079">
        <ele>113.435252</ele>
        <time>2024-08-25T12:23:23.000Z</time>
      </trkpt>
      <trkpt lat="56.073111" lon="9.47068">
        <ele>115.922892</ele>
        <time>2024-08-25T12:23:42.000Z</time>
      </trkpt>
      <trkpt lat="56.072455" lon="9.470549">
        <ele>117.480678</ele>
        <time>2024-08-25T12:23:49.000Z</time>
      </trkpt>
      <trkpt lat="56.071738" lon="9.470375">
        <ele>118.7851</ele>
        <time>2024-08-25T12:23:57.000Z</time>
      </trkpt>
      <trkpt lat="56.06991" lon="9.469829">
        <ele>119.616971</ele>
        <time>2024-08-25T12:24:18.000Z</time>
      </trkpt>
      <trkpt lat="56.068913" lon="9.469524">
        <ele>119.356646</ele>
        <time>2024-08-25T12:24:29.000Z</time>
      </trkpt>
      <trkpt lat="56.067544" lon="9.469393">
        <ele>117.688896</ele>
        <time>2024-08-25T12:24:44.000Z</time>
      </trkpt>
      <trkpt lat="56.066248" lon="9.469316">
        <ele>113.935016</ele>
        <time>2024-08-25T12:24:58.000Z</time>
      </trkpt>
      <trkpt lat="56.065399" lon="9.469249">
        <ele>109.197149</ele>
        <time>2024-08-25T12:25:07.000Z</time>
      </trkpt>
      <trkpt lat="56.065253" lon="9.469195">
        <ele>108.326576</ele>
        <time>2024-08-25T12:25:09.000Z</time>
      </trkpt>
      <trkpt lat="56.064974" lon="9.468912">
        <ele>106.508217</ele>
        <time>2024-08-25T12:25:13.000Z</time>
      </trkpt>
      <trkpt lat="56.064447" lon="9.468845">
        <ele>103.260203</ele>
        <time>2024-08-25T12:25:19.000Z</time>
      </trkpt>
      <trkpt lat="56.064327" lon="9.468734">
        <ele>102.406549</ele>
        <time>2024-08-25T12:25:21.000Z</time>
      </trkpt>
      <trkpt lat="56.064025" lon="9.468349">
        <ele>100.033429</ele>
        <time>2024-08-25T12:25:25.000Z</time>
      </trkpt>
      <trkpt lat="56.06382" lon="9.468184">
        <ele>98.597783</ele>
        <time>2024-08-25T12:25:28.000Z</time>
      </trkpt>
      <trkpt lat="56.063633" lon="9.468089">
        <ele>97.405099</ele>
        <time>2024-08-25T12:25:30.000Z</time>
      </trkpt>
      <trkpt lat="56.062911" lon="9.467761">
        <ele>92.810334</ele>
        <time>2024-08-25T12:25:38.000Z</time>
      </trkpt>
      <trkpt lat="56.062422" lon="9.467557">
        <ele>90.096476</ele>
        <time>2024-08-25T12:25:44.000Z</time>
      </trkpt>
      <trkpt lat="56.061943" lon="9.467288">
        <ele>87.299459</ele>
        <time>2024-08-25T12:25:50.000Z</time>
      </trkpt>
      <trkpt lat="56.060772" lon="9.466771">
        <ele>79.640955</ele>
        <time>2024-08-25T12:26:03.000Z</time>
      </trkpt>
      <trkpt lat="56.059396" lon="9.465781">
        <ele>69.492355</ele>
        <time>2024-08-25T12:26:20.000Z</time>
      </trkpt>
      <trkpt lat="56.058883" lon="9.465381">
        <ele>65.778254</ele>
        <time>2024-08-25T12:26:26.000Z</time>
      </trkpt>
      <trkpt lat="56.058465" lon="9.464979">
        <ele>62.57217</ele>
        <time>2024-08-25T12:26:31.000Z</time>
      </trkpt>
      <trkpt lat="56.058171" lon="9.464554">
        <ele>60.12031</ele>
        <time>2024-08-25T12:26:35.000Z</time>
      </trkpt>
      <trkpt lat="56.05804" lon="9.464155">
        <ele>59.100427</ele>
        <time>2024-08-25T12:26:38.000Z</time>
      </trkpt>
      <trkpt lat="56.057956" lon="9.463707">
        <ele>58.151881</ele>
        <time>2024-08-25T12:26:41.000Z</time>
      </trkpt>
      <trkpt lat="56.057951" lon="9.461467">
        <ele>53.677405</ele>
        <time>2024-08-25T12:26:55.000Z</time>
      </trkpt>
      <trkpt lat="56.057862" lon="9.460952">
        <ele>53.372389</ele>
        <time>2024-08-25T12:26:58.000Z</time>
      </trkpt>
      <trkpt lat="56.057758" lon="9.460661">
        <ele>53.254215</ele>
        <time>2024-08-25T12:27:00.000Z</time>
      </trkpt>
      <trkpt lat="56.057523" lon="9.460293">
        <ele>53.051415</ele>
        <time>2024-08-25T12:27:03.000Z</time>
      </trkpt>
      <trkpt lat="56.056409" lon="9.458777">
        <ele>52.778259</ele>
        <time>2024-08-25T12:27:19.000Z</time>
      </trkpt>
      <trkpt lat="56.056003" lon="9.458238">
        <ele>53.303663</ele>
        <time>2024-08-25T12:27:25.000Z</time>
      </trkpt>
      <trkpt lat="56.055347" lon="9.457332">
        <ele>54.190515</ele>
        <time>2024-08-25T12:27:34.000Z</time>
      </trkpt>
      <trkpt lat="56.055172" lon="9.457205">
        <ele>54.522833</ele>
        <time>2024-08-25T12:27:36.000Z</time>
      </trkpt>
      <trkpt lat="56.054991" lon="9.457185">
        <ele>55.023035</ele>
        <time>2024-08-25T12:27:38.000Z</time>
      </trkpt>
      <trkpt lat="56.054024" lon="9.457414">
        <ele>57.732811</ele>
        <time>2024-08-25T12:27:49.000Z</time>
      </trkpt>
      <trkpt lat="56.053809" lon="9.457398">
        <ele>58.309157</ele>
        <time>2024-08-25T12:27:51.000Z</time>
      </trkpt>
      <trkpt lat="56.053647" lon="9.457341">
        <ele>58.756806</ele>
        <time>2024-08-25T12:27:53.000Z</time>
      </trkpt>
      <trkpt lat="56.053224" lon="9.457147">
        <ele>60.369109</ele>
        <time>2024-08-25T12:27:58.000Z</time>
      </trkpt>
      <trkpt lat="56.052145" lon="9.456588">
        <ele>65.266378</ele>
        <time>2024-08-25T12:28:10.000Z</time>
      </trkpt>
      <trkpt lat="56.051748" lon="9.45636">
        <ele>67.131886</ele>
        <time>2024-08-25T12:28:15.000Z</time>
      </trkpt>
      <trkpt lat="56.050307" lon="9.455139">
        <ele>74.984359</ele>
        <time>2024-08-25T12:28:33.000Z</time>
      </trkpt>
      <trkpt lat="56.049874" lon="9.454845">
        <ele>77.370534</ele>
        <time>2024-08-25T12:28:38.000Z</time>
      </trkpt>
      <trkpt lat="56.049655" lon="9.454782">
        <ele>78.425175</ele>
        <time>2024-08-25T12:28:40.000Z</time>
      </trkpt>
      <trkpt lat="56.049105" lon="9.454756">
        <ele>81.132838</ele>
        <time>2024-08-25T12:28:46.000Z</time>
      </trkpt>
      <trkpt lat="56.048356" lon="9.454779">
        <ele>84.885971</ele>
        <time>2024-08-25T12:28:54.000Z</time>
      </trkpt>
      <trkpt lat="56.048127" lon="9.454834">
        <ele>85.408976</ele>
        <time>2024-08-25T12:28:57.000Z</time>
      </trkpt>
      <trkpt lat="56.04797" lon="9.454969">
        <ele>85.741181</ele>
        <time>2024-08-25T12:28:59.000Z</time>
      </trkpt>
      <trkpt lat="56.047533" lon="9.455539">
        <ele>86.886263</ele>
        <time>2024-08-25T12:29:05.000Z</time>
      </trkpt>
      <trkpt lat="56.046756" lon="9.456206">
        <ele>88.730999</ele>
        <time>2024-08-25T12:29:15.000Z</time>
      </trkpt>
      <trkpt lat="56.046323" lon="9.456391">
        <ele>89.259294</ele>
        <time>2024-08-25T12:29:20.000Z</time>
      </trkpt>
      <trkpt lat="56.045419" lon="9.456588">
        <ele>90.345508</ele>
        <time>2024-08-25T12:29:30.000Z</time>
      </trkpt>
      <trkpt lat="56.044704" lon="9.456614">
        <ele>91.984399</ele>
        <time>2024-08-25T12:29:38.000Z</time>
      </trkpt>
      <trkpt lat="56.044475" lon="9.456599">
        <ele>92.936666</ele>
        <time>2024-08-25T12:29:41.000Z</time>
      </trkpt>
      <trkpt lat="56.043572" lon="9.456635">
        <ele>96.609816</ele>
        <time>2024-08-25T12:29:51.000Z</time>
      </trkpt>
      <trkpt lat="56.043373" lon="9.456498">
        <ele>97.496124</ele>
        <time>2024-08-25T12:29:53.000Z</time>
      </trkpt>
      <trkpt lat="56.043263" lon="9.45623">
        <ele>98.279245</ele>
        <time>2024-08-25T12:29:55.000Z</time>
      </trkpt>
      <trkpt lat="56.043195" lon="9.455241">
        <ele>100.949822</ele>
        <time>2024-08-25T12:30:01.000Z</time>
      </trkpt>
      <trkpt lat="56.043044" lon="9.454534">
        <ele>102.970486</ele>
        <time>2024-08-25T12:30:06.000Z</time>
      </trkpt>
      <trkpt lat="56.042694" lon="9.453878">
        <ele>105.39165</ele>
        <time>2024-08-25T12:30:12.000Z</time>
      </trkpt>
      <trkpt lat="56.042352" lon="9.452976">
        <ele>107.803927</ele>
        <time>2024-08-25T12:30:19.000Z</time>
      </trkpt>
      <trkpt lat="56.042142" lon="9.452573">
        <ele>108.740763</ele>
        <time>2024-08-25T12:30:22.000Z</time>
      </trkpt>
      <trkpt lat="56.041982" lon="9.45246">
        <ele>109.244932</ele>
        <time>2024-08-25T12:30:24.000Z</time>
      </trkpt>
      <trkpt lat="56.041653" lon="9.452311">
        <ele>110.300322</ele>
        <time>2024-08-25T12:30:28.000Z</time>
      </trkpt>
      <trkpt lat="56.041508" lon="9.452266">
        <ele>110.726267</ele>
        <time>2024-08-25T12:30:30.000Z</time>
      </trkpt>
      <trkpt lat="56.041468" lon="9.452248">
        <ele>110.853655</ele>
        <time>2024-08-25T12:30:30.000Z</time>
      </trkpt>
      <trkpt lat="56.04106" lon="9.451778">
        <ele>112.330607</ele>
        <time>2024-08-25T12:30:35.000Z</time>
      </trkpt>
      <trkpt lat="56.040799" lon="9.451432">
        <ele>112.178228</ele>
        <time>2024-08-25T12:30:39.000Z</time>
      </trkpt>
      <trkpt lat="56.040805" lon="9.451424">
        <ele>112.178215</ele>
        <time>2024-08-25T12:30:39.000Z</time>
      </trkpt>
      <trkpt lat="56.04082" lon="9.451311">
        <ele>112.126683</ele>
        <time>2024-08-25T12:30:40.000Z</time>
      </trkpt>
      <trkpt lat="56.040865" lon="9.451079">
        <ele>112.034824</ele>
        <time>2024-08-25T12:30:42.000Z</time>
      </trkpt>
      <trkpt lat="56.040942" lon="9.450712">
        <ele>111.873978</ele>
        <time>2024-08-25T12:30:44.000Z</time>
      </trkpt>
      <trkpt lat="56.041058" lon="9.450351">
        <ele>111.712035</ele>
        <time>2024-08-25T12:30:47.000Z</time>
      </trkpt>
      <trkpt lat="56.041067" lon="9.450273">
        <ele>111.680821</ele>
        <time>2024-08-25T12:30:47.000Z</time>
      </trkpt>
      <trkpt lat="56.041161" lon="9.449987">
        <ele>111.551845</ele>
        <time>2024-08-25T12:30:49.000Z</time>
      </trkpt>
      <trkpt lat="56.041217" lon="9.449768">
        <ele>111.456235</ele>
        <time>2024-08-25T12:30:50.000Z</time>
      </trkpt>
      <trkpt lat="56.041245" lon="9.449682">
        <ele>111.41796</ele>
        <time>2024-08-25T12:30:51.000Z</time>
      </trkpt>
      <trkpt lat="56.041323" lon="9.448962">
        <ele>111.128372</ele>
        <time>2024-08-25T12:30:56.000Z</time>
      </trkpt>
      <trkpt lat="56.041339" lon="9.448406">
        <ele>109.901926</ele>
        <time>2024-08-25T12:30:59.000Z</time>
      </trkpt>
      <trkpt lat="56.04133" lon="9.447906">
        <ele>108.84732</ele>
        <time>2024-08-25T12:31:02.000Z</time>
      </trkpt>
      <trkpt lat="56.041256" lon="9.447096">
        <ele>107.043831</ele>
        <time>2024-08-25T12:31:07.000Z</time>
      </trkpt>
      <trkpt lat="56.041225" lon="9.44685">
        <ele>106.490963</ele>
        <time>2024-08-25T12:31:09.000Z</time>
      </trkpt>
      <trkpt lat="56.04166" lon="9.446661">
        <ele>104.793657</ele>
        <time>2024-08-25T12:31:14.000Z</time>
      </trkpt>
      <trkpt lat="56.042846" lon="9.445929">
        <ele>98.560394</ele>
        <time>2024-08-25T12:31:28.000Z</time>
      </trkpt>
      <trkpt lat="56.043569" lon="9.445289">
        <ele>94.736746</ele>
        <time>2024-08-25T12:31:37.000Z</time>
      </trkpt>
      <trkpt lat="56.043716" lon="9.445141">
        <ele>94.285267</ele>
        <time>2024-08-25T12:31:39.000Z</time>
      </trkpt>
      <trkpt lat="56.043939" lon="9.444639">
        <ele>93.301398</ele>
        <time>2024-08-25T12:31:43.000Z</time>
      </trkpt>
      <trkpt lat="56.044228" lon="9.443086">
        <ele>90.818596</ele>
        <time>2024-08-25T12:31:53.000Z</time>
      </trkpt>
      <trkpt lat="56.044554" lon="9.441712">
        <ele>90.548607</ele>
        <time>2024-08-25T12:32:02.000Z</time>
      </trkpt>
      <trkpt lat="56.044667" lon="9.441338">
        <ele>90.730775</ele>
        <time>2024-08-25T12:32:05.000Z</time>
      </trkpt>
      <trkpt lat="56.045048" lon="9.440593">
        <ele>91.158705</ele>
        <time>2024-08-25T12:32:11.000Z</time>
      </trkpt>
      <trkpt lat="56.045201" lon="9.440167">
        <ele>91.379575</ele>
        <time>2024-08-25T12:32:14.000Z</time>
      </trkpt>
      <trkpt lat="56.045333" lon="9.439135">
        <ele>92.252318</ele>
        <time>2024-08-25T12:32:21.000Z</time>
      </trkpt>
      <trkpt lat="56.045478" lon="9.438679">
        <ele>92.738576</ele>
        <time>2024-08-25T12:32:24.000Z</time>
      </trkpt>
      <trkpt lat="56.045808" lon="9.438114">
        <ele>93.509054</ele>
        <time>2024-08-25T12:32:29.000Z</time>
      </trkpt>
      <trkpt lat="56.045981" lon="9.437642">
        <ele>94.034573</ele>
        <time>2024-08-25T12:32:33.000Z</time>
      </trkpt>
      <trkpt lat="56.046345" lon="9.43585">
        <ele>95.196548</ele>
        <time>2024-08-25T12:32:45.000Z</time>
      </trkpt>
      <trkpt lat="56.046458" lon="9.435386">
        <ele>95.444676</ele>
        <time>2024-08-25T12:32:48.000Z</time>
      </trkpt>
      <trkpt lat="56.046614" lon="9.435092">
        <ele>95.637932</ele>
        <time>2024-08-25T12:32:51.000Z</time>
      </trkpt>
      <trkpt lat="56.046801" lon="9.434845">
        <ele>95.847294</ele>
        <time>2024-08-25T12:32:54.000Z</time>
      </trkpt>
      <trkpt lat="56.047544" lon="9.434369">
        <ele>96.266123</ele>
        <time>2024-08-25T12:33:03.000Z</time>
      </trkpt>
      <trkpt lat="56.048086" lon="9.433899">
        <ele>96.471022</ele>
        <time>2024-08-25T12:33:10.000Z</time>
      </trkpt>
      <trkpt lat="56.050014" lon="9.432733">
        <ele>97.228681</ele>
        <time>2024-08-25T12:33:33.000Z</time>
      </trkpt>
      <trkpt lat="56.051611" lon="9.430609">
        <ele>97.374795</ele>
        <time>2024-08-25T12:33:55.000Z</time>
      </trkpt>
      <trkpt lat="56.052277" lon="9.43008">
        <ele>96.629886</ele>
        <time>2024-08-25T12:34:03.000Z</time>
      </trkpt>
      <trkpt lat="56.052549" lon="9.429719">
        <ele>96.061939</ele>
        <time>2024-08-25T12:34:07.000Z</time>
      </trkpt>
      <trkpt lat="56.052599" lon="9.429661">
        <ele>95.966741</ele>
        <time>2024-08-25T12:34:08.000Z</time>
      </trkpt>
      <trkpt lat="56.052769" lon="9.429397">
        <ele>95.618817</ele>
        <time>2024-08-25T12:34:11.000Z</time>
      </trkpt>
      <trkpt lat="56.055098" lon="9.425536">
        <ele>90.508355</ele>
        <time>2024-08-25T12:34:46.000Z</time>
      </trkpt>
      <trkpt lat="56.057885" lon="9.420847">
        <ele>89.848021</ele>
        <time>2024-08-25T12:35:29.000Z</time>
      </trkpt>
      <trkpt lat="56.060147" lon="9.417053">
        <ele>89.769808</ele>
        <time>2024-08-25T12:36:03.000Z</time>
      </trkpt>
      <trkpt lat="56.060156" lon="9.417042">
        <ele>89.769801</ele>
        <time>2024-08-25T12:36:03.000Z</time>
      </trkpt>
      <trkpt lat="56.060151" lon="9.417052">
        <ele>89.7698</ele>
        <time>2024-08-25T12:36:03.000Z</time>
      </trkpt>
      <trkpt lat="56.06232" lon="9.413383">
        <ele>90.850375</ele>
        <time>2024-08-25T12:36:36.000Z</time>
      </trkpt>
      <trkpt lat="56.063587" lon="9.411272">
        <ele>92.70247</ele>
        <time>2024-08-25T12:36:55.000Z</time>
      </trkpt>
      <trkpt lat="56.065418" lon="9.408158">
        <ele>95.36814</ele>
        <time>2024-08-25T12:37:23.000Z</time>
      </trkpt>
      <trkpt lat="56.066136" lon="9.4069">
        <ele>95.160596</ele>
        <time>2024-08-25T12:37:34.000Z</time>
      </trkpt>
      <trkpt lat="56.066322" lon="9.406449">
        <ele>95.096363</ele>
        <time>2024-08-25T12:37:37.000Z</time>
      </trkpt>
      <trkpt lat="56.067275" lon="9.403179">
        <ele>92.326038</ele>
        <time>2024-08-25T12:38:00.000Z</time>
      </trkpt>
      <trkpt lat="56.068108" lon="9.400323">
        <ele>92.671845</ele>
        <time>2024-08-25T12:38:20.000Z</time>
      </trkpt>
      <trkpt lat="56.070204" lon="9.393149">
        <ele>95.580287</ele>
        <time>2024-08-25T12:39:10.000Z</time>
      </trkpt>
      <trkpt lat="56.071437" lon="9.388892">
        <ele>94.909677</ele>
        <time>2024-08-25T12:39:40.000Z</time>
      </trkpt>
      <trkpt lat="56.071567" lon="9.388464">
        <ele>94.788775</ele>
        <time>2024-08-25T12:39:43.000Z</time>
      </trkpt>
      <trkpt lat="56.071659" lon="9.387908">
        <ele>94.64086</ele>
        <time>2024-08-25T12:39:47.000Z</time>
      </trkpt>
      <trkpt lat="56.071871" lon="9.382718">
        <ele>93.582703</ele>
        <time>2024-08-25T12:40:19.000Z</time>
      </trkpt>
      <trkpt lat="56.071901" lon="9.38265">
        <ele>93.633118</ele>
        <time>2024-08-25T12:40:20.000Z</time>
      </trkpt>
      <trkpt lat="56.072004" lon="9.383285">
        <ele>94.013846</ele>
        <time>2024-08-25T12:40:24.000Z</time>
      </trkpt>
      <trkpt lat="56.072503" lon="9.386315">
        <ele>95.729607</ele>
        <time>2024-08-25T12:40:44.000Z</time>
      </trkpt>
      <trkpt lat="56.072828" lon="9.388279">
        <ele>96.720962</ele>
        <time>2024-08-25T12:40:57.000Z</time>
      </trkpt>
      <trkpt lat="56.07319" lon="9.390442">
        <ele>96.594176</ele>
        <time>2024-08-25T12:41:11.000Z</time>
      </trkpt>
      <trkpt lat="56.073196" lon="9.390448">
        <ele>96.594175</ele>
        <time>2024-08-25T12:41:11.000Z</time>
      </trkpt>
      <trkpt lat="56.073248" lon="9.390755">
        <ele>96.555153</ele>
        <time>2024-08-25T12:41:13.000Z</time>
      </trkpt>
      <trkpt lat="56.073297" lon="9.391036">
        <ele>96.520535</ele>
        <time>2024-08-25T12:41:15.000Z</time>
      </trkpt>
      <trkpt lat="56.073438" lon="9.391747">
        <ele>96.402146</ele>
        <time>2024-08-25T12:41:20.000Z</time>
      </trkpt>
      <trkpt lat="56.073717" lon="9.393154">
        <ele>95.985806</ele>
        <time>2024-08-25T12:41:29.000Z</time>
      </trkpt>
      <trkpt lat="56.073827" lon="9.393705">
        <ele>95.822422</ele>
        <time>2024-08-25T12:41:33.000Z</time>
      </trkpt>
      <trkpt lat="56.074105" lon="9.395102">
        <ele>95.617161</ele>
        <time>2024-08-25T12:41:42.000Z</time>
      </trkpt>
      <trkpt lat="56.074363" lon="9.396491">
        <ele>95.810948</ele>
        <time>2024-08-25T12:41:51.000Z</time>
      </trkpt>
      <trkpt lat="56.074418" lon="9.396795">
        <ele>95.854711</ele>
        <time>2024-08-25T12:41:53.000Z</time>
      </trkpt>
      <trkpt lat="56.0752" lon="9.400892">
        <ele>98.977117</ele>
        <time>2024-08-25T12:42:20.000Z</time>
      </trkpt>
      <trkpt lat="56.075232" lon="9.401088">
        <ele>99.180568</ele>
        <time>2024-08-25T12:42:21.000Z</time>
      </trkpt>
      <trkpt lat="56.075414" lon="9.402075">
        <ele>100.259097</ele>
        <time>2024-08-25T12:42:27.000Z</time>
      </trkpt>
      <trkpt lat="56.075921" lon="9.404781">
        <ele>102.69428</ele>
        <time>2024-08-25T12:42:45.000Z</time>
      </trkpt>
      <trkpt lat="56.075979" lon="9.405397">
        <ele>103.054738</ele>
        <time>2024-08-25T12:42:49.000Z</time>
      </trkpt>
      <trkpt lat="56.076015" lon="9.406082">
        <ele>103.441605</ele>
        <time>2024-08-25T12:42:53.000Z</time>
      </trkpt>
      <trkpt lat="56.076014" lon="9.406234">
        <ele>103.532859</ele>
        <time>2024-08-25T12:42:54.000Z</time>
      </trkpt>
      <trkpt lat="56.076111" lon="9.407701">
        <ele>102.875562</ele>
        <time>2024-08-25T12:43:03.000Z</time>
      </trkpt>
      <trkpt lat="56.07648" lon="9.41201">
        <ele>96.734568</ele>
        <time>2024-08-25T12:43:30.000Z</time>
      </trkpt>
      <trkpt lat="56.076515" lon="9.412572">
        <ele>95.888725</ele>
        <time>2024-08-25T12:43:34.000Z</time>
      </trkpt>
      <trkpt lat="56.076625" lon="9.41394">
        <ele>94.956035</ele>
        <time>2024-08-25T12:43:43.000Z</time>
      </trkpt>
      <trkpt lat="56.076749" lon="9.41448">
        <ele>95.093218</ele>
        <time>2024-08-25T12:43:47.000Z</time>
      </trkpt>
      <trkpt lat="56.07695" lon="9.414887">
        <ele>95.220256</ele>
        <time>2024-08-25T12:43:50.000Z</time>
      </trkpt>
      <trkpt lat="56.078326" lon="9.416246">
        <ele>96.248909</ele>
        <time>2024-08-25T12:44:07.000Z</time>
      </trkpt>
      <trkpt lat="56.078444" lon="9.416363">
        <ele>96.370055</ele>
        <time>2024-08-25T12:44:08.000Z</time>
      </trkpt>
      <trkpt lat="56.078505" lon="9.416443">
        <ele>96.436519</ele>
        <time>2024-08-25T12:44:09.000Z</time>
      </trkpt>
      <trkpt lat="56.079215" lon="9.417167">
        <ele>97.195925</ele>
        <time>2024-08-25T12:44:18.000Z</time>
      </trkpt>
      <trkpt lat="56.079412" lon="9.417409">
        <ele>96.639721</ele>
        <time>2024-08-25T12:44:21.000Z</time>
      </trkpt>
      <trkpt lat="56.079614" lon="9.417711">
        <ele>96.007284</ele>
        <time>2024-08-25T12:44:24.000Z</time>
      </trkpt>
      <trkpt lat="56.080421" lon="9.419071">
        <ele>93.286733</ele>
        <time>2024-08-25T12:44:36.000Z</time>
      </trkpt>
      <trkpt lat="56.080609" lon="9.419366">
        <ele>92.590652</ele>
        <time>2024-08-25T12:44:39.000Z</time>
      </trkpt>
      <trkpt lat="56.08164" lon="9.420923">
        <ele>87.513198</ele>
        <time>2024-08-25T12:44:54.000Z</time>
      </trkpt>
      <trkpt lat="56.082124" lon="9.421607">
        <ele>85.669761</ele>
        <time>2024-08-25T12:45:01.000Z</time>
      </trkpt>
      <trkpt lat="56.083319" lon="9.423946">
        <ele>83.647541</ele>
        <time>2024-08-25T12:45:21.000Z</time>
      </trkpt>
      <trkpt lat="56.084211" lon="9.425711">
        <ele>85.570943</ele>
        <time>2024-08-25T12:45:36.000Z</time>
      </trkpt>
      <trkpt lat="56.085403" lon="9.428125">
        <ele>91.429501</ele>
        <time>2024-08-25T12:45:56.000Z</time>
      </trkpt>
      <trkpt lat="56.0857" lon="9.428516">
        <ele>92.598122</ele>
        <time>2024-08-25T12:46:00.000Z</time>
      </trkpt>
      <trkpt lat="56.085905" lon="9.428656">
        <ele>93.014811</ele>
        <time>2024-08-25T12:46:02.000Z</time>
      </trkpt>
      <trkpt lat="56.086532" lon="9.428795">
        <ele>94.195466</ele>
        <time>2024-08-25T12:46:09.000Z</time>
      </trkpt>
      <trkpt lat="56.087117" lon="9.428893">
        <ele>95.301343</ele>
        <time>2024-08-25T12:46:16.000Z</time>
      </trkpt>
      <trkpt lat="56.087388" lon="9.429019">
        <ele>95.822576</ele>
        <time>2024-08-25T12:46:19.000Z</time>
      </trkpt>
      <trkpt lat="56.087682" lon="9.429322">
        <ele>95.701055</ele>
        <time>2024-08-25T12:46:23.000Z</time>
      </trkpt>
      <trkpt lat="56.088899" lon="9.431044">
        <ele>95.19188</ele>
        <time>2024-08-25T12:46:40.000Z</time>
      </trkpt>
      <trkpt lat="56.089102" lon="9.431326">
        <ele>95.495761</ele>
        <time>2024-08-25T12:46:43.000Z</time>
      </trkpt>
      <trkpt lat="56.089457" lon="9.431818">
        <ele>96.024677</ele>
        <time>2024-08-25T12:46:48.000Z</time>
      </trkpt>
      <trkpt lat="56.092013" lon="9.435394">
        <ele>102.064347</ele>
        <time>2024-08-25T12:47:24.000Z</time>
      </trkpt>
      <trkpt lat="56.092225" lon="9.43591">
        <ele>102.942598</ele>
        <time>2024-08-25T12:47:28.000Z</time>
      </trkpt>
      <trkpt lat="56.092268" lon="9.436174">
        <ele>103.30328</ele>
        <time>2024-08-25T12:47:30.000Z</time>
      </trkpt>
      <trkpt lat="56.092311" lon="9.436503">
        <ele>103.761772</ele>
        <time>2024-08-25T12:47:32.000Z</time>
      </trkpt>
      <trkpt lat="56.092282" lon="9.439894">
        <ele>108.643969</ele>
        <time>2024-08-25T12:47:53.000Z</time>
      </trkpt>
      <trkpt lat="56.092311" lon="9.440742">
        <ele>109.911029</ele>
        <time>2024-08-25T12:47:58.000Z</time>
      </trkpt>
      <trkpt lat="56.09238" lon="9.441702">
        <ele>111.053435</ele>
        <time>2024-08-25T12:48:04.000Z</time>
      </trkpt>
      <trkpt lat="56.092411" lon="9.442042">
        <ele>111.460704</ele>
        <time>2024-08-25T12:48:06.000Z</time>
      </trkpt>
      <trkpt lat="56.092427" lon="9.442201">
        <ele>111.639532</ele>
        <time>2024-08-25T12:48:07.000Z</time>
      </trkpt>
      <trkpt lat="56.092486" lon="9.442788">
        <ele>112.311679</ele>
        <time>2024-08-25T12:48:11.000Z</time>
      </trkpt>
      <trkpt lat="56.092506" lon="9.442954">
        <ele>112.519113</ele>
        <time>2024-08-25T12:48:12.000Z</time>
      </trkpt>
      <trkpt lat="56.092473" lon="9.443194">
        <ele>112.797829</ele>
        <time>2024-08-25T12:48:14.000Z</time>
      </trkpt>
      <trkpt lat="56.092352" lon="9.443932">
        <ele>113.669514</ele>
        <time>2024-08-25T12:48:19.000Z</time>
      </trkpt>
      <trkpt lat="56.09211" lon="9.445394">
        <ele>113.302065</ele>
        <time>2024-08-25T12:48:28.000Z</time>
      </trkpt>
      <trkpt lat="56.09194" lon="9.446295">
        <ele>112.951985</ele>
        <time>2024-08-25T12:48:34.000Z</time>
      </trkpt>
      <trkpt lat="56.09192" lon="9.446498">
        <ele>112.875553</ele>
        <time>2024-08-25T12:48:35.000Z</time>
      </trkpt>
      <trkpt lat="56.091875" lon="9.446731">
        <ele>112.780616</ele>
        <time>2024-08-25T12:48:37.000Z</time>
      </trkpt>
      <trkpt lat="56.091828" lon="9.447082">
        <ele>112.649465</ele>
        <time>2024-08-25T12:48:39.000Z</time>
      </trkpt>
      <trkpt lat="56.091817" lon="9.447156">
        <ele>112.608946</ele>
        <time>2024-08-25T12:48:39.000Z</time>
      </trkpt>
      <trkpt lat="56.091773" lon="9.447643">
        <ele>112.208973</ele>
        <time>2024-08-25T12:48:42.000Z</time>
      </trkpt>
      <trkpt lat="56.091727" lon="9.4481">
        <ele>111.81645</ele>
        <time>2024-08-25T12:48:45.000Z</time>
      </trkpt>
      <trkpt lat="56.091731" lon="9.448159">
        <ele>111.778822</ele>
        <time>2024-08-25T12:48:45.000Z</time>
      </trkpt>
      <trkpt lat="56.091684" lon="9.448724">
        <ele>111.303831</ele>
        <time>2024-08-25T12:48:49.000Z</time>
      </trkpt>
      <trkpt lat="56.091422" lon="9.452412">
        <ele>109.108752</ele>
        <time>2024-08-25T12:49:12.000Z</time>
      </trkpt>
      <trkpt lat="56.091348" lon="9.454515">
        <ele>108.979106</ele>
        <time>2024-08-25T12:49:25.000Z</time>
      </trkpt>
      <trkpt lat="56.091374" lon="9.4581">
        <ele>110.493665</ele>
        <time>2024-08-25T12:49:47.000Z</time>
      </trkpt>
      <trkpt lat="56.09148" lon="9.460985">
        <ele>111.962869</ele>
        <time>2024-08-25T12:50:05.000Z</time>
      </trkpt>
      <trkpt lat="56.091501" lon="9.462091">
        <ele>112.404686</ele>
        <time>2024-08-25T12:50:12.000Z</time>
      </trkpt>
      <trkpt lat="56.091554" lon="9.465577">
        <ele>113.324004</ele>
        <time>2024-08-25T12:50:34.000Z</time>
      </trkpt>
      <trkpt lat="56.091603" lon="9.468323">
        <ele>114.261793</ele>
        <time>2024-08-25T12:50:51.000Z</time>
      </trkpt>
      <trkpt lat="56.091614" lon="9.468967">
        <ele>114.519978</ele>
        <time>2024-08-25T12:50:55.000Z</time>
      </trkpt>
      <trkpt lat="56.091597" lon="9.468979">
        <ele>114.519974</ele>
        <time>2024-08-25T12:50:55.000Z</time>
      </trkpt>
      <trkpt lat="56.091627" lon="9.470141">
        <ele>115.053243</ele>
        <time>2024-08-25T12:51:02.000Z</time>
      </trkpt>
      <trkpt lat="56.091623" lon="9.470326">
        <ele>115.151613</ele>
        <time>2024-08-25T12:51:03.000Z</time>
      </trkpt>
      <trkpt lat="56.091599" lon="9.470506">
        <ele>115.239661</ele>
        <time>2024-08-25T12:51:04.000Z</time>
      </trkpt>
      <trkpt lat="56.091656" lon="9.470498">
        <ele>115.29412</ele>
        <time>2024-08-25T12:51:05.000Z</time>
      </trkpt>
      <trkpt lat="56.091868" lon="9.470409">
        <ele>115.491437</ele>
        <time>2024-08-25T12:51:07.000Z</time>
      </trkpt>
      <trkpt lat="56.092393" lon="9.470057">
        <ele>116.022149</ele>
        <time>2024-08-25T12:51:13.000Z</time>
      </trkpt>
      <trkpt lat="56.092555" lon="9.469974">
        <ele>116.182227</ele>
        <time>2024-08-25T12:51:15.000Z</time>
      </trkpt>
      <trkpt lat="56.093534" lon="9.469379">
        <ele>117.035792</ele>
        <time>2024-08-25T12:51:26.000Z</time>
      </trkpt>
      <trkpt lat="56.094074" lon="9.469017">
        <ele>117.475759</ele>
        <time>2024-08-25T12:51:32.000Z</time>
      </trkpt>
      <trkpt lat="56.094083" lon="9.469007">
        <ele>117.4898</ele>
        <time>2024-08-25T12:51:32.000Z</time>
      </trkpt>
      <trkpt lat="56.095288" lon="9.467992">
        <ele>118.062768</ele>
        <time>2024-08-25T12:51:47.000Z</time>
      </trkpt>
      <trkpt lat="56.096347" lon="9.466885">
        <ele>118.207494</ele>
        <time>2024-08-25T12:52:01.000Z</time>
      </trkpt>
      <trkpt lat="56.096767" lon="9.466419">
        <ele>118.059622</ele>
        <time>2024-08-25T12:52:06.000Z</time>
      </trkpt>
      <trkpt lat="56.097114" lon="9.466148">
        <ele>117.946597</ele>
        <time>2024-08-25T12:52:10.000Z</time>
      </trkpt>
      <trkpt lat="56.097898" lon="9.46596">
        <ele>117.655413</ele>
        <time>2024-08-25T12:52:19.000Z</time>
      </trkpt>
      <trkpt lat="56.098134" lon="9.465885">
        <ele>117.442276</ele>
        <time>2024-08-25T12:52:22.000Z</time>
      </trkpt>
      <trkpt lat="56.098707" lon="9.465706">
        <ele>116.943866</ele>
        <time>2024-08-25T12:52:28.000Z</time>
      </trkpt>
      <trkpt lat="56.098829" lon="9.46565">
        <ele>116.840109</ele>
        <time>2024-08-25T12:52:29.000Z</time>
      </trkpt>
      <trkpt lat="56.099051" lon="9.466304">
        <ele>116.465055</ele>
        <time>2024-08-25T12:52:34.000Z</time>
      </trkpt>
      <trkpt lat="56.100075" lon="9.469123">
        <ele>111.196428</ele>
        <time>2024-08-25T12:52:55.000Z</time>
      </trkpt>
      <trkpt lat="56.100248" lon="9.469502">
        <ele>110.185719</ele>
        <time>2024-08-25T12:52:58.000Z</time>
      </trkpt>
      <trkpt lat="56.100495" lon="9.469799">
        <ele>108.710934</ele>
        <time>2024-08-25T12:53:01.000Z</time>
      </trkpt>
      <trkpt lat="56.100568" lon="9.469856">
        <ele>108.248948</ele>
        <time>2024-08-25T12:53:02.000Z</time>
      </trkpt>
      <trkpt lat="56.100666" lon="9.469904">
        <ele>107.760856</ele>
        <time>2024-08-25T12:53:03.000Z</time>
      </trkpt>
      <trkpt lat="56.101073" lon="9.469997">
        <ele>105.649557</ele>
        <time>2024-08-25T12:53:08.000Z</time>
      </trkpt>
      <trkpt lat="56.102388" lon="9.469549">
        <ele>99.103031</ele>
        <time>2024-08-25T12:53:23.000Z</time>
      </trkpt>
      <trkpt lat="56.102863" lon="9.469597">
        <ele>97.151854</ele>
        <time>2024-08-25T12:53:28.000Z</time>
      </trkpt>
      <trkpt lat="56.102942" lon="9.469626">
        <ele>96.828997</ele>
        <time>2024-08-25T12:53:29.000Z</time>
      </trkpt>
      <trkpt lat="56.10308" lon="9.469702">
        <ele>96.218523</ele>
        <time>2024-08-25T12:53:31.000Z</time>
      </trkpt>
      <trkpt lat="56.10339" lon="9.469959">
        <ele>94.75129</ele>
        <time>2024-08-25T12:53:35.000Z</time>
      </trkpt>
      <trkpt lat="56.103548" lon="9.470148">
        <ele>93.977208</ele>
        <time>2024-08-25T12:53:37.000Z</time>
      </trkpt>
      <trkpt lat="56.10374" lon="9.470447">
        <ele>93.272572</ele>
        <time>2024-08-25T12:53:40.000Z</time>
      </trkpt>
      <trkpt lat="56.10447" lon="9.471752">
        <ele>91.002094</ele>
        <time>2024-08-25T12:53:51.000Z</time>
      </trkpt>
      <trkpt lat="56.105215" lon="9.473052">
        <ele>91.159678</ele>
        <time>2024-08-25T12:54:03.000Z</time>
      </trkpt>
      <trkpt lat="56.105423" lon="9.473436">
        <ele>92.161733</ele>
        <time>2024-08-25T12:54:06.000Z</time>
      </trkpt>
      <trkpt lat="56.10553" lon="9.473586">
        <ele>92.602154</ele>
        <time>2024-08-25T12:54:08.000Z</time>
      </trkpt>
      <trkpt lat="56.105748" lon="9.473853">
        <ele>93.496409</ele>
        <time>2024-08-25T12:54:11.000Z</time>
      </trkpt>
      <trkpt lat="56.106278" lon="9.474311">
        <ele>95.489444</ele>
        <time>2024-08-25T12:54:18.000Z</time>
      </trkpt>
      <trkpt lat="56.107474" lon="9.475024">
        <ele>100.277916</ele>
        <time>2024-08-25T12:54:32.000Z</time>
      </trkpt>
      <trkpt lat="56.108318" lon="9.475526">
        <ele>102.586145</ele>
        <time>2024-08-25T12:54:42.000Z</time>
      </trkpt>
      <trkpt lat="56.108845" lon="9.475989">
        <ele>102.507242</ele>
        <time>2024-08-25T12:54:49.000Z</time>
      </trkpt>
      <trkpt lat="56.109412" lon="9.476866">
        <ele>102.408443</ele>
        <time>2024-08-25T12:54:57.000Z</time>
      </trkpt>
      <trkpt lat="56.109465" lon="9.476949">
        <ele>102.398139</ele>
        <time>2024-08-25T12:54:58.000Z</time>
      </trkpt>
      <trkpt lat="56.109734" lon="9.47757">
        <ele>102.555756</ele>
        <time>2024-08-25T12:55:03.000Z</time>
      </trkpt>
      <trkpt lat="56.110343" lon="9.47888">
        <ele>103.059058</ele>
        <time>2024-08-25T12:55:14.000Z</time>
      </trkpt>
      <trkpt lat="56.112258" lon="9.483177">
        <ele>106.319035</ele>
        <time>2024-08-25T12:55:48.000Z</time>
      </trkpt>
      <trkpt lat="56.112606" lon="9.483994">
        <ele>106.799617</ele>
        <time>2024-08-25T12:55:54.000Z</time>
      </trkpt>
      <trkpt lat="56.112869" lon="9.484583">
        <ele>107.140044</ele>
        <time>2024-08-25T12:55:59.000Z</time>
      </trkpt>
      <trkpt lat="56.113044" lon="9.484989">
        <ele>107.08641</ele>
        <time>2024-08-25T12:56:02.000Z</time>
      </trkpt>
      <trkpt lat="56.113283" lon="9.485494">
        <ele>106.905785</ele>
        <time>2024-08-25T12:56:06.000Z</time>
      </trkpt>
      <trkpt lat="56.113993" lon="9.48711">
        <ele>106.343246</ele>
        <time>2024-08-25T12:56:19.000Z</time>
      </trkpt>
      <trkpt lat="56.1141" lon="9.487321">
        <ele>106.234192</ele>
        <time>2024-08-25T12:56:21.000Z</time>
      </trkpt>
      <trkpt lat="56.114576" lon="9.488398">
        <ele>105.540275</ele>
        <time>2024-08-25T12:56:30.000Z</time>
      </trkpt>
      <trkpt lat="56.114676" lon="9.488585">
        <ele>105.409656</ele>
        <time>2024-08-25T12:56:32.000Z</time>
      </trkpt>
      <trkpt lat="56.114784" lon="9.488767">
        <ele>105.274922</ele>
        <time>2024-08-25T12:56:34.000Z</time>
      </trkpt>
      <trkpt lat="56.114892" lon="9.488931">
        <ele>105.14486</ele>
        <time>2024-08-25T12:56:36.000Z</time>
      </trkpt>
      <trkpt lat="56.115055" lon="9.489158">
        <ele>104.957702</ele>
        <time>2024-08-25T12:56:38.000Z</time>
      </trkpt>
      <trkpt lat="56.1154" lon="9.489499">
        <ele>104.638189</ele>
        <time>2024-08-25T12:56:42.000Z</time>
      </trkpt>
      <trkpt lat="56.115755" lon="9.489788">
        <ele>104.42978</ele>
        <time>2024-08-25T12:56:46.000Z</time>
      </trkpt>
      <trkpt lat="56.116044" lon="9.490033">
        <ele>104.248032</ele>
        <time>2024-08-25T12:56:50.000Z</time>
      </trkpt>
      <trkpt lat="56.116118" lon="9.490057">
        <ele>104.213678</ele>
        <time>2024-08-25T12:56:51.000Z</time>
      </trkpt>
      <trkpt lat="56.116195" lon="9.49012">
        <ele>104.166569</ele>
        <time>2024-08-25T12:56:52.000Z</time>
      </trkpt>
      <trkpt lat="56.11635" lon="9.490257">
        <ele>104.072725</ele>
        <time>2024-08-25T12:56:54.000Z</time>
      </trkpt>
      <trkpt lat="56.116517" lon="9.490376">
        <ele>103.974635</ele>
        <time>2024-08-25T12:56:56.000Z</time>
      </trkpt>
      <trkpt lat="56.116681" lon="9.490496">
        <ele>103.875322</ele>
        <time>2024-08-25T12:56:58.000Z</time>
      </trkpt>
      <trkpt lat="56.117317" lon="9.490998">
        <ele>103.518915</ele>
        <time>2024-08-25T12:57:06.000Z</time>
      </trkpt>
      <trkpt lat="56.118593" lon="9.49197">
        <ele>102.845372</ele>
        <time>2024-08-25T12:57:21.000Z</time>
      </trkpt>
      <trkpt lat="56.119791" lon="9.492871">
        <ele>102.003614</ele>
        <time>2024-08-25T12:57:35.000Z</time>
      </trkpt>
      <trkpt lat="56.12042" lon="9.493128">
        <ele>101.256296</ele>
        <time>2024-08-25T12:57:42.000Z</time>
      </trkpt>
      <trkpt lat="56.121051" lon="9.493095">
        <ele>99.072715</ele>
        <time>2024-08-25T12:57:49.000Z</time>
      </trkpt>
      <trkpt lat="56.121589" lon="9.492793">
        <ele>97.084483</ele>
        <time>2024-08-25T12:57:55.000Z</time>
      </trkpt>
      <trkpt lat="56.121866" lon="9.492557">
        <ele>96.075596</ele>
        <time>2024-08-25T12:57:58.000Z</time>
      </trkpt>
      <trkpt lat="56.122792" lon="9.491562">
        <ele>88.670292</ele>
        <time>2024-08-25T12:58:10.000Z</time>
      </trkpt>
      <trkpt lat="56.123403" lon="9.491269">
        <ele>84.010263</ele>
        <time>2024-08-25T12:58:17.000Z</time>
      </trkpt>
      <trkpt lat="56.124061" lon="9.491315">
        <ele>77.6845</ele>
        <time>2024-08-25T12:58:24.000Z</time>
      </trkpt>
      <trkpt lat="56.124425" lon="9.491469">
        <ele>73.511878</ele>
        <time>2024-08-25T12:58:28.000Z</time>
      </trkpt>
      <trkpt lat="56.124962" lon="9.491889">
        <ele>67.099066</ele>
        <time>2024-08-25T12:58:35.000Z</time>
      </trkpt>
      <trkpt lat="56.125273" lon="9.4923">
        <ele>62.868672</ele>
        <time>2024-08-25T12:58:39.000Z</time>
      </trkpt>
      <trkpt lat="56.125818" lon="9.492974">
        <ele>57.076159</ele>
        <time>2024-08-25T12:58:46.000Z</time>
      </trkpt>
      <trkpt lat="56.12624" lon="9.493452">
        <ele>53.033867</ele>
        <time>2024-08-25T12:58:52.000Z</time>
      </trkpt>
      <trkpt lat="56.126438" lon="9.493637">
        <ele>51.0833</ele>
        <time>2024-08-25T12:58:54.000Z</time>
      </trkpt>
      <trkpt lat="56.126644" lon="9.493838">
        <ele>49.125202</ele>
        <time>2024-08-25T12:58:57.000Z</time>
      </trkpt>
      <trkpt lat="56.127061" lon="9.494101">
        <ele>47.045741</ele>
        <time>2024-08-25T12:59:02.000Z</time>
      </trkpt>
      <trkpt lat="56.12746" lon="9.494304">
        <ele>46.836453</ele>
        <time>2024-08-25T12:59:07.000Z</time>
      </trkpt>
      <trkpt lat="56.129224" lon="9.495001">
        <ele>47.184827</ele>
        <time>2024-08-25T12:59:27.000Z</time>
      </trkpt>
      <trkpt lat="56.13091" lon="9.495706">
        <ele>50.603779</ele>
        <time>2024-08-25T12:59:46.000Z</time>
      </trkpt>
      <trkpt lat="56.13315" lon="9.496632">
        <ele>56.906477</ele>
        <time>2024-08-25T13:00:12.000Z</time>
      </trkpt>
      <trkpt lat="56.133898" lon="9.496959">
        <ele>58.742357</ele>
        <time>2024-08-25T13:00:21.000Z</time>
      </trkpt>
      <trkpt lat="56.135025" lon="9.497651">
        <ele>57.427649</ele>
        <time>2024-08-25T13:00:34.000Z</time>
      </trkpt>
      <trkpt lat="56.135279" lon="9.497898">
        <ele>57.095064</ele>
        <time>2024-08-25T13:00:37.000Z</time>
      </trkpt>
      <trkpt lat="56.135761" lon="9.498368">
        <ele>56.267298</ele>
        <time>2024-08-25T13:00:43.000Z</time>
      </trkpt>
      <trkpt lat="56.136883" lon="9.499813">
        <ele>53.575369</ele>
        <time>2024-08-25T13:00:58.000Z</time>
      </trkpt>
      <trkpt lat="56.137386" lon="9.500568">
        <ele>53.484701</ele>
        <time>2024-08-25T13:01:05.000Z</time>
      </trkpt>
      <trkpt lat="56.137829" lon="9.50131">
        <ele>53.711563</ele>
        <time>2024-08-25T13:01:12.000Z</time>
      </trkpt>
      <trkpt lat="56.139127" lon="9.504019">
        <ele>55.516851</ele>
        <time>2024-08-25T13:01:34.000Z</time>
      </trkpt>
      <trkpt lat="56.139375" lon="9.504567">
        <ele>55.970381</ele>
        <time>2024-08-25T13:01:38.000Z</time>
      </trkpt>
      <trkpt lat="56.13956" lon="9.505088">
        <ele>56.318438</ele>
        <time>2024-08-25T13:01:42.000Z</time>
      </trkpt>
      <trkpt lat="56.139948" lon="9.506347">
        <ele>57.031851</ele>
        <time>2024-08-25T13:01:51.000Z</time>
      </trkpt>
      <trkpt lat="56.140153" lon="9.507023">
        <ele>57.418235</ele>
        <time>2024-08-25T13:01:56.000Z</time>
      </trkpt>
      <trkpt lat="56.141009" lon="9.509829">
        <ele>58.859241</ele>
        <time>2024-08-25T13:02:16.000Z</time>
      </trkpt>
      <trkpt lat="56.141237" lon="9.51057">
        <ele>59.174891</ele>
        <time>2024-08-25T13:02:21.000Z</time>
      </trkpt>
      <trkpt lat="56.142177" lon="9.51365">
        <ele>59.716324</ele>
        <time>2024-08-25T13:02:43.000Z</time>
      </trkpt>
      <trkpt lat="56.143214" lon="9.517091">
        <ele>59.549944</ele>
        <time>2024-08-25T13:03:07.000Z</time>
      </trkpt>
      <trkpt lat="56.143424" lon="9.517751">
        <ele>59.388334</ele>
        <time>2024-08-25T13:03:12.000Z</time>
      </trkpt>
      <trkpt lat="56.143693" lon="9.518462">
        <ele>59.21086</ele>
        <time>2024-08-25T13:03:17.000Z</time>
      </trkpt>
      <trkpt lat="56.143974" lon="9.519119">
        <ele>58.747166</ele>
        <time>2024-08-25T13:03:22.000Z</time>
      </trkpt>
      <trkpt lat="56.14419" lon="9.519544">
        <ele>58.234034</ele>
        <time>2024-08-25T13:03:26.000Z</time>
      </trkpt>
      <trkpt lat="56.144425" lon="9.519939">
        <ele>57.713505</ele>
        <time>2024-08-25T13:03:30.000Z</time>
      </trkpt>
      <trkpt lat="56.144714" lon="9.520362">
        <ele>57.138568</ele>
        <time>2024-08-25T13:03:34.000Z</time>
      </trkpt>
      <trkpt lat="56.145371" lon="9.521097">
        <ele>55.880633</ele>
        <time>2024-08-25T13:03:43.000Z</time>
      </trkpt>
      <trkpt lat="56.146356" lon="9.521991">
        <ele>53.949088</ele>
        <time>2024-08-25T13:03:55.000Z</time>
      </trkpt>
      <trkpt lat="56.147678" lon="9.523149">
        <ele>51.975611</ele>
        <time>2024-08-25T13:04:11.000Z</time>
      </trkpt>
      <trkpt lat="56.148091" lon="9.523527">
        <ele>51.43281</ele>
        <time>2024-08-25T13:04:16.000Z</time>
      </trkpt>
      <trkpt lat="56.151545" lon="9.526603">
        <ele>45.611156</ele>
        <time>2024-08-25T13:04:59.000Z</time>
      </trkpt>
      <trkpt lat="56.151766" lon="9.526771">
        <ele>45.256901</ele>
        <time>2024-08-25T13:05:02.000Z</time>
      </trkpt>
      <trkpt lat="56.151922" lon="9.526852">
        <ele>45.032116</ele>
        <time>2024-08-25T13:05:04.000Z</time>
      </trkpt>
      <trkpt lat="56.152153" lon="9.526969">
        <ele>44.715146</ele>
        <time>2024-08-25T13:05:07.000Z</time>
      </trkpt>
      <trkpt lat="56.152381" lon="9.527073">
        <ele>44.389274</ele>
        <time>2024-08-25T13:05:10.000Z</time>
      </trkpt>
      <trkpt lat="56.1526" lon="9.527154">
        <ele>44.065717</ele>
        <time>2024-08-25T13:05:12.000Z</time>
      </trkpt>
      <trkpt lat="56.152832" lon="9.52722">
        <ele>43.738635</ele>
        <time>2024-08-25T13:05:15.000Z</time>
      </trkpt>
      <trkpt lat="56.153057" lon="9.527275">
        <ele>43.422821</ele>
        <time>2024-08-25T13:05:18.000Z</time>
      </trkpt>
      <trkpt lat="56.153242" lon="9.527307">
        <ele>43.180315</ele>
        <time>2024-08-25T13:05:20.000Z</time>
      </trkpt>
      <trkpt lat="56.153778" lon="9.527415">
        <ele>41.736888</ele>
        <time>2024-08-25T13:05:26.000Z</time>
      </trkpt>
      <trkpt lat="56.154087" lon="9.527517">
        <ele>40.815069</ele>
        <time>2024-08-25T13:05:29.000Z</time>
      </trkpt>
      <trkpt lat="56.15422" lon="9.527558">
        <ele>40.390374</ele>
        <time>2024-08-25T13:05:31.000Z</time>
      </trkpt>
      <trkpt lat="56.15434" lon="9.52762">
        <ele>39.981851</ele>
        <time>2024-08-25T13:05:32.000Z</time>
      </trkpt>
      <trkpt lat="56.154605" lon="9.527749">
        <ele>39.189919</ele>
        <time>2024-08-25T13:05:35.000Z</time>
      </trkpt>
      <trkpt lat="56.154957" lon="9.527954">
        <ele>38.073614</ele>
        <time>2024-08-25T13:05:39.000Z</time>
      </trkpt>
      <trkpt lat="56.155229" lon="9.528146">
        <ele>36.857782</ele>
        <time>2024-08-25T13:05:42.000Z</time>
      </trkpt>
      <trkpt lat="56.155451" lon="9.528238">
        <ele>35.758323</ele>
        <time>2024-08-25T13:05:45.000Z</time>
      </trkpt>
      <trkpt lat="56.155679" lon="9.528292">
        <ele>34.487582</ele>
        <time>2024-08-25T13:05:48.000Z</time>
      </trkpt>
      <trkpt lat="56.155803" lon="9.528284">
        <ele>33.853565</ele>
        <time>2024-08-25T13:05:49.000Z</time>
      </trkpt>
      <trkpt lat="56.156526" lon="9.528073">
        <ele>30.125281</ele>
        <time>2024-08-25T13:05:57.000Z</time>
      </trkpt>
      <trkpt lat="56.157075" lon="9.52779">
        <ele>27.969476</ele>
        <time>2024-08-25T13:06:03.000Z</time>
      </trkpt>
      <trkpt lat="56.157276" lon="9.527753">
        <ele>27.742159</ele>
        <time>2024-08-25T13:06:05.000Z</time>
      </trkpt>
      <trkpt lat="56.157425" lon="9.527753">
        <ele>27.579849</ele>
        <time>2024-08-25T13:06:07.000Z</time>
      </trkpt>
      <trkpt lat="56.157694" lon="9.527793">
        <ele>27.272052</ele>
        <time>2024-08-25T13:06:10.000Z</time>
      </trkpt>
      <trkpt lat="56.157997" lon="9.527825">
        <ele>26.924225</ele>
        <time>2024-08-25T13:06:13.000Z</time>
      </trkpt>
      <trkpt lat="56.158101" lon="9.527898">
        <ele>26.791001</ele>
        <time>2024-08-25T13:06:14.000Z</time>
      </trkpt>
      <trkpt lat="56.158353" lon="9.528302">
        <ele>26.410251</ele>
        <time>2024-08-25T13:06:18.000Z</time>
      </trkpt>
      <trkpt lat="56.158377" lon="9.528337">
        <ele>26.382308</ele>
        <time>2024-08-25T13:06:18.000Z</time>
      </trkpt>
      <trkpt lat="56.158425" lon="9.528435">
        <ele>26.302274</ele>
        <time>2024-08-25T13:06:19.000Z</time>
      </trkpt>
      <trkpt lat="56.158425" lon="9.528452">
        <ele>26.285866</ele>
        <time>2024-08-25T13:06:19.000Z</time>
      </trkpt>
      <trkpt lat="56.158606" lon="9.528814">
        <ele>26.317862</ele>
        <time>2024-08-25T13:06:22.000Z</time>
      </trkpt>
      <trkpt lat="56.158643" lon="9.52893">
        <ele>26.38804</ele>
        <time>2024-08-25T13:06:23.000Z</time>
      </trkpt>
      <trkpt lat="56.158679" lon="9.529054">
        <ele>26.458143</ele>
        <time>2024-08-25T13:06:24.000Z</time>
      </trkpt>
      <trkpt lat="56.158774" lon="9.529389">
        <ele>26.640838</ele>
        <time>2024-08-25T13:06:26.000Z</time>
      </trkpt>
      <trkpt lat="56.15898" lon="9.530312">
        <ele>27.115896</ele>
        <time>2024-08-25T13:06:32.000Z</time>
      </trkpt>
      <trkpt lat="56.159064" lon="9.530761">
        <ele>27.348182</ele>
        <time>2024-08-25T13:06:35.000Z</time>
      </trkpt>
      <trkpt lat="56.159119" lon="9.530958">
        <ele>27.449094</ele>
        <time>2024-08-25T13:06:36.000Z</time>
      </trkpt>
      <trkpt lat="56.158964" lon="9.53102">
        <ele>27.576051</ele>
        <time>2024-08-25T13:06:38.000Z</time>
      </trkpt>
      <trkpt lat="56.158549" lon="9.53124">
        <ele>27.896294</ele>
        <time>2024-08-25T13:06:43.000Z</time>
      </trkpt>
      <trkpt lat="56.158448" lon="9.531299">
        <ele>27.972787</ele>
        <time>2024-08-25T13:06:44.000Z</time>
      </trkpt>
      <trkpt lat="56.158145" lon="9.531469">
        <ele>28.173828</ele>
        <time>2024-08-25T13:06:48.000Z</time>
      </trkpt>
      <trkpt lat="56.157828" lon="9.531636">
        <ele>28.381919</ele>
        <time>2024-08-25T13:06:52.000Z</time>
      </trkpt>
      <trkpt lat="56.157524" lon="9.531816">
        <ele>28.586614</ele>
        <time>2024-08-25T13:06:56.000Z</time>
      </trkpt>
      <trkpt lat="56.157218" lon="9.531996">
        <ele>28.79989</ele>
        <time>2024-08-25T13:07:00.000Z</time>
      </trkpt>
      <trkpt lat="56.156533" lon="9.532377">
        <ele>28.545757</ele>
        <time>2024-08-25T13:07:08.000Z</time>
      </trkpt>
      <trkpt lat="56.156256" lon="9.532591">
        <ele>28.364457</ele>
        <time>2024-08-25T13:07:11.000Z</time>
      </trkpt>
      <trkpt lat="56.156179" lon="9.532674">
        <ele>28.30842</ele>
        <time>2024-08-25T13:07:12.000Z</time>
      </trkpt>
      <trkpt lat="56.156034" lon="9.532842">
        <ele>28.203399</ele>
        <time>2024-08-25T13:07:14.000Z</time>
      </trkpt>
      <trkpt lat="56.155612" lon="9.533516">
        <ele>27.869221</ele>
        <time>2024-08-25T13:07:20.000Z</time>
      </trkpt>
      <trkpt lat="56.155463" lon="9.53396">
        <ele>27.809946</ele>
        <time>2024-08-25T13:07:23.000Z</time>
      </trkpt>
      <trkpt lat="56.155302" lon="9.534769">
        <ele>27.825733</ele>
        <time>2024-08-25T13:07:28.000Z</time>
      </trkpt>
      <trkpt lat="56.155266" lon="9.535646">
        <ele>27.842465</ele>
        <time>2024-08-25T13:07:33.000Z</time>
      </trkpt>
      <trkpt lat="56.155435" lon="9.538347">
        <ele>29.568111</ele>
        <time>2024-08-25T13:07:50.000Z</time>
      </trkpt>
      <trkpt lat="56.155469" lon="9.538989">
        <ele>30.277882</ele>
        <time>2024-08-25T13:07:54.000Z</time>
      </trkpt>
      <trkpt lat="56.155511" lon="9.539589">
        <ele>30.947725</ele>
        <time>2024-08-25T13:07:58.000Z</time>
      </trkpt>
      <trkpt lat="56.155554" lon="9.540444">
        <ele>32.240351</ele>
        <time>2024-08-25T13:08:03.000Z</time>
      </trkpt>
      <trkpt lat="56.155735" lon="9.543312">
        <ele>37.506263</ele>
        <time>2024-08-25T13:08:21.000Z</time>
      </trkpt>
      <trkpt lat="56.155767" lon="9.543861">
        <ele>37.831161</ele>
        <time>2024-08-25T13:08:24.000Z</time>
      </trkpt>
      <trkpt lat="56.155768" lon="9.54395">
        <ele>37.88248</ele>
        <time>2024-08-25T13:08:25.000Z</time>
      </trkpt>
      <trkpt lat="56.155758" lon="9.544479">
        <ele>38.198055</ele>
        <time>2024-08-25T13:08:28.000Z</time>
      </trkpt>
      <trkpt lat="56.155621" lon="9.545695">
        <ele>38.924237</ele>
        <time>2024-08-25T13:08:36.000Z</time>
      </trkpt>
      <trkpt lat="56.155396" lon="9.54661">
        <ele>39.340122</ele>
        <time>2024-08-25T13:08:42.000Z</time>
      </trkpt>
      <trkpt lat="56.155233" lon="9.547072">
        <ele>39.301319</ele>
        <time>2024-08-25T13:08:45.000Z</time>
      </trkpt>
      <trkpt lat="56.154912" lon="9.54779">
        <ele>39.236913</ele>
        <time>2024-08-25T13:08:51.000Z</time>
      </trkpt>
      <trkpt lat="56.154698" lon="9.548224">
        <ele>39.194878</ele>
        <time>2024-08-25T13:08:55.000Z</time>
      </trkpt>
      <trkpt lat="56.154641" lon="9.548181">
        <ele>39.187958</ele>
        <time>2024-08-25T13:08:56.000Z</time>
      </trkpt>
      <trkpt lat="56.154355" lon="9.548433">
        <ele>39.145838</ele>
        <time>2024-08-25T13:09:00.000Z</time>
      </trkpt>
      <trkpt lat="56.154293" lon="9.548588">
        <ele>39.132438</ele>
        <time>2024-08-25T13:09:01.000Z</time>
      </trkpt>
      <trkpt lat="56.154225" lon="9.549181">
        <ele>38.933181</ele>
        <time>2024-08-25T13:09:05.000Z</time>
      </trkpt>
      <trkpt lat="56.153809" lon="9.549848">
        <ele>38.599093</ele>
        <time>2024-08-25T13:09:11.000Z</time>
      </trkpt>
      <trkpt lat="56.15361" lon="9.550228">
        <ele>38.418335</ele>
        <time>2024-08-25T13:09:14.000Z</time>
      </trkpt>
      <trkpt lat="56.153291" lon="9.550505">
        <ele>38.208664</ele>
        <time>2024-08-25T13:09:18.000Z</time>
      </trkpt>
      <trkpt lat="56.150622" lon="9.552604">
        <ele>31.778548</ele>
        <time>2024-08-25T13:09:50.000Z</time>
      </trkpt>
      <trkpt lat="56.150484" lon="9.552773">
        <ele>31.379214</ele>
        <time>2024-08-25T13:09:52.000Z</time>
      </trkpt>
      <trkpt lat="56.15031" lon="9.553056">
        <ele>30.793807</ele>
        <time>2024-08-25T13:09:55.000Z</time>
      </trkpt>
      <trkpt lat="56.149958" lon="9.553735">
        <ele>29.510395</ele>
        <time>2024-08-25T13:10:01.000Z</time>
      </trkpt>
      <trkpt lat="56.149775" lon="9.554209">
        <ele>28.9838126882</ele>
        <time>2024-08-25T13:10:05.000Z</time>
      </trkpt>
      <trkpt lat="56.149534" lon="9.554835">
        <ele>28.2890036028</ele>
        <time>2024-08-25T13:10:10.000Z</time>
      </trkpt>
      <trkpt lat="56.149411" lon="9.55511">
        <ele>27.9669814212</ele>
        <time>2024-08-25T13:10:12.000Z</time>
      </trkpt>
      <trkpt lat="56.149283" lon="9.55536">
        <ele>27.6569355245</ele>
        <time>2024-08-25T13:10:14.000Z</time>
      </trkpt>
      <trkpt lat="56.149148" lon="9.555625">
        <ele>27.329039538</ele>
        <time>2024-08-25T13:10:16.000Z</time>
      </trkpt>
      <trkpt lat="56.148976" lon="9.555844">
        <ele>26.983387926</ele>
        <time>2024-08-25T13:10:18.000Z</time>
      </trkpt>
      <trkpt lat="56.1488" lon="9.556075">
        <ele>26.6260118572</ele>
        <time>2024-08-25T13:10:20.000Z</time>
      </trkpt>
    </trkseg>
  </trk>
</gpx>

<!--
Performance optimized by W3 Total Cache. Learn more: https://www.boldgrid.com/w3-total-cache/?utm_source=w3tc&utm_medium=footer_comment&utm_campaign=free_plugin

Page Caching using Disk: Enhanced{w3tc_pagecache_reject_reason} 

Served from: www.aquabike.world @ 2026-05-10 03:00:59 by W3 Total Cache
-->